Provisional Data: Catatonk Creek near Spencer, NY


Please select a monitoring station.
Please select start date.
Please select start date.

Toggle Unit: C/F Toggle Unit: C/F
Sample Time Temperature (C) Temperature (F) Specific Conductivity (mS/cm) pH   Turbidity (NTU+) DO (mg/L)
1/12/2021 12:00:00 AM 2.96 37.328 0.317 7.65 4.37 11.49
1/12/2021 12:15:00 AM 3 37.4 0.318 7.64 5.57 11.48
1/12/2021 12:30:00 AM 2.96 37.328 0.318 7.65 3.86 11.49
1/12/2021 12:45:00 AM 2.95 37.31 0.317 7.65 4.02 11.49
1/12/2021 1:00:00 AM 2.96 37.328 0.318 7.65 4.03 11.46
1/12/2021 1:15:00 AM 2.94 37.292 0.318 7.64 5.71 11.51
1/12/2021 1:30:00 AM 2.93 37.274 0.317 7.64 5.3 11.51
1/12/2021 1:45:00 AM 2.94 37.292 0.317 7.64 5.23 11.5
1/12/2021 2:00:00 AM 2.92 37.256 0.317 7.65 3.66 11.5
1/12/2021 2:15:00 AM 2.9 37.22 0.317 7.64 5.17 11.51
1/12/2021 2:30:00 AM 2.89 37.202 0.316 7.65 5.28 11.52
1/12/2021 2:45:00 AM 2.88 37.184 0.317 7.65 3.45 11.52
1/12/2021 3:00:00 AM 2.87 37.166 0.316 7.64 5.1 11.52
1/12/2021 3:15:00 AM 2.88 37.184 0.318 7.64 5.15 11.52
1/12/2021 3:30:00 AM 2.84 37.112 0.318 7.65 3.73 11.53
1/12/2021 3:45:00 AM 2.83 37.094 0.317 7.65 3.8 11.51
1/12/2021 4:00:00 AM 2.86 37.148 0.319 7.64 5.36 11.5
1/12/2021 4:15:00 AM 2.8 37.04 0.317 7.65 3.72 11.54
1/12/2021 4:30:00 AM 2.8 37.04 0.318 7.65 3.56 11.54
1/12/2021 4:45:00 AM 2.8 37.04 0.317 7.64 5.46 11.53
1/12/2021 5:00:00 AM 2.8 37.04 0.318 7.64 5.13 11.54
1/12/2021 5:15:00 AM 2.79 37.022 0.32 7.65 3.38 11.47
1/12/2021 5:30:00 AM 2.79 37.022 0.318 7.64 5.01 11.51
1/12/2021 5:45:00 AM 2.76 36.968 0.319 7.65 3.67 11.55
1/12/2021 6:00:00 AM 2.76 36.968 0.319 7.65 3.54 11.52
1/12/2021 6:15:00 AM 2.75 36.95 0.32 7.64 5.06 11.56
1/12/2021 6:30:00 AM 2.77 36.986 0.322 7.64 5.14 11.55
1/12/2021 6:45:00 AM 2.75 36.95 0.321 7.65 3.55 11.55
1/12/2021 7:00:00 AM 2.75 36.95 0.321 7.65 5.17 11.56
1/12/2021 7:15:00 AM 2.73 36.914 0.321 7.65 3.56 11.57
1/12/2021 7:30:00 AM 2.75 36.95 0.321 7.65 4.97 11.55
1/12/2021 7:45:00 AM 2.73 36.914 0.322 7.65 5.25 11.56
1/12/2021 8:00:00 AM 2.76 36.968 0.322 7.65 5.11 11.54
1/12/2021 8:15:00 AM 2.74 36.932 0.322 7.65 3.74 11.57
1/12/2021 8:30:00 AM 2.77 36.986 0.318 7.68 4.19 11.89
1/12/2021 8:45:00 AM 2.74 36.932 0.319 7.71 4.13 11.86
1/12/2021 9:00:00 AM 2.78 37.004 0.321 7.72 4.2 11.85
1/12/2021 9:15:00 AM 2.77 36.986 0.32 7.72 3.9 11.89
1/12/2021 9:30:00 AM 2.81 37.058 0.319 7.72 3.93 11.91
1/12/2021 9:45:00 AM 2.87 37.166 0.321 7.72 4.53 11.95
1/12/2021 10:00:00 AM 2.91 37.238 0.321 7.73 4.8 11.98
1/12/2021 10:15:00 AM 2.96 37.328 0.32 7.73 5.04 12.03
1/12/2021 10:30:00 AM 3.01 37.418 0.319 7.73 4.3 12.06
1/12/2021 10:45:00 AM 3.06 37.508 0.32 7.73 3.81 12.07
1/12/2021 11:00:00 AM 3.07 37.526 0.32 7.74 4.18 12.09
1/12/2021 11:15:00 AM 3.12 37.616 0.32 7.74 4.21 12.07
1/12/2021 11:30:00 AM 3.16 37.688 0.321 7.74 4.16 12.14
1/12/2021 11:45:00 AM 3.19 37.742 0.32 7.75 3.82 12.15
1/12/2021 12:00:00 PM 3.23 37.814 0.32 7.75 3.35 12.16
1/12/2021 12:15:00 PM 3.24 37.832 0.321 7.75 3.4 12.16
1/12/2021 12:30:00 PM 3.27 37.886 0.321 7.76 3.97 12.17
1/12/2021 12:45:00 PM 3.3 37.94 0.32 7.76 4.02 12.19
1/12/2021 1:00:00 PM 3.35 38.03 0.321 7.76 3.85 12.2
1/12/2021 1:15:00 PM 3.4 38.12 0.325 7.77 3.81 12.19
1/12/2021 1:30:00 PM 3.38 38.084 0.321 7.77 3.87 12.19
1/12/2021 1:45:00 PM 3.4 38.12 0.321 7.77 4.24 12.19
1/12/2021 2:00:00 PM 3.42 38.156 0.322 7.77 4.55 12.18
1/12/2021 2:15:00 PM 3.45 38.21 0.321 7.78 4.08 12.18
1/12/2021 2:30:00 PM 3.49 38.282 0.321 7.78 4.08 12.19
1/12/2021 2:45:00 PM 3.5 38.3 0.322 7.78 3.73 12.17
1/12/2021 3:00:00 PM 3.51 38.318 0.322 7.78 4.29 12.16
1/12/2021 3:15:00 PM 3.52 38.336 0.321 7.79 4.12 12.16
1/12/2021 3:30:00 PM 3.56 38.408 0.323 7.79 4.3 12.11
1/12/2021 3:45:00 PM 3.54 38.372 0.322 7.79 4 12.1
1/12/2021 4:00:00 PM 3.56 38.408 0.323 7.78 4.32 12.05
1/12/2021 4:15:00 PM 3.54 38.372 0.322 7.79 4.05 12.04
1/12/2021 4:30:00 PM 3.54 38.372 0.322 7.78 4.09 12.01
1/12/2021 4:45:00 PM 3.54 38.372 0.323 7.78 4.45 11.98
1/12/2021 5:00:00 PM 3.54 38.372 0.324 7.78 4.38 11.94
1/12/2021 5:15:00 PM 3.51 38.318 0.322 7.78 4.28 11.91
1/12/2021 5:30:00 PM 3.49 38.282 0.322 7.78 5.01 11.89
1/12/2021 5:45:00 PM 3.49 38.282 0.323 7.77 4.34 11.85
1/12/2021 6:00:00 PM 3.48 38.264 0.323 7.77 4.31 11.82
1/12/2021 6:15:00 PM 3.46 38.228 0.323 7.77 3.93 11.8
1/12/2021 6:30:00 PM 3.46 38.228 0.324 7.77 3.77 11.77
1/12/2021 6:45:00 PM 3.44 38.192 0.323 7.77 4.5 11.75
1/12/2021 7:00:00 PM 3.46 38.228 0.325 7.77 3.92 11.71
1/12/2021 7:15:00 PM 3.42 38.156 0.323 7.76 3.84 11.71
1/12/2021 7:30:00 PM 3.44 38.192 0.323 7.76 3.52 11.67
1/12/2021 7:45:00 PM 3.41 38.138 0.326 7.76 3.27 11.66
1/12/2021 8:00:00 PM 3.4 38.12 0.324 7.76 3.57 11.65
1/12/2021 8:15:00 PM 3.38 38.084 0.324 7.76 3.67 11.65
1/12/2021 8:30:00 PM 3.38 38.084 0.324 7.76 3.6 11.61
1/12/2021 8:45:00 PM 3.37 38.066 0.324 7.76 3.62 11.61
1/12/2021 9:00:00 PM 3.36 38.048 0.325 7.75 3.92 11.6
1/12/2021 9:15:00 PM 3.36 38.048 0.325 7.75 3.72 11.56
1/12/2021 9:30:00 PM 3.35 38.03 0.326 7.75 4.18 11.57
1/12/2021 9:45:00 PM 3.33 37.994 0.324 7.75 3.71 11.57
1/12/2021 10:00:00 PM 3.33 37.994 0.325 7.75 3.29 11.55
1/12/2021 10:15:00 PM 3.32 37.976 0.324 7.75 3.65 11.54
1/12/2021 10:30:00 PM 3.3 37.94 0.325 7.75 3.56 11.54
1/12/2021 10:45:00 PM 3.29 37.922 0.325 7.75 3.37 11.54
1/12/2021 11:00:00 PM 3.29 37.922 0.325 7.74 4.03 11.54
1/12/2021 11:15:00 PM 3.27 37.886 0.325 7.75 3.51 11.52
1/12/2021 11:30:00 PM 3.25 37.85 0.324 7.75 3.53 11.55
1/12/2021 11:45:00 PM 3.24 37.832 0.325 7.74 3.72 11.54
1/13/2021 12:00:00 AM 3.23 37.814 0.325 7.75 3.31 11.55
1/13/2021 12:15:00 AM 3.23 37.814 0.325 7.74 3.18 11.54
1/13/2021 12:30:00 AM 3.23 37.814 0.327 7.74 3.09 11.52
1/13/2021 12:45:00 AM 3.21 37.778 0.326 7.74 3.54 11.54
1/13/2021 1:00:00 AM 3.17 37.706 0.324 7.74 3.11 11.55
1/13/2021 1:15:00 AM 3.19 37.742 0.326 7.74 3.19 11.53
1/13/2021 1:30:00 AM 3.18 37.724 0.325 7.74 3.05 11.54
1/13/2021 1:45:00 AM 3.18 37.724 0.325 7.74 3.13 11.53
1/13/2021 2:00:00 AM 3.18 37.724 0.326 7.74 3.49 11.52
1/13/2021 2:15:00 AM 3.15 37.67 0.326 7.74 3.25 11.55
1/13/2021 2:30:00 AM 3.15 37.67 0.326 7.74 3.06 11.56
1/13/2021 2:45:00 AM 3.14 37.652 0.325 7.74 3.3 11.55
1/13/2021 3:00:00 AM 3.12 37.616 0.325 7.74 3.14 11.54
1/13/2021 3:15:00 AM 3.14 37.652 0.326 7.74 2.89 11.54
1/13/2021 3:30:00 AM 3.11 37.598 0.325 7.74 2.99 11.55
1/13/2021 3:45:00 AM 3.09 37.562 0.325 7.74 3.38 11.56
1/13/2021 4:00:00 AM 3.09 37.562 0.325 7.74 3.15 11.55
1/13/2021 4:15:00 AM 3.07 37.526 0.326 7.74 3.08 11.56
1/13/2021 4:30:00 AM 3.06 37.508 0.326 7.74 3.06 11.57
1/13/2021 4:45:00 AM 3.07 37.526 0.327 7.74 2.85 11.54
1/13/2021 5:00:00 AM 3.06 37.508 0.326 7.74 2.86 11.54
1/13/2021 5:15:00 AM 3.04 37.472 0.327 7.74 3.17 11.56
1/13/2021 5:30:00 AM 3.02 37.436 0.325 7.74 2.94 11.57
1/13/2021 5:45:00 AM 3.01 37.418 0.326 7.74 2.87 11.57
1/13/2021 6:00:00 AM 3 37.4 0.326 7.74 2.98 11.58
1/13/2021 6:15:00 AM 3.01 37.418 0.326 7.74 2.81 11.57
1/13/2021 6:30:00 AM 3.02 37.436 0.327 7.74 2.73 11.55
1/13/2021 6:45:00 AM 3.03 37.454 0.332 7.74 3.03 11.56
1/13/2021 7:00:00 AM 3 37.4 0.326 7.74 3.03 11.57
1/13/2021 7:15:00 AM 3 37.4 0.327 7.74 2.81 11.58
1/13/2021 7:30:00 AM 3 37.4 0.327 7.74 3.08 11.56
1/13/2021 7:45:00 AM 3.01 37.418 0.327 7.74 2.76 11.55
1/13/2021 8:00:00 AM 2.98 37.364 0.327 7.75 2.94 11.58
1/13/2021 8:15:00 AM 2.97 37.346 0.326 7.75 3.09 11.59
1/13/2021 8:30:00 AM 2.99 37.382 0.327 7.75 3.07 11.58
1/13/2021 8:45:00 AM 2.99 37.382 0.327 7.75 2.88 11.62
1/13/2021 9:00:00 AM 2.98 37.364 0.326 7.75 3.15 11.64
1/13/2021 9:15:00 AM 2.98 37.364 0.327 7.75 3.28 11.65
1/13/2021 9:30:00 AM 2.99 37.382 0.326 7.76 3.71 11.69
1/13/2021 9:45:00 AM 3 37.4 0.327 7.76 3.87 11.73
1/13/2021 10:00:00 AM 3.02 37.436 0.327 7.76 4.77 11.74
1/13/2021 10:15:00 AM 3.05 37.49 0.328 7.76 4.26 11.76
1/13/2021 10:30:00 AM 3.06 37.508 0.327 7.76 3.87 11.79
1/13/2021 10:45:00 AM 3.06 37.508 0.327 7.77 3.75 11.85
1/13/2021 11:00:00 AM 3.1 37.58 0.327 7.78 4.61 11.87
1/13/2021 11:15:00 AM 3.13 37.634 0.327 7.78 3.91 11.9
1/13/2021 11:30:00 AM 3.16 37.688 0.327 7.78 4.37 11.93
1/13/2021 11:45:00 AM 3.17 37.706 0.327 7.79 3.11 11.97
1/13/2021 12:00:00 PM 3.2 37.76 0.326 7.79 3.64 12
1/13/2021 12:15:00 PM 3.25 37.85 0.327 7.79 4.8 12.01
1/13/2021 12:30:00 PM 3.27 37.886 0.327 7.8 4.53 12.05
1/13/2021 12:45:00 PM 3.32 37.976 0.327 7.8 3.71 12.06
1/13/2021 1:00:00 PM 3.34 38.012 0.327 7.81 4.21 12.08
1/13/2021 1:15:00 PM 3.39 38.102 0.327 7.81 3.65 12.09
1/13/2021 1:30:00 PM 3.43 38.174 0.327 7.81 3.76 12.12
1/13/2021 1:45:00 PM 3.47 38.246 0.327 7.81 3.91 12.13
1/13/2021 2:00:00 PM 3.52 38.336 0.327 7.82 4.02 12.14
1/13/2021 2:15:00 PM 3.56 38.408 0.327 7.82 4.13 12.16
1/13/2021 2:30:00 PM 3.6 38.48 0.327 7.82 4.36 12.15
1/13/2021 2:45:00 PM 3.64 38.552 0.327 7.82 4.37 12.15
1/13/2021 3:00:00 PM 3.68 38.624 0.327 7.82 6.21 12.16
1/13/2021 3:15:00 PM 3.7 38.66 0.327 7.83 5.57 12.17
1/13/2021 3:30:00 PM 3.73 38.714 0.327 7.83 6.83 12.16
1/13/2021 3:45:00 PM 3.76 38.768 0.328 7.83 5.3 12.13
1/13/2021 4:00:00 PM 3.76 38.768 0.327 7.83 8.14 12.12
1/13/2021 4:15:00 PM 3.8 38.84 0.33 7.82 8.7 12.06
1/13/2021 4:30:00 PM 3.74 38.732 0.327 7.83 5.89 12.05
1/13/2021 4:45:00 PM 3.77 38.786 0.328 7.83 4.84 11.99
1/13/2021 5:00:00 PM 3.73 38.714 0.328 7.82 4.74 11.96
1/13/2021 5:15:00 PM 3.73 38.714 0.327 7.82 5.11 11.92
1/13/2021 5:30:00 PM 3.71 38.678 0.328 7.82 4.21 11.88
1/13/2021 5:45:00 PM 3.69 38.642 0.328 7.81 4.57 11.84
1/13/2021 6:00:00 PM 3.69 38.642 0.328 7.81 6.28 11.78
1/13/2021 6:15:00 PM 3.66 38.588 0.329 7.81 4.85 11.73
1/13/2021 6:30:00 PM 3.66 38.588 0.328 7.8 3.71 11.72
1/13/2021 6:45:00 PM 3.65 38.57 0.328 7.8 3.77 11.7
1/13/2021 7:00:00 PM 3.64 38.552 0.328 7.8 3.6 11.67
1/13/2021 7:15:00 PM 3.65 38.57 0.329 7.79 3.61 11.61
1/13/2021 7:30:00 PM 3.64 38.552 0.329 7.79 3.88 11.6
1/13/2021 7:45:00 PM 3.64 38.552 0.329 7.79 3.65 11.56
1/13/2021 8:00:00 PM 3.62 38.516 0.329 7.79 4.19 11.55
1/13/2021 8:15:00 PM 3.6 38.48 0.329 7.79 3.49 11.53
1/13/2021 8:30:00 PM 3.57 38.426 0.328 7.78 3.29 11.51
1/13/2021 8:45:00 PM 3.56 38.408 0.33 7.78 3.59 11.49
1/13/2021 9:00:00 PM 3.54 38.372 0.329 7.78 5.17 11.48
1/13/2021 9:15:00 PM 3.5 38.3 0.329 7.78 3.49 11.47
1/13/2021 9:30:00 PM 3.5 38.3 0.33 7.77 3.38 11.44
1/13/2021 9:45:00 PM 3.45 38.21 0.329 7.77 3.2 11.44
1/13/2021 10:00:00 PM 3.4 38.12 0.329 7.77 3.28 11.44
1/13/2021 10:15:00 PM 3.36 38.048 0.33 7.77 3.14 11.43
1/13/2021 10:30:00 PM 3.32 37.976 0.329 7.77 3.01 11.42
1/13/2021 10:45:00 PM 3.27 37.886 0.329 7.77 3.24 11.43
1/13/2021 11:00:00 PM 3.23 37.814 0.329 7.77 3.01 11.42
1/13/2021 11:15:00 PM 3.2 37.76 0.329 7.76 3.44 11.43
1/13/2021 11:30:00 PM 3.17 37.706 0.33 7.76 3.23 11.42
1/13/2021 11:45:00 PM 3.15 37.67 0.33 7.76 3.23 11.44
1/14/2021 12:00:00 AM 3.14 37.652 0.329 7.76 3.33 11.42
1/14/2021 12:15:00 AM 3.12 37.616 0.331 7.76 2.96 11.4
1/14/2021 12:30:00 AM 3.07 37.526 0.33 7.76 3.35 11.43
1/14/2021 12:45:00 AM 3.05 37.49 0.33 7.76 3.22 11.44
1/14/2021 1:00:00 AM 3.05 37.49 0.329 7.76 3.36 11.42
1/14/2021 1:15:00 AM 3.01 37.418 0.329 7.76 3.26 11.43
1/14/2021 1:30:00 AM 3 37.4 0.329 7.76 3.38 11.45
1/14/2021 1:45:00 AM 2.99 37.382 0.33 7.75 3.15 11.46
1/14/2021 2:00:00 AM 2.96 37.328 0.33 7.75 3.09 11.44
1/14/2021 2:15:00 AM 2.96 37.328 0.331 7.75 3.45 11.45
1/14/2021 2:30:00 AM 2.92 37.256 0.33 7.76 3.15 11.47
1/14/2021 2:45:00 AM 2.93 37.274 0.331 7.75 3.29 11.45
1/14/2021 3:00:00 AM 2.88 37.184 0.329 7.75 3.3 11.48
1/14/2021 3:15:00 AM 2.86 37.148 0.33 7.75 3.07 11.48
1/14/2021 3:30:00 AM 2.83 37.094 0.329 7.75 3.34 11.5
1/14/2021 3:45:00 AM 2.81 37.058 0.33 7.75 2.95 11.51
1/14/2021 4:00:00 AM 2.81 37.058 0.33 7.75 2.95 11.51
1/14/2021 4:15:00 AM 2.78 37.004 0.329 7.75 3.15 11.53
1/14/2021 4:30:00 AM 2.79 37.022 0.33 7.75 2.92 11.5
1/14/2021 4:45:00 AM 2.74 36.932 0.33 7.75 3.08 11.53
1/14/2021 5:00:00 AM 2.73 36.914 0.33 7.75 2.8 11.55
1/14/2021 5:15:00 AM 2.74 36.932 0.33 7.75 2.71 11.54
1/14/2021 5:30:00 AM 2.74 36.932 0.331 7.75 2.81 11.53
1/14/2021 5:45:00 AM 2.73 36.914 0.33 7.75 2.95 11.55
1/14/2021 6:00:00 AM 2.75 36.95 0.331 7.75 2.83 11.53
1/14/2021 6:15:00 AM 2.73 36.914 0.33 7.75 3.34 11.56
1/14/2021 6:30:00 AM 2.74 36.932 0.331 7.75 3.15 11.55
1/14/2021 6:45:00 AM 2.73 36.914 0.331 7.75 3.57 11.54
1/14/2021 7:00:00 AM 2.74 36.932 0.331 7.75 2.76 11.55
1/14/2021 7:15:00 AM 2.74 36.932 0.332 7.75 8.97 11.55
1/14/2021 7:30:00 AM 2.75 36.95 0.331 7.75 3.34 11.55
1/14/2021 7:45:00 AM 2.74 36.932 0.331 7.75 2.86 11.56
1/14/2021 8:00:00 AM 2.77 36.986 0.333 7.75 5.56 11.53
1/14/2021 8:15:00 AM 2.78 37.004 0.333 7.75 4.43 11.55
1/14/2021 8:30:00 AM 2.76 36.968 0.33 7.75 3.64 11.59
1/14/2021 8:45:00 AM 2.78 37.004 0.331 7.75 4.52 11.61
1/14/2021 9:00:00 AM 2.82 37.076 0.33 7.75 4.13 11.63
1/14/2021 9:15:00 AM 2.84 37.112 0.332 7.76 3.88 11.67
1/14/2021 9:30:00 AM 2.86 37.148 0.333 7.76 4.12 11.71
1/14/2021 9:45:00 AM 2.9 37.22 0.331 7.76 5.32 11.74
1/14/2021 10:00:00 AM 2.93 37.274 0.331 7.77 4.25 11.8
1/14/2021 10:15:00 AM 2.99 37.382 0.331 7.77 3.78 11.81
1/14/2021 10:30:00 AM 3.04 37.472 0.331 7.78 3.69 11.87
1/14/2021 10:45:00 AM 3.12 37.616 0.333 7.78 3.41 11.89
1/14/2021 11:00:00 AM 3.19 37.742 0.333 7.78 4.31 11.93
1/14/2021 11:15:00 AM 3.23 37.814 0.331 7.79 3.25 11.96
1/14/2021 11:30:00 AM 3.28 37.904 0.33 7.79 3.6 11.99
1/14/2021 11:45:00 AM 3.38 38.084 0.333 7.79 3.69 11.99
1/14/2021 12:00:00 PM 3.45 38.21 0.332 7.8 3.79 12.03
1/14/2021 12:15:00 PM 3.53 38.354 0.333 7.8 4.01 12.05
1/14/2021 12:30:00 PM 3.58 38.444 0.331 7.81 3.63 12.08
1/14/2021 12:45:00 PM 3.67 38.606 0.331 7.81 3.83 12.1
1/14/2021 1:00:00 PM 3.74 38.732 0.331 7.81 3.36 12.1
1/14/2021 1:15:00 PM 3.79 38.822 0.331 7.81 3.32 12.09
1/14/2021 1:30:00 PM 3.84 38.912 0.331 7.82 3.25 12.1
1/14/2021 1:45:00 PM 3.91 39.038 0.331 7.82 3.36 12.09
1/14/2021 2:00:00 PM 3.96 39.128 0.332 7.82 3.19 12.11
1/14/2021 2:15:00 PM 4.02 39.236 0.331 7.83 3.48 12.13
1/14/2021 2:30:00 PM 4.09 39.362 0.332 7.83 3.36 12.11
1/14/2021 2:45:00 PM 4.13 39.434 0.331 7.83 3.44 12.1
1/14/2021 3:00:00 PM 4.2 39.56 0.333 7.83 3.43 12.08
1/14/2021 3:15:00 PM 4.22 39.596 0.332 7.83 3.74 12.06
1/14/2021 3:30:00 PM 4.25 39.65 0.331 7.83 4.02 12.02
1/14/2021 3:45:00 PM 4.27 39.686 0.331 7.83 3.45 11.97
1/14/2021 4:00:00 PM 4.31 39.758 0.332 7.83 3.89 11.92
1/14/2021 4:15:00 PM 4.34 39.812 0.333 7.82 3.43 11.87
1/14/2021 4:30:00 PM 4.35 39.83 0.332 7.82 3.33 11.81
1/14/2021 4:45:00 PM 4.36 39.848 0.333 7.82 3.7 11.75
1/14/2021 5:00:00 PM 4.37 39.866 0.333 7.81 3.89 11.69
1/14/2021 5:15:00 PM 4.36 39.848 0.333 7.81 4.05 11.66
1/14/2021 5:30:00 PM 4.35 39.83 0.333 7.81 3.94 11.6
1/14/2021 5:45:00 PM 4.38 39.884 0.334 7.8 3.89 11.52
1/14/2021 6:00:00 PM 4.36 39.848 0.334 7.8 4.08 11.51
1/14/2021 6:15:00 PM 4.36 39.848 0.333 7.79 3.95 11.47
1/14/2021 6:30:00 PM 4.37 39.866 0.334 7.79 4.51 11.41
1/14/2021 6:45:00 PM 4.36 39.848 0.334 7.79 4.41 11.39
1/14/2021 7:00:00 PM 4.34 39.812 0.334 7.79 3.93 11.38
1/14/2021 7:15:00 PM 4.33 39.794 0.333 7.78 4.09 11.34
1/14/2021 7:30:00 PM 4.31 39.758 0.332 7.78 3.55 11.33
1/14/2021 7:45:00 PM 4.31 39.758 0.334 7.78 4.87 11.29
1/14/2021 8:00:00 PM 4.3 39.74 0.333 7.77 3.19 11.27
1/14/2021 8:15:00 PM 4.3 39.74 0.334 7.77 3.46 11.21
1/14/2021 8:30:00 PM 4.31 39.758 0.337 7.77 3.13 11.22
1/14/2021 8:45:00 PM 4.27 39.686 0.334 7.76 3.1 11.2
1/14/2021 9:00:00 PM 4.27 39.686 0.336 7.76 3.18 11.18
1/14/2021 9:15:00 PM 4.25 39.65 0.333 7.76 3.4 11.16
1/14/2021 9:30:00 PM 4.24 39.632 0.333 7.76 3.44 11.15
1/14/2021 9:45:00 PM 4.2 39.56 0.333 7.76 3.84 11.16
1/14/2021 10:00:00 PM 4.19 39.542 0.334 7.76 3.27 11.16
1/14/2021 10:15:00 PM 4.17 39.506 0.334 7.75 3.16 11.16
1/14/2021 10:30:00 PM 4.16 39.488 0.333 7.75 3.32 11.13
1/14/2021 10:45:00 PM 4.15 39.47 0.333 7.75 3.36 11.12
1/14/2021 11:00:00 PM 4.15 39.47 0.333 7.75 3.13 11.13
1/14/2021 11:15:00 PM 4.14 39.452 0.333 7.75 3.28 11.11
1/14/2021 11:30:00 PM 4.13 39.434 0.334 7.75 3.36 11.12
1/14/2021 11:45:00 PM 4.12 39.416 0.334 7.75 2.9 11.12
1/15/2021 12:00:00 AM 4.19 39.542 0.333 7.74 3.43 10.96
1/15/2021 12:15:00 AM 4.15 39.47 0.335 7.74 2.86 11.06
1/15/2021 12:30:00 AM 4.09 39.362 0.333 7.75 2.9 11.1
1/15/2021 12:45:00 AM 4.11 39.398 0.335 7.75 2.79 11.09
1/15/2021 1:00:00 AM 4.09 39.362 0.334 7.75 3.31 11.09
1/15/2021 1:15:00 AM 4.08 39.344 0.334 7.74 2.75 11.11
1/15/2021 1:30:00 AM 4.09 39.362 0.335 7.74 2.59 11.1
1/15/2021 1:45:00 AM 4.06 39.308 0.334 7.74 3.05 11.1
1/15/2021 2:00:00 AM 4.06 39.308 0.333 7.74 2.77 11.1
1/15/2021 2:15:00 AM 4.05 39.29 0.334 7.74 2.81 11.11
1/15/2021 2:30:00 AM 4.05 39.29 0.335 7.74 3.05 11.11
1/15/2021 2:45:00 AM 4.02 39.236 0.334 7.75 2.65 11.12
1/15/2021 3:00:00 AM 4.04 39.272 0.334 7.74 2.79 11.1
1/15/2021 3:15:00 AM 4 39.2 0.334 7.74 2.86 11.13
1/15/2021 3:30:00 AM 4 39.2 0.334 7.74 2.84 11.14
1/15/2021 3:45:00 AM 3.97 39.146 0.333 7.74 2.67 11.15
1/15/2021 4:00:00 AM 3.96 39.128 0.334 7.74 2.61 11.13
1/15/2021 4:15:00 AM 3.93 39.074 0.334 7.74 2.58 11.16
1/15/2021 4:30:00 AM 3.94 39.092 0.334 7.74 2.76 11.14
1/15/2021 4:45:00 AM 3.93 39.074 0.335 7.74 2.68 11.12
1/15/2021 5:00:00 AM 3.89 39.002 0.334 7.74 2.68 11.15
1/15/2021 5:15:00 AM 3.9 39.02 0.335 7.74 2.7 11.12
1/15/2021 5:30:00 AM 3.87 38.966 0.335 7.74 2.66 11.1
1/15/2021 5:45:00 AM 3.81 38.858 0.334 7.74 2.84 11.16
1/15/2021 6:00:00 AM 3.79 38.822 0.335 7.74 2.86 11.16
1/15/2021 6:15:00 AM 3.73 38.714 0.333 7.75 2.54 11.2
1/15/2021 6:30:00 AM 3.72 38.696 0.334 7.74 2.96 11.19
1/15/2021 6:45:00 AM 3.7 38.66 0.335 7.74 3.42 11.18
1/15/2021 7:00:00 AM 3.66 38.588 0.335 7.74 2.9 11.19
1/15/2021 7:15:00 AM 3.62 38.516 0.334 7.74 3.27 11.22
1/15/2021 7:30:00 AM 3.59 38.462 0.333 7.74 4.24 11.21
1/15/2021 7:45:00 AM 3.56 38.408 0.334 7.74 3.52 11.24
1/15/2021 8:00:00 AM 3.53 38.354 0.333 7.75 3.17 11.27
1/15/2021 8:15:00 AM 3.52 38.336 0.334 7.75 3.15 11.28
1/15/2021 8:30:00 AM 3.52 38.336 0.334 7.75 2.77 11.3
1/15/2021 8:45:00 AM 3.51 38.318 0.333 7.75 3.06 11.36
1/15/2021 9:00:00 AM 3.52 38.336 0.335 7.75 2.98 11.41
1/15/2021 9:15:00 AM 3.53 38.354 0.335 7.76 3.16 11.44
1/15/2021 9:30:00 AM 3.53 38.354 0.333 7.76 3.2 11.47
1/15/2021 9:45:00 AM 3.56 38.408 0.335 7.77 3.85 11.5
1/15/2021 10:00:00 AM 3.58 38.444 0.336 7.77 3.45 11.57
1/15/2021 10:15:00 AM 3.62 38.516 0.334 7.77 3.64 11.62
1/15/2021 10:30:00 AM 3.64 38.552 0.332 7.78 3.61 11.69
1/15/2021 10:45:00 AM 3.7 38.66 0.333 7.79 3.45 11.72
1/15/2021 11:00:00 AM 3.75 38.75 0.333 7.79 2.96 11.77
1/15/2021 11:15:00 AM 3.84 38.912 0.336 7.79 3.16 11.77
1/15/2021 11:30:00 AM 3.88 38.984 0.333 7.8 3.01 11.83
1/15/2021 11:45:00 AM 3.96 39.128 0.333 7.8 2.94 11.88
1/15/2021 12:00:00 PM 4.01 39.218 0.334 7.81 3.45 11.9
1/15/2021 12:15:00 PM 4.04 39.272 0.333 7.81 3 11.97
1/15/2021 12:30:00 PM 4.09 39.362 0.332 7.82 2.95 11.98
1/15/2021 12:45:00 PM 4.18 39.524 0.335 7.82 3.09 11.99
1/15/2021 1:00:00 PM 4.19 39.542 0.332 7.83 3.05 12
1/15/2021 1:15:00 PM 4.26 39.668 0.335 7.83 3.85 12.02
1/15/2021 1:30:00 PM 4.29 39.722 0.334 7.83 3.07 12.01
1/15/2021 1:45:00 PM 4.33 39.794 0.333 7.83 3.16 12.01
1/15/2021 2:00:00 PM 4.32 39.776 0.333 7.84 4.32 12.03
1/15/2021 2:15:00 PM 4.35 39.83 0.333 7.84 2.89 12.01
1/15/2021 2:30:00 PM 4.39 39.902 0.333 7.84 2.98 11.99
1/15/2021 2:45:00 PM 4.41 39.938 0.333 7.84 2.71 12
1/15/2021 3:00:00 PM 4.5 40.1 0.336 7.83 2.92 11.86
1/15/2021 3:15:00 PM 4.54 40.172 0.342 7.82 2.85 11.79
1/15/2021 3:30:00 PM 4.48 40.064 0.335 7.83 3.05 11.85
1/15/2021 3:45:00 PM 4.51 40.118 0.335 7.81 3.02 11.75
1/15/2021 4:00:00 PM 4.53 40.154 0.335 7.82 3.77 11.65
1/15/2021 4:15:00 PM 4.61 40.298 0.341 7.81 3.39 11.47
1/15/2021 4:30:00 PM 4.55 40.19 0.337 7.81 3.21 11.53
1/15/2021 4:45:00 PM 4.56 40.208 0.338 7.81 3.18 11.51
1/15/2021 5:00:00 PM 4.53 40.154 0.336 7.81 3.6 11.51
1/15/2021 5:15:00 PM 4.56 40.208 0.337 7.81 3.26 11.45
1/15/2021 5:30:00 PM 4.55 40.19 0.335 7.81 3.92 11.4
1/15/2021 5:45:00 PM 4.51 40.118 0.334 7.81 3.64 11.41
1/15/2021 6:00:00 PM 4.49 40.082 0.333 7.8 3.36 11.39
1/15/2021 6:15:00 PM 4.5 40.1 0.334 7.8 3.52 11.37
1/15/2021 6:30:00 PM 4.48 40.064 0.332 7.8 3.47 11.35
1/15/2021 6:45:00 PM 4.48 40.064 0.333 7.79 3.27 11.31
1/15/2021 7:00:00 PM 4.47 40.046 0.334 7.79 3.42 11.28
1/15/2021 7:15:00 PM 4.45 40.01 0.332 7.79 3.5 11.27
1/15/2021 7:30:00 PM 4.45 40.01 0.333 7.78 3.54 11.25
1/15/2021 7:45:00 PM 4.44 39.992 0.332 7.78 3.01 11.21
1/15/2021 8:00:00 PM 4.43 39.974 0.333 7.78 3.04 11.21
1/15/2021 8:15:00 PM 4.41 39.938 0.333 7.78 3.13 11.2
1/15/2021 8:30:00 PM 4.4 39.92 0.332 7.78 3.08 11.19
1/15/2021 8:45:00 PM 4.4 39.92 0.332 7.77 3.41 11.18
1/15/2021 9:00:00 PM 4.39 39.902 0.332 7.77 3.31 11.15
1/15/2021 9:15:00 PM 4.39 39.902 0.331 7.77 3.31 11.13
1/15/2021 9:30:00 PM 4.38 39.884 0.331 7.77 3.29 11.12
1/15/2021 9:45:00 PM 4.37 39.866 0.33 7.77 3.26 11.14
1/15/2021 10:00:00 PM 4.38 39.884 0.331 7.77 3.29 11.12
1/15/2021 10:15:00 PM 4.37 39.866 0.33 7.76 3.74 11.12
1/15/2021 10:30:00 PM 4.36 39.848 0.33 7.76 3.25 11.11
1/15/2021 10:45:00 PM 4.35 39.83 0.328 7.76 3.51 11.11
1/15/2021 11:00:00 PM 4.35 39.83 0.329 7.76 2.95 11.1
1/15/2021 11:15:00 PM 4.35 39.83 0.328 7.76 3.08 11.09
1/15/2021 11:30:00 PM 4.34 39.812 0.327 7.76 3.39 11.1
1/15/2021 11:45:00 PM 4.33 39.794 0.326 7.76 3.04 11.11
1/16/2021 12:00:00 AM 4.32 39.776 0.327 7.76 3.39 11.1
1/16/2021 12:15:00 AM 4.32 39.776 0.331 7.75 3.95 11.09
1/16/2021 12:30:00 AM 4.3 39.74 0.336 7.75 4.23 11.1
1/16/2021 12:45:00 AM 4.29 39.722 0.341 7.75 4.87 11.09
1/16/2021 1:00:00 AM 4.28 39.704 0.345 7.74 5.47 11.08
1/16/2021 1:15:00 AM 4.24 39.632 0.346 7.74 6.16 11.1
1/16/2021 1:30:00 AM 4.21 39.578 0.346 7.74 6.63 11.09
1/16/2021 1:45:00 AM 4.16 39.488 0.343 7.74 6.46 11.12
1/16/2021 2:00:00 AM 4.11 39.398 0.341 7.74 6.44 11.13
1/16/2021 2:15:00 AM 4 39.2 0.338 7.73 6.33 11.13
1/16/2021 2:30:00 AM 3.91 39.038 0.335 7.73 6.42 11.14
1/16/2021 2:45:00 AM 3.85 38.93 0.332 7.73 6.43 11.15
1/16/2021 3:00:00 AM 3.8 38.84 0.331 7.72 6.04 11.16
1/16/2021 3:15:00 AM 3.76 38.768 0.33 7.72 6.54 11.17
1/16/2021 3:30:00 AM 3.66 38.588 0.329 7.72 5.95 11.2
1/16/2021 3:45:00 AM 3.59 38.462 0.328 7.72 6.13 11.22
1/16/2021 4:00:00 AM 3.55 38.39 0.327 7.72 5.43 11.24
1/16/2021 4:15:00 AM 3.54 38.372 0.328 7.72 5.97 11.25
1/16/2021 4:30:00 AM 3.52 38.336 0.332 7.71 5.91 11.27
1/16/2021 4:45:00 AM 3.48 38.264 0.338 7.71 6.25 11.3
1/16/2021 5:00:00 AM 3.45 38.21 0.344 7.71 5.35 11.32
1/16/2021 5:15:00 AM 3.41 38.138 0.347 7.71 5.73 11.35
1/16/2021 5:30:00 AM 3.37 38.066 0.345 7.71 6.15 11.39
1/16/2021 5:45:00 AM 3.32 37.976 0.341 7.71 5.53 11.42
1/16/2021 6:00:00 AM 3.25 37.85 0.333 7.71 5.63 11.49
1/16/2021 6:15:00 AM 3.19 37.742 0.325 7.71 6.08 11.53
1/16/2021 6:30:00 AM 3.13 37.634 0.316 7.71 6.86 11.58
1/16/2021 6:45:00 AM 3.08 37.544 0.309 7.71 6.62 11.61
1/16/2021 7:00:00 AM 3.02 37.436 0.301 7.7 6.7 11.68
1/16/2021 7:15:00 AM 2.98 37.364 0.295 7.7 8.34 11.72
1/16/2021 7:30:00 AM 2.93 37.274 0.289 7.7 7.62 11.75
1/16/2021 7:45:00 AM 2.89 37.202 0.284 7.7 7.6 11.77
1/16/2021 8:00:00 AM 2.86 37.148 0.28 7.69 8.2 11.79
1/16/2021 8:15:00 AM 2.83 37.094 0.276 7.69 9.46 11.84
1/16/2021 8:30:00 AM 2.8 37.04 0.273 7.69 7.81 11.86
1/16/2021 8:45:00 AM 2.77 36.986 0.274 7.69 8.82 11.92
1/16/2021 9:00:00 AM 2.75 36.95 0.273 7.69 8.65 11.97
1/16/2021 9:15:00 AM 2.74 36.932 0.267 7.69 8.7 12.02
1/16/2021 9:30:00 AM 2.72 36.896 0.261 7.68 8.71 12.06
1/16/2021 9:45:00 AM 2.7 36.86 0.253 7.68 9.49 12.11
1/16/2021 10:00:00 AM 2.68 36.824 0.248 7.68 9.44 12.14
1/16/2021 10:15:00 AM 2.68 36.824 0.243 7.68 9.3 12.18
1/16/2021 10:30:00 AM 2.67 36.806 0.239 7.68 8.08 12.22
1/16/2021 10:45:00 AM 2.67 36.806 0.237 7.68 8.72 12.24
1/16/2021 11:00:00 AM 2.66 36.788 0.234 7.68 8.74 12.27
1/16/2021 11:15:00 AM 2.66 36.788 0.232 7.68 8.5 12.29
1/16/2021 11:30:00 AM 2.66 36.788 0.231 7.68 8.17 12.35
1/16/2021 11:45:00 AM 2.68 36.824 0.229 7.68 8.78 12.36
1/16/2021 12:00:00 PM 2.69 36.842 0.228 7.68 8.72 12.37
1/16/2021 12:15:00 PM 2.74 36.932 0.228 7.68 8.55 12.39
1/16/2021 12:30:00 PM 2.78 37.004 0.227 7.69 8.48 12.44
1/16/2021 12:45:00 PM 2.86 37.148 0.226 7.69 10.28 12.48
1/16/2021 1:00:00 PM 2.94 37.292 0.227 7.69 8.2 12.49
1/16/2021 1:15:00 PM 3.02 37.436 0.224 7.69 8.42 12.5
1/16/2021 1:30:00 PM 3.09 37.562 0.224 7.7 7.95 12.53
1/16/2021 1:45:00 PM 3.13 37.634 0.223 7.7 8.71 12.54
1/16/2021 2:00:00 PM 3.19 37.742 0.222 7.7 7.83 12.55
1/16/2021 2:15:00 PM 3.21 37.778 0.221 7.7 8.44 12.57
1/16/2021 2:30:00 PM 3.22 37.796 0.221 7.7 7.47 12.59
1/16/2021 2:45:00 PM 3.24 37.832 0.22 7.7 8.28 12.57
1/16/2021 3:00:00 PM 3.28 37.904 0.22 7.7 7.47 12.58
1/16/2021 3:15:00 PM 3.31 37.958 0.22 7.7 7.73 12.57
1/16/2021 3:30:00 PM 3.34 38.012 0.219 7.7 7.36 12.56
1/16/2021 3:45:00 PM 3.38 38.084 0.221 7.69 7.95 12.49
1/16/2021 4:00:00 PM 3.4 38.12 0.218 7.7 7.21 12.48
1/16/2021 4:15:00 PM 3.42 38.156 0.218 7.69 7.48 12.46
1/16/2021 4:30:00 PM 3.4 38.12 0.218 7.69 6.94 12.44
1/16/2021 4:45:00 PM 3.38 38.084 0.216 7.69 6.93 12.4
1/16/2021 5:00:00 PM 3.35 38.03 0.216 7.68 6.8 12.37
1/16/2021 5:15:00 PM 3.31 37.958 0.215 7.68 6.5 12.32
1/16/2021 5:30:00 PM 3.25 37.85 0.214 7.67 6.77 12.3
1/16/2021 5:45:00 PM 3.2 37.76 0.214 7.67 6.55 12.26
1/16/2021 6:00:00 PM 3.16 37.688 0.213 7.66 6.13 12.24
1/16/2021 6:15:00 PM 3.11 37.598 0.213 7.66 6.61 12.23
1/16/2021 6:30:00 PM 3.07 37.526 0.213 7.65 6.4 12.19
1/16/2021 6:45:00 PM 3.03 37.454 0.213 7.65 6.28 12.15
1/16/2021 7:00:00 PM 2.99 37.382 0.212 7.64 5.93 12.14
1/16/2021 7:15:00 PM 2.95 37.31 0.213 7.64 6.38 12.12
1/16/2021 7:30:00 PM 2.91 37.238 0.212 7.64 6.43 12.08
1/16/2021 7:45:00 PM 2.88 37.184 0.212 7.63 6.67 12.08
1/16/2021 8:00:00 PM 2.84 37.112 0.212 7.63 6.21 12.06
1/16/2021 8:15:00 PM 2.8 37.04 0.212 7.62 6.71 12.04
1/16/2021 8:30:00 PM 2.77 36.986 0.212 7.62 6.38 12.03
1/16/2021 8:45:00 PM 2.74 36.932 0.213 7.62 6.6 12.02
1/16/2021 9:00:00 PM 2.71 36.878 0.212 7.62 6.79 12.02
1/16/2021 9:15:00 PM 2.68 36.824 0.213 7.61 6.28 12.01
1/16/2021 9:30:00 PM 2.66 36.788 0.213 7.61 6.49 11.99
1/16/2021 9:45:00 PM 2.63 36.734 0.213 7.61 6.68 12
1/16/2021 10:00:00 PM 2.59 36.662 0.213 7.61 6.97 12
1/16/2021 10:15:00 PM 2.58 36.644 0.214 7.61 6.87 11.99
1/16/2021 10:30:00 PM 2.55 36.59 0.213 7.61 7.09 12
1/16/2021 10:45:00 PM 2.53 36.554 0.214 7.61 6.8 12
1/16/2021 11:00:00 PM 2.51 36.518 0.214 7.61 6.64 11.99
1/16/2021 11:15:00 PM 2.49 36.482 0.215 7.61 6.76 12
1/16/2021 11:30:00 PM 2.47 36.446 0.215 7.61 6.48 12.01
1/16/2021 11:45:00 PM 2.46 36.428 0.215 7.61 6.46 12.01
1/17/2021 12:00:00 AM 2.46 36.428 0.216 7.6 6.86 12.01
1/17/2021 12:15:00 AM 2.44 36.392 0.216 7.6 6.5 12.01
1/17/2021 12:30:00 AM 2.41 36.338 0.216 7.61 6.32 12.01
1/17/2021 12:45:00 AM 2.4 36.32 0.216 7.61 6.9 12.01
1/17/2021 1:00:00 AM 2.39 36.302 0.216 7.61 6.15 12.02
1/17/2021 1:15:00 AM 2.38 36.284 0.217 7.6 6.34 12.02
1/17/2021 1:30:00 AM 2.36 36.248 0.217 7.6 6.34 12.02
1/17/2021 1:45:00 AM 2.35 36.23 0.217 7.6 6.34 12.02
1/17/2021 2:00:00 AM 2.35 36.23 0.219 7.61 6.33 12.02
1/17/2021 2:15:00 AM 2.33 36.194 0.219 7.61 6.37 12.02
1/17/2021 2:30:00 AM 2.31 36.158 0.218 7.61 6.11 12.03
1/17/2021 2:45:00 AM 2.31 36.158 0.22 7.6 6.19 12.02
1/17/2021 3:00:00 AM 2.31 36.158 0.221 7.61 5.91 12.02
1/17/2021 3:15:00 AM 2.3 36.14 0.22 7.61 6.17 12.02
1/17/2021 3:30:00 AM 2.3 36.14 0.221 7.61 6.05 12.02
1/17/2021 3:45:00 AM 2.3 36.14 0.221 7.61 6.13 12.03
1/17/2021 4:00:00 AM 2.3 36.14 0.221 7.61 6.29 12.03
1/17/2021 4:15:00 AM 2.3 36.14 0.222 7.61 5.82 12.02
1/17/2021 4:30:00 AM 2.3 36.14 0.222 7.61 5.79 12.02
1/17/2021 4:45:00 AM 2.3 36.14 0.224 7.61 5.57 12.03
1/17/2021 5:00:00 AM 2.3 36.14 0.223 7.61 5.92 12.02
1/17/2021 5:15:00 AM 2.29 36.122 0.224 7.61 5.9 12.02
1/17/2021 5:30:00 AM 2.29 36.122 0.224 7.61 5.73 12.01
1/17/2021 5:45:00 AM 2.29 36.122 0.225 7.61 5.98 12.01
1/17/2021 6:00:00 AM 2.28 36.104 0.225 7.61 5.59 12.01
1/17/2021 6:15:00 AM 2.27 36.086 0.226 7.61 5.6 12.02
1/17/2021 6:30:00 AM 2.26 36.068 0.226 7.61 5.77 12.02
1/17/2021 6:45:00 AM 2.24 36.032 0.226 7.61 5.59 12.02
1/17/2021 7:00:00 AM 2.25 36.05 0.227 7.61 5.78 12.01
1/17/2021 7:15:00 AM 2.25 36.05 0.228 7.62 5.52 12.01
1/17/2021 7:30:00 AM 2.26 36.068 0.229 7.61 6.27 11.99
1/17/2021 7:45:00 AM 2.25 36.05 0.229 7.62 6.7 12.01
1/17/2021 8:00:00 AM 2.23 36.014 0.23 7.62 5.48 12.01
1/17/2021 8:15:00 AM 2.22 35.996 0.23 7.62 5.63 12.04
1/17/2021 8:30:00 AM 2.21 35.978 0.23 7.62 5.58 12.06
1/17/2021 8:45:00 AM 2.23 36.014 0.231 7.62 5.79 12.07
1/17/2021 9:00:00 AM 2.23 36.014 0.231 7.63 5.51 12.13
1/17/2021 9:15:00 AM 2.26 36.068 0.232 7.63 5.62 12.17
1/17/2021 9:30:00 AM 2.28 36.104 0.231 7.64 5.81 12.21
1/17/2021 9:45:00 AM 2.34 36.212 0.233 7.65 6.18 12.24
1/17/2021 10:00:00 AM 2.39 36.302 0.233 7.65 5.66 12.26
1/17/2021 10:15:00 AM 2.44 36.392 0.235 7.66 5.86 12.29
1/17/2021 10:30:00 AM 2.44 36.392 0.234 7.66 5.64 12.34
1/17/2021 10:45:00 AM 2.48 36.464 0.234 7.67 5.5 12.36
1/17/2021 11:00:00 AM 2.51 36.518 0.234 7.67 5.66 12.4
1/17/2021 11:15:00 AM 2.55 36.59 0.236 7.68 5.51 12.41
1/17/2021 11:30:00 AM 2.56 36.608 0.235 7.68 6.27 12.44
1/17/2021 11:45:00 AM 2.62 36.716 0.237 7.68 5.66 12.43
1/17/2021 12:00:00 PM 2.65 36.77 0.236 7.69 5.53 12.48
1/17/2021 12:15:00 PM 2.71 36.878 0.237 7.7 5.59 12.5
1/17/2021 12:30:00 PM 2.77 36.986 0.237 7.7 6.45 12.52
1/17/2021 12:45:00 PM 2.83 37.094 0.238 7.71 6.2 12.53
1/17/2021 1:00:00 PM 2.86 37.148 0.237 7.71 5.73 12.55
1/17/2021 1:15:00 PM 2.92 37.256 0.238 7.71 6.16 12.55
1/17/2021 1:30:00 PM 2.97 37.346 0.238 7.72 5.83 12.55
1/17/2021 1:45:00 PM 3.03 37.454 0.239 7.72 5.67 12.55
1/17/2021 2:00:00 PM 3.08 37.544 0.24 7.72 5.66 12.54
1/17/2021 2:15:00 PM 3.12 37.616 0.241 7.73 13.18 12.54
1/17/2021 2:30:00 PM 3.14 37.652 0.241 7.73 5.33 12.54
1/17/2021 2:45:00 PM 3.18 37.724 0.243 7.73 5.39 12.5
1/17/2021 3:00:00 PM 3.21 37.778 0.242 7.73 5.97 12.5
1/17/2021 3:15:00 PM 3.23 37.814 0.242 7.73 6.16 12.47
1/17/2021 3:30:00 PM 3.24 37.832 0.241 7.73 5.64 12.46
1/17/2021 3:45:00 PM 3.27 37.886 0.242 7.73 5.53 12.42
1/17/2021 4:00:00 PM 3.29 37.922 0.243 7.72 5.53 12.37
1/17/2021 4:15:00 PM 3.3 37.94 0.244 7.72 6.17 12.34
1/17/2021 4:30:00 PM 3.32 37.976 0.245 7.72 5.3 12.29
1/17/2021 4:45:00 PM 3.32 37.976 0.244 7.71 5.38 12.24
1/17/2021 5:00:00 PM 3.32 37.976 0.244 7.71 5.21 12.2
1/17/2021 5:15:00 PM 3.34 38.012 0.245 7.71 5.84 12.15
1/17/2021 5:30:00 PM 3.34 38.012 0.245 7.7 6.64 12.11
1/17/2021 5:45:00 PM 3.34 38.012 0.245 7.7 5.53 12.08
1/17/2021 6:00:00 PM 3.33 37.994 0.246 7.7 5.01 12.04
1/17/2021 6:15:00 PM 3.33 37.994 0.247 7.69 4.87 12
1/17/2021 6:30:00 PM 3.33 37.994 0.246 7.69 4.89 11.98
1/17/2021 6:45:00 PM 3.32 37.976 0.246 7.69 4.97 11.95
1/17/2021 7:00:00 PM 3.32 37.976 0.247 7.68 4.91 11.91
1/17/2021 7:15:00 PM 3.31 37.958 0.248 7.68 4.62 11.88
1/17/2021 7:30:00 PM 3.3 37.94 0.248 7.68 4.52 11.87
1/17/2021 7:45:00 PM 3.3 37.94 0.249 7.68 4.27 11.83
1/17/2021 8:00:00 PM 3.29 37.922 0.249 7.67 4.88 11.82
1/17/2021 8:15:00 PM 3.3 37.94 0.25 7.67 4.58 11.79
1/17/2021 8:30:00 PM 3.3 37.94 0.251 7.67 4.77 11.77
1/17/2021 8:45:00 PM 3.3 37.94 0.251 7.67 4.45 11.76
1/17/2021 9:00:00 PM 3.29 37.922 0.252 7.67 4.29 11.73
1/17/2021 9:15:00 PM 3.29 37.922 0.252 7.67 4.32 11.73
1/17/2021 9:30:00 PM 3.28 37.904 0.252 7.66 4.1 11.7
1/17/2021 9:45:00 PM 3.28 37.904 0.253 7.66 4.3 11.7
1/17/2021 10:00:00 PM 3.27 37.886 0.253 7.66 4.14 11.69
1/17/2021 10:15:00 PM 3.26 37.868 0.253 7.66 4.11 11.69
1/17/2021 10:30:00 PM 3.26 37.868 0.254 7.66 4.27 11.68
1/17/2021 10:45:00 PM 3.25 37.85 0.254 7.66 4.04 11.67
1/17/2021 11:00:00 PM 3.25 37.85 0.254 7.66 4.28 11.66
1/17/2021 11:15:00 PM 3.23 37.814 0.255 7.66 4.22 11.66
1/17/2021 11:30:00 PM 3.22 37.796 0.255 7.66 4.04 11.66
1/17/2021 11:45:00 PM 3.22 37.796 0.257 7.66 4.54 11.65
1/18/2021 12:00:00 AM 3.2 37.76 0.256 7.66 4.03 11.66
1/18/2021 12:15:00 AM 3.2 37.76 0.257 7.66 4.15 11.64
1/18/2021 12:30:00 AM 3.2 37.76 0.257 7.66 4.05 11.65
1/18/2021 12:45:00 AM 3.19 37.742 0.257 7.66 3.96 11.65
1/18/2021 1:00:00 AM 3.2 37.76 0.258 7.66 3.93 11.64
1/18/2021 1:15:00 AM 3.18 37.724 0.258 7.66 4.03 11.65
1/18/2021 1:30:00 AM 3.17 37.706 0.258 7.66 4.25 11.65
1/18/2021 1:45:00 AM 3.15 37.67 0.258 7.66 4.2 11.65
1/18/2021 2:00:00 AM 3.14 37.652 0.259 7.66 4.04 11.64
1/18/2021 2:15:00 AM 3.11 37.598 0.259 7.66 3.8 11.65
1/18/2021 2:30:00 AM 3.09 37.562 0.259 7.66 3.77 11.66
1/18/2021 2:45:00 AM 3.07 37.526 0.259 7.66 3.8 11.65
1/18/2021 3:00:00 AM 3.05 37.49 0.26 7.66 4.35 11.65
1/18/2021 3:15:00 AM 3.02 37.436 0.26 7.66 3.89 11.65
1/18/2021 3:30:00 AM 3.01 37.418 0.261 7.66 5.16 11.64
1/18/2021 3:45:00 AM 2.98 37.364 0.26 7.67 3.9 11.66
1/18/2021 4:00:00 AM 2.96 37.328 0.261 7.67 3.88 11.66
1/18/2021 4:15:00 AM 2.95 37.31 0.262 7.66 3.72 11.66
1/18/2021 4:30:00 AM 2.94 37.292 0.262 7.67 3.78 11.65
1/18/2021 4:45:00 AM 2.94 37.292 0.262 7.67 3.81 11.65
1/18/2021 5:00:00 AM 2.93 37.274 0.262 7.67 3.63 11.66
1/18/2021 5:15:00 AM 2.92 37.256 0.262 7.67 3.8 11.67
1/18/2021 5:30:00 AM 2.92 37.256 0.263 7.67 3.79 11.66
1/18/2021 5:45:00 AM 2.92 37.256 0.263 7.67 3.98 11.66
1/18/2021 6:00:00 AM 2.9 37.22 0.263 7.67 3.83 11.67
1/18/2021 6:15:00 AM 2.89 37.202 0.264 7.67 4.15 11.68
1/18/2021 6:30:00 AM 2.87 37.166 0.263 7.67 3.67 11.69
1/18/2021 6:45:00 AM 2.86 37.148 0.263 7.67 3.78 11.69
1/18/2021 7:00:00 AM 2.84 37.112 0.263 7.67 3.71 11.69
1/18/2021 7:15:00 AM 2.85 37.13 0.265 7.67 3.54 11.68
1/18/2021 7:30:00 AM 2.84 37.112 0.265 7.67 3.71 11.7
1/18/2021 7:45:00 AM 2.83 37.094 0.265 7.67 4.27 11.7
1/18/2021 8:00:00 AM 2.82 37.076 0.265 7.67 3.83 11.7
1/18/2021 8:15:00 AM 2.82 37.076 0.266 7.67 3.75 11.73
1/18/2021 8:30:00 AM 2.83 37.094 0.266 7.67 3.9 11.76
1/18/2021 8:45:00 AM 2.84 37.112 0.267 7.68 3.81 11.81
1/18/2021 9:00:00 AM 2.87 37.166 0.266 7.68 3.82 11.85
1/18/2021 9:15:00 AM 2.9 37.22 0.267 7.69 4.03 11.9
1/18/2021 9:30:00 AM 2.91 37.238 0.268 7.7 4.28 11.95
1/18/2021 9:45:00 AM 2.9 37.22 0.266 7.7 4.47 11.97
1/18/2021 10:00:00 AM 2.86 37.148 0.266 7.71 4.38 12
1/18/2021 10:15:00 AM 2.89 37.202 0.267 7.71 3.59 12.07
1/18/2021 10:30:00 AM 2.9 37.22 0.267 7.72 4.37 12.11
1/18/2021 10:45:00 AM 2.91 37.238 0.267 7.72 3.94 12.15
1/18/2021 11:00:00 AM 2.94 37.292 0.268 7.72 4.09 12.2
1/18/2021 11:15:00 AM 2.97 37.346 0.269 7.73 4.49 12.23
1/18/2021 11:30:00 AM 3.07 37.526 0.269 7.74 3.88 12.29
1/18/2021 11:45:00 AM 3.15 37.67 0.27 7.75 3.82 12.33
1/18/2021 12:00:00 PM 3.21 37.778 0.271 7.75 4.08 12.37
1/18/2021 12:15:00 PM 3.32 37.976 0.273 7.76 3.82 12.39
1/18/2021 12:30:00 PM 3.34 38.012 0.275 7.76 3.99 12.42
1/18/2021 12:45:00 PM 3.4 38.12 0.275 7.77 4.97 12.45
1/18/2021 1:00:00 PM 3.47 38.246 0.277 7.77 4.13 12.48
1/18/2021 1:15:00 PM 3.52 38.336 0.277 7.78 4.02 12.5
1/18/2021 1:30:00 PM 3.59 38.462 0.278 7.78 3.94 12.49
1/18/2021 1:45:00 PM 3.61 38.498 0.278 7.78 4.18 12.49
1/18/2021 2:00:00 PM 3.65 38.57 0.278 7.78 4.14 12.5
1/18/2021 2:15:00 PM 3.69 38.642 0.276 7.79 4.02 12.5
1/18/2021 2:30:00 PM 3.73 38.714 0.276 7.79 3.99 12.51
1/18/2021 2:45:00 PM 3.76 38.768 0.275 7.79 4.25 12.5
1/18/2021 3:00:00 PM 3.79 38.822 0.273 7.8 4.35 12.49
1/18/2021 3:15:00 PM 3.79 38.822 0.273 7.8 3.96 12.48
1/18/2021 3:30:00 PM 3.83 38.894 0.273 7.8 3.73 12.45
1/18/2021 3:45:00 PM 3.85 38.93 0.272 7.8 3.68 12.45
1/18/2021 4:00:00 PM 3.86 38.948 0.273 7.8 3.57 12.42
1/18/2021 4:15:00 PM 3.86 38.948 0.273 7.8 4.04 12.35
1/18/2021 4:30:00 PM 3.83 38.894 0.273 7.8 4.44 12.32
1/18/2021 4:45:00 PM 3.84 38.912 0.274 7.79 3.84 12.25
1/18/2021 5:00:00 PM 3.81 38.858 0.273 7.79 4.3 12.2
1/18/2021 5:15:00 PM 3.81 38.858 0.273 7.78 4.37 12.16
1/18/2021 5:30:00 PM 3.79 38.822 0.273 7.78 4.44 12.12
1/18/2021 5:45:00 PM 3.78 38.804 0.273 7.77 4.13 12.07
1/18/2021 6:00:00 PM 3.76 38.768 0.273 7.76 4.21 12.02
1/18/2021 6:15:00 PM 3.76 38.768 0.274 7.76 3.91 11.97
1/18/2021 6:30:00 PM 3.75 38.75 0.275 7.75 3.98 11.92
1/18/2021 6:45:00 PM 3.73 38.714 0.274 7.75 3.74 11.89
1/18/2021 7:00:00 PM 3.72 38.696 0.274 7.75 3.91 11.86
1/18/2021 7:15:00 PM 3.71 38.678 0.274 7.74 3.85 11.82
1/18/2021 7:30:00 PM 3.71 38.678 0.275 7.74 3.55 11.79
1/18/2021 7:45:00 PM 3.7 38.66 0.276 7.73 3.63 11.75
1/18/2021 8:00:00 PM 3.68 38.624 0.276 7.73 3.25 11.72
1/18/2021 8:15:00 PM 3.64 38.552 0.276 7.73 3.19 11.69
1/18/2021 8:30:00 PM 3.61 38.498 0.277 7.72 3.36 11.66
1/18/2021 8:45:00 PM 3.58 38.444 0.277 7.72 3.47 11.66
1/18/2021 9:00:00 PM 3.56 38.408 0.277 7.72 3.24 11.63
1/18/2021 9:15:00 PM 3.53 38.354 0.277 7.72 3.88 11.62
1/18/2021 9:30:00 PM 3.52 38.336 0.278 7.71 3.21 11.6
1/18/2021 9:45:00 PM 3.49 38.282 0.278 7.71 3.25 11.6
1/18/2021 10:00:00 PM 3.47 38.246 0.279 7.71 3.36 11.58
1/18/2021 10:15:00 PM 3.45 38.21 0.278 7.71 3.37 11.59
1/18/2021 10:30:00 PM 3.44 38.192 0.279 7.7 3.43 11.58
1/18/2021 10:45:00 PM 3.42 38.156 0.279 7.7 3.19 11.57
1/18/2021 11:00:00 PM 3.42 38.156 0.28 7.7 3.17 11.57
1/18/2021 11:15:00 PM 3.39 38.102 0.279 7.7 3.28 11.57
1/18/2021 11:30:00 PM 3.37 38.066 0.28 7.7 3.39 11.58
1/18/2021 11:45:00 PM 3.35 38.03 0.28 7.7 3.22 11.58
1/19/2021 12:00:00 AM 3.33 37.994 0.279 7.7 3.04 11.58
1/19/2021 12:15:00 AM 3.32 37.976 0.28 7.7 3.31 11.58
1/19/2021 12:30:00 AM 3.31 37.958 0.28 7.7 3.24 11.59
1/19/2021 12:45:00 AM 3.29 37.922 0.28 7.7 3.59 11.6
1/19/2021 1:00:00 AM 3.26 37.868 0.28 7.7 3.47 11.6
1/19/2021 1:15:00 AM 3.25 37.85 0.28 7.69 3.21 11.59
1/19/2021 1:30:00 AM 3.24 37.832 0.28 7.69 3.21 11.6
1/19/2021 1:45:00 AM 3.23 37.814 0.281 7.69 3.49 11.59
1/19/2021 2:00:00 AM 3.21 37.778 0.28 7.7 3.64 11.6
1/19/2021 2:15:00 AM 3.2 37.76 0.28 7.69 3.4 11.61
1/19/2021 2:30:00 AM 3.19 37.742 0.281 7.69 3.58 11.6
1/19/2021 2:45:00 AM 3.17 37.706 0.281 7.69 3.53 11.62
1/19/2021 3:00:00 AM 3.15 37.67 0.281 7.69 3.36 11.62
1/19/2021 3:15:00 AM 3.15 37.67 0.281 7.69 3.65 11.62
1/19/2021 3:30:00 AM 3.13 37.634 0.281 7.69 3.64 11.63
1/19/2021 3:45:00 AM 3.14 37.652 0.282 7.69 3.41 11.61
1/19/2021 4:00:00 AM 3.12 37.616 0.282 7.69 3.5 11.63
1/19/2021 4:15:00 AM 3.11 37.598 0.281 7.69 3.4 11.63
1/19/2021 4:30:00 AM 3.12 37.616 0.283 7.69 3.41 11.63
1/19/2021 4:45:00 AM 3.1 37.58 0.281 7.69 3.21 11.64
1/19/2021 5:00:00 AM 3.1 37.58 0.282 7.69 3.39 11.64
1/19/2021 5:15:00 AM 3.09 37.562 0.282 7.69 3.3 11.63
1/19/2021 5:30:00 AM 3.07 37.526 0.283 7.69 3.22 11.63
1/19/2021 5:45:00 AM 3.05 37.49 0.283 7.69 3.37 11.65
1/19/2021 6:00:00 AM 3.03 37.454 0.283 7.69 3.4 11.64
1/19/2021 6:15:00 AM 3.02 37.436 0.283 7.69 3.3 11.64
1/19/2021 6:30:00 AM 2.99 37.382 0.283 7.7 3.11 11.65
1/19/2021 6:45:00 AM 2.99 37.382 0.283 7.69 3.14 11.66
1/19/2021 7:00:00 AM 2.98 37.364 0.284 7.69 3.18 11.65
1/19/2021 7:15:00 AM 2.95 37.31 0.283 7.7 3.25 11.67
1/19/2021 7:30:00 AM 2.94 37.292 0.284 7.7 3.44 11.66
1/19/2021 7:45:00 AM 2.93 37.274 0.284 7.7 4.46 11.67
1/19/2021 8:00:00 AM 2.94 37.292 0.285 7.7 3.93 11.68
1/19/2021 8:15:00 AM 2.93 37.274 0.284 7.7 3.98 11.7
1/19/2021 8:30:00 AM 2.92 37.256 0.285 7.7 3.66 11.74
1/19/2021 8:45:00 AM 2.92 37.256 0.286 7.7 3.54 11.78
1/19/2021 9:00:00 AM 2.93 37.274 0.285 7.71 3.34 11.8
1/19/2021 9:15:00 AM 2.94 37.292 0.286 7.71 3.52 11.87
1/19/2021 9:30:00 AM 2.95 37.31 0.285 7.72 3.36 11.95
1/19/2021 9:45:00 AM 2.97 37.346 0.285 7.73 3.59 12
1/19/2021 10:00:00 AM 3 37.4 0.286 7.73 3.44 12.04
1/19/2021 10:15:00 AM 3.03 37.454 0.286 7.74 3.24 12.09
1/19/2021 10:30:00 AM 3.06 37.508 0.286 7.74 3.44 12.15
1/19/2021 10:45:00 AM 3.1 37.58 0.286 7.75 3.34 12.22
1/19/2021 11:00:00 AM 3.15 37.67 0.286 7.75 3.43 12.26
1/19/2021 11:15:00 AM 3.21 37.778 0.286 7.76 3.47 12.31
1/19/2021 11:30:00 AM 3.26 37.868 0.286 7.77 3.99 12.36
1/19/2021 11:45:00 AM 3.32 37.976 0.287 7.77 3.94 12.4
1/19/2021 12:00:00 PM 3.38 38.084 0.287 7.78 3.91 12.44
1/19/2021 12:15:00 PM 3.43 38.174 0.287 7.79 3.7 12.49
1/19/2021 12:30:00 PM 3.47 38.246 0.287 7.79 3.72 12.51
1/19/2021 12:45:00 PM 3.54 38.372 0.287 7.8 3.95 12.54
1/19/2021 1:00:00 PM 3.59 38.462 0.287 7.8 4.07 12.56
1/19/2021 1:15:00 PM 3.61 38.498 0.287 7.81 4.05 12.58
1/19/2021 1:30:00 PM 3.67 38.606 0.288 7.81 4.04 12.59
1/19/2021 1:45:00 PM 3.73 38.714 0.288 7.81 3.97 12.62
1/19/2021 2:00:00 PM 3.79 38.822 0.288 7.82 4.03 12.63
1/19/2021 2:15:00 PM 3.83 38.894 0.289 7.82 3.78 12.63
1/19/2021 2:30:00 PM 3.87 38.966 0.288 7.83 4.13 12.64
1/19/2021 2:45:00 PM 3.9 39.02 0.288 7.83 3.91 12.63
1/19/2021 3:00:00 PM 3.94 39.092 0.288 7.83 3.67 12.62
1/19/2021 3:15:00 PM 3.96 39.128 0.288 7.83 3.59 12.62
1/19/2021 3:30:00 PM 3.97 39.146 0.288 7.83 3.56 12.54
1/19/2021 3:45:00 PM 3.97 39.146 0.289 7.83 6 12.51
1/19/2021 4:00:00 PM 3.96 39.128 0.288 7.83 3.32 12.49
1/19/2021 4:15:00 PM 3.97 39.146 0.29 7.83 3.67 12.46
1/19/2021 4:30:00 PM 3.93 39.074 0.289 7.83 3.56 12.42
1/19/2021 4:45:00 PM 3.91 39.038 0.289 7.82 3.67 12.35
1/19/2021 5:00:00 PM 3.91 39.038 0.29 7.81 3.81 12.26
1/19/2021 5:15:00 PM 3.88 38.984 0.289 7.81 3.32 12.21
1/19/2021 5:30:00 PM 3.86 38.948 0.289 7.8 3.32 12.16
1/19/2021 5:45:00 PM 3.83 38.894 0.29 7.8 3.84 12.11
1/19/2021 6:00:00 PM 3.81 38.858 0.29 7.79 3.97 12.05
1/19/2021 6:15:00 PM 3.79 38.822 0.291 7.78 3.91 11.98
1/19/2021 6:30:00 PM 3.75 38.75 0.29 7.78 3.64 11.96
1/19/2021 6:45:00 PM 3.71 38.678 0.291 7.78 3.26 11.91
1/19/2021 7:00:00 PM 3.69 38.642 0.292 7.77 3.42 11.88
1/19/2021 7:15:00 PM 3.66 38.588 0.292 7.77 3.47 11.84
1/19/2021 7:30:00 PM 3.62 38.516 0.291 7.76 5.12 11.83
1/19/2021 7:45:00 PM 3.58 38.444 0.291 7.76 3.38 11.78
1/19/2021 8:00:00 PM 3.55 38.39 0.291 7.75 3.25 11.76
1/19/2021 8:15:00 PM 3.51 38.318 0.292 7.75 3.2 11.73
1/19/2021 8:30:00 PM 3.46 38.228 0.291 7.75 3.11 11.71
1/19/2021 8:45:00 PM 3.41 38.138 0.291 7.74 3.3 11.71
1/19/2021 9:00:00 PM 3.36 38.048 0.291 7.74 3.36 11.69
1/19/2021 9:15:00 PM 3.31 37.958 0.292 7.74 3.11 11.68
1/19/2021 9:30:00 PM 3.27 37.886 0.292 7.74 7.01 11.66
1/19/2021 9:45:00 PM 3.23 37.814 0.292 7.73 3.98 11.66
1/19/2021 10:00:00 PM 3.22 37.796 0.293 7.73 3.23 11.62
1/19/2021 10:15:00 PM 3.17 37.706 0.292 7.73 3.06 11.65
1/19/2021 10:30:00 PM 3.15 37.67 0.293 7.73 2.98 11.64
1/19/2021 10:45:00 PM 3.15 37.67 0.295 7.72 3.1 11.62
1/19/2021 11:00:00 PM 3.12 37.616 0.294 7.73 3.12 11.63
1/19/2021 11:15:00 PM 3.1 37.58 0.294 7.72 3.1 11.63
1/19/2021 11:30:00 PM 3.11 37.598 0.295 7.72 2.98 11.62
1/19/2021 11:45:00 PM 3.09 37.562 0.294 7.72 2.84 11.62
1/20/2021 12:00:00 AM 3.08 37.544 0.295 7.72 3.04 11.61
1/20/2021 12:15:00 AM 3.05 37.49 0.295 7.72 2.82 11.62
1/20/2021 12:30:00 AM 3.04 37.472 0.295 7.72 3.02 11.64
1/20/2021 12:45:00 AM 3.01 37.418 0.294 7.72 3.01 11.64
1/20/2021 1:00:00 AM 3 37.4 0.295 7.72 3.19 11.62
1/20/2021 1:15:00 AM 2.98 37.364 0.295 7.72 3.08 11.64
1/20/2021 1:30:00 AM 2.95 37.31 0.295 7.72 3.26 11.65
1/20/2021 1:45:00 AM 2.96 37.328 0.296 7.72 3.12 11.62
1/20/2021 2:00:00 AM 2.93 37.274 0.296 7.71 3.09 11.64
1/20/2021 2:15:00 AM 2.9 37.22 0.295 7.71 2.87 11.66
1/20/2021 2:30:00 AM 2.91 37.238 0.295 7.71 2.93 11.65
1/20/2021 2:45:00 AM 2.9 37.22 0.296 7.71 2.86 11.65
1/20/2021 3:00:00 AM 2.87 37.166 0.295 7.71 2.88 11.66
1/20/2021 3:15:00 AM 2.87 37.166 0.295 7.71 2.8 11.64
1/20/2021 3:30:00 AM 2.84 37.112 0.295 7.71 2.84 11.65
1/20/2021 3:45:00 AM 2.82 37.076 0.295 7.71 2.86 11.66
1/20/2021 4:00:00 AM 2.8 37.04 0.295 7.71 2.84 11.66
1/20/2021 4:15:00 AM 2.79 37.022 0.295 7.71 2.75 11.65
1/20/2021 4:30:00 AM 2.78 37.004 0.296 7.71 3.15 11.65
1/20/2021 4:45:00 AM 2.73 36.914 0.296 7.71 7.55 11.64
1/20/2021 5:00:00 AM 2.65 36.77 0.295 7.71 3.27 11.64
1/20/2021 5:15:00 AM 2.59 36.662 0.295 7.72 3.04 11.68
1/20/2021 5:30:00 AM 2.58 36.644 0.295 7.72 3.16 11.68
1/20/2021 5:45:00 AM 2.56 36.608 0.294 7.72 3 11.7
1/20/2021 6:00:00 AM 2.55 36.59 0.294 7.72 3.23 11.7
1/20/2021 6:15:00 AM 2.53 36.554 0.294 7.72 3.03 11.71
1/20/2021 6:30:00 AM 2.53 36.554 0.295 7.72 3.03 11.71
1/20/2021 6:45:00 AM 2.52 36.536 0.294 7.72 3.21 11.72
1/20/2021 7:00:00 AM 2.52 36.536 0.295 7.72 3.11 11.72
1/20/2021 7:15:00 AM 2.52 36.536 0.295 7.72 3.09 11.7
1/20/2021 7:30:00 AM 2.52 36.536 0.295 7.72 3.59 11.73
1/20/2021 7:45:00 AM 2.52 36.536 0.295 7.72 3.34 11.74
1/20/2021 8:00:00 AM 2.51 36.518 0.295 7.72 3.09 11.76
1/20/2021 8:15:00 AM 2.48 36.464 0.294 7.72 3.02 11.78
1/20/2021 8:30:00 AM 2.47 36.446 0.294 7.72 3.37 11.82
1/20/2021 8:45:00 AM 2.46 36.428 0.295 7.73 3.43 11.86
1/20/2021 9:00:00 AM 2.42 36.356 0.297 7.73 3.32 11.93
1/20/2021 9:15:00 AM 2.39 36.302 0.299 7.74 3.38 12.02
1/20/2021 9:30:00 AM 2.37 36.266 0.302 7.74 3.25 12.07
1/20/2021 9:45:00 AM 2.39 36.302 0.303 7.75 3.06 12.12
1/20/2021 10:00:00 AM 2.4 36.32 0.303 7.76 3.05 12.2
1/20/2021 10:15:00 AM 2.47 36.446 0.303 7.76 3.08 12.27
1/20/2021 10:30:00 AM 2.48 36.464 0.301 7.77 3.04 12.32
1/20/2021 10:45:00 AM 2.53 36.554 0.3 7.78 3.54 12.38
1/20/2021 11:00:00 AM 2.6 36.68 0.299 7.78 2.98 12.43
1/20/2021 11:15:00 AM 2.62 36.716 0.299 7.79 3.17 12.49
1/20/2021 11:30:00 AM 2.61 36.698 0.298 7.79 3.13 12.52
1/20/2021 11:45:00 AM 2.66 36.788 0.299 7.8 3.23 12.56
1/20/2021 12:00:00 PM 2.64 36.752 0.299 7.81 3.42 12.6
1/20/2021 12:15:00 PM 2.64 36.752 0.297 7.81 3.27 12.63
1/20/2021 12:30:00 PM 2.69 36.842 0.297 7.82 3.25 12.68
1/20/2021 12:45:00 PM 2.74 36.932 0.298 7.82 3.78 12.72
1/20/2021 1:00:00 PM 2.77 36.986 0.299 7.83 3.8 12.76
1/20/2021 1:15:00 PM 2.79 37.022 0.299 7.83 3.99 12.8
1/20/2021 1:30:00 PM 2.83 37.094 0.3 7.84 4.51 12.82
1/20/2021 1:45:00 PM 2.83 37.094 0.302 7.84 4.04 12.82
1/20/2021 2:00:00 PM 2.87 37.166 0.305 7.84 4.22 12.84
1/20/2021 2:15:00 PM 2.89 37.202 0.31 7.85 3.82 12.85
1/20/2021 2:30:00 PM 2.9 37.22 0.318 7.84 4.11 12.84
1/20/2021 2:45:00 PM 2.95 37.31 0.328 7.84 4.62 12.81
1/20/2021 3:00:00 PM 2.9 37.22 0.331 7.85 4.3 12.83
1/20/2021 3:15:00 PM 2.88 37.184 0.334 7.85 4.19 12.83
1/20/2021 3:30:00 PM 2.84 37.112 0.334 7.85 4.23 12.81
1/20/2021 3:45:00 PM 2.79 37.022 0.332 7.85 4.15 12.8
1/20/2021 4:00:00 PM 2.78 37.004 0.329 7.85 4.25 12.8
1/20/2021 4:15:00 PM 2.75 36.95 0.325 7.85 4.22 12.79
1/20/2021 4:30:00 PM 2.72 36.896 0.322 7.85 4.28 12.75
1/20/2021 4:45:00 PM 2.7 36.86 0.319 7.84 4.83 12.7
1/20/2021 5:00:00 PM 2.7 36.86 0.317 7.84 4.63 12.63
1/20/2021 5:15:00 PM 2.66 36.788 0.313 7.83 4.3 12.58
1/20/2021 5:30:00 PM 2.64 36.752 0.313 7.83 5.42 12.52
1/20/2021 5:45:00 PM 2.6 36.68 0.31 7.82 4.96 12.47
1/20/2021 6:00:00 PM 2.56 36.608 0.308 7.82 5.11 12.44
1/20/2021 6:15:00 PM 2.55 36.59 0.307 7.81 5.16 12.36
1/20/2021 6:30:00 PM 2.53 36.554 0.306 7.81 5.09 12.33
1/20/2021 6:45:00 PM 2.52 36.536 0.305 7.8 5.58 12.28
1/20/2021 7:00:00 PM 2.5 36.5 0.305 7.8 5.5 12.25
1/20/2021 7:15:00 PM 2.48 36.464 0.305 7.79 5.13 12.23
1/20/2021 7:30:00 PM 2.48 36.464 0.304 7.79 4.78 12.17
1/20/2021 7:45:00 PM 2.45 36.41 0.304 7.78 4.67 12.16
1/20/2021 8:00:00 PM 2.45 36.41 0.304 7.78 4.65 12.13
1/20/2021 8:15:00 PM 2.45 36.41 0.304 7.77 4.86 12.09
1/20/2021 8:30:00 PM 2.44 36.392 0.306 7.77 4.46 12.06
1/20/2021 8:45:00 PM 2.42 36.356 0.304 7.77 4.57 12.05
1/20/2021 9:00:00 PM 2.4 36.32 0.305 7.76 4.88 12.03
1/20/2021 9:15:00 PM 2.38 36.284 0.304 7.76 4.75 12
1/20/2021 9:30:00 PM 2.37 36.266 0.305 7.76 4.77 11.99
1/20/2021 9:45:00 PM 2.35 36.23 0.306 7.75 4.74 11.98
1/20/2021 10:00:00 PM 2.33 36.194 0.306 7.75 4.72 11.96
1/20/2021 10:15:00 PM 2.32 36.176 0.307 7.75 4.69 11.94
1/20/2021 10:30:00 PM 2.29 36.122 0.308 7.75 4.45 11.94
1/20/2021 10:45:00 PM 2.25 36.05 0.306 7.74 4.35 11.94
1/20/2021 11:00:00 PM 2.26 36.068 0.309 7.74 4.07 11.92
1/20/2021 11:15:00 PM 2.21 35.978 0.308 7.74 3.6 11.94
1/20/2021 11:30:00 PM 2.19 35.942 0.309 7.74 3.44 11.92
1/20/2021 11:45:00 PM 2.16 35.888 0.31 7.74 5.1 11.92
1/21/2021 12:00:00 AM 2.11 35.798 0.31 7.74 2.95 11.93
1/21/2021 12:15:00 AM 2.09 35.762 0.309 7.74 3.02 11.93
1/21/2021 12:30:00 AM 2.03 35.654 0.31 7.74 3.1 11.94
1/21/2021 12:45:00 AM 2 35.6 0.312 7.74 3.54 11.93
1/21/2021 1:00:00 AM 1.94 35.492 0.31 7.74 3.39 11.94
1/21/2021 1:15:00 AM 1.91 35.438 0.311 7.74 2.9 11.93
1/21/2021 1:30:00 AM 1.85 35.33 0.311 7.74 3.02 11.95
1/21/2021 1:45:00 AM 1.83 35.294 0.311 7.73 3.06 11.94
1/21/2021 2:00:00 AM 1.8 35.24 0.312 7.74 2.97 11.93
1/21/2021 2:15:00 AM 1.75 35.15 0.313 7.74 2.97 11.94
1/21/2021 2:30:00 AM 1.73 35.114 0.313 7.74 2.96 11.95
1/21/2021 2:45:00 AM 1.7 35.06 0.312 7.73 2.98 11.95
1/21/2021 3:00:00 AM 1.65 34.97 0.312 7.73 3.18 11.97
1/21/2021 3:15:00 AM 1.62 34.916 0.312 7.73 2.97 11.97
1/21/2021 3:30:00 AM 1.57 34.826 0.312 7.73 3.03 11.98
1/21/2021 3:45:00 AM 1.54 34.772 0.313 7.73 3.09 11.96
1/21/2021 4:00:00 AM 1.5 34.7 0.313 7.73 3.1 11.98
1/21/2021 4:15:00 AM 1.51 34.718 0.314 7.73 2.92 11.96
1/21/2021 4:30:00 AM 1.48 34.664 0.314 7.73 2.84 11.98
1/21/2021 4:45:00 AM 1.45 34.61 0.315 7.73 2.65 11.98
1/21/2021 5:00:00 AM 1.43 34.574 0.315 7.73 3.01 11.99
1/21/2021 5:15:00 AM 1.43 34.574 0.315 7.73 3 11.99
1/21/2021 5:30:00 AM 1.44 34.592 0.317 7.73 2.83 11.98
1/21/2021 5:45:00 AM 1.43 34.574 0.317 7.73 3.11 11.97
1/21/2021 6:00:00 AM 1.46 34.628 0.317 7.73 2.75 11.96
1/21/2021 6:15:00 AM 1.44 34.592 0.317 7.73 2.97 11.96
1/21/2021 6:30:00 AM 1.44 34.592 0.318 7.73 2.75 11.94
1/21/2021 6:45:00 AM 1.45 34.61 0.318 7.73 2.79 11.95
1/21/2021 7:00:00 AM 1.46 34.628 0.319 7.73 2.88 11.93
1/21/2021 7:15:00 AM 1.49 34.682 0.321 7.73 2.75 11.91
1/21/2021 7:30:00 AM 1.52 34.736 0.321 7.73 3.7 11.87
1/21/2021 7:45:00 AM 1.56 34.808 0.324 7.73 2.89 11.82
1/21/2021 8:00:00 AM 1.55 34.79 0.325 7.73 2.85 11.87
1/21/2021 8:15:00 AM 1.57 34.826 0.325 7.73 3.55 11.89
1/21/2021 8:30:00 AM 1.62 34.916 0.326 7.73 3.59 11.85
1/21/2021 8:45:00 AM 1.63 34.934 0.327 7.74 4.1 11.93
1/21/2021 9:00:00 AM 1.69 35.042 0.329 7.74 4.38 11.91
1/21/2021 9:15:00 AM 1.73 35.114 0.33 7.74 4.78 11.95
1/21/2021 9:30:00 AM 1.75 35.15 0.332 7.75 4.43 12.02
1/21/2021 9:45:00 AM 1.82 35.276 0.33 7.75 3.68 12.04
1/21/2021 10:00:00 AM 1.88 35.384 0.331 7.76 3.37 12.1
1/21/2021 10:15:00 AM 1.94 35.492 0.331 7.77 3.25 12.17
1/21/2021 10:30:00 AM 2.02 35.636 0.331 7.77 3.58 12.24
1/21/2021 10:45:00 AM 2.09 35.762 0.331 7.78 3.03 12.28
1/21/2021 11:00:00 AM 2.16 35.888 0.331 7.79 3.03 12.33
1/21/2021 11:15:00 AM 2.2 35.96 0.329 7.79 3.25 12.39
1/21/2021 11:30:00 AM 2.28 36.104 0.331 7.8 3.35 12.4
1/21/2021 11:45:00 AM 2.33 36.194 0.329 7.8 3.69 12.45
1/21/2021 12:00:00 PM 2.4 36.32 0.33 7.81 3.7 12.48
1/21/2021 12:15:00 PM 2.47 36.446 0.332 7.81 3.88 12.49
1/21/2021 12:30:00 PM 2.53 36.554 0.331 7.82 3.63 12.52
1/21/2021 12:45:00 PM 2.6 36.68 0.332 7.82 3.79 12.53
1/21/2021 1:00:00 PM 2.63 36.734 0.333 7.83 3.69 12.56
1/21/2021 1:15:00 PM 2.72 36.896 0.333 7.83 3.57 12.5
1/21/2021 1:30:00 PM 2.79 37.022 0.333 7.83 3.49 12.49
1/21/2021 1:45:00 PM 2.82 37.076 0.333 7.84 3.65 12.51
1/21/2021 2:00:00 PM 2.86 37.148 0.333 7.84 3.57 12.55
1/21/2021 2:15:00 PM 2.86 37.148 0.333 7.85 3.58 12.61
1/21/2021 2:30:00 PM 2.89 37.202 0.332 7.85 3.92 12.61
1/21/2021 2:45:00 PM 2.96 37.328 0.335 7.85 4.07 12.62
1/21/2021 3:00:00 PM 3.01 37.418 0.334 7.86 3.79 12.61
1/21/2021 3:15:00 PM 3.1 37.58 0.335 7.86 4.11 12.59
1/21/2021 3:30:00 PM 3.16 37.688 0.333 7.86 4.14 12.58
1/21/2021 3:45:00 PM 3.21 37.778 0.334 7.86 3.98 12.5
1/21/2021 4:00:00 PM 3.24 37.832 0.333 7.86 3.95 12.49
1/21/2021 4:15:00 PM 3.31 37.958 0.333 7.86 3.85 12.4
1/21/2021 4:30:00 PM 3.31 37.958 0.332 7.86 3.69 12.4
1/21/2021 4:45:00 PM 3.32 37.976 0.332 7.86 3.92 12.35
1/21/2021 5:00:00 PM 3.31 37.958 0.331 7.85 4.11 12.28
1/21/2021 5:15:00 PM 3.31 37.958 0.33 7.85 4.16 12.22
1/21/2021 5:30:00 PM 3.3 37.94 0.329 7.84 4.25 12.15
1/21/2021 5:45:00 PM 3.3 37.94 0.33 7.84 4.24 12.08
1/21/2021 6:00:00 PM 3.3 37.94 0.328 7.83 4.18 12.01
1/21/2021 6:15:00 PM 3.3 37.94 0.327 7.82 3.97 11.97
1/21/2021 6:30:00 PM 3.28 37.904 0.326 7.82 4.08 11.95
1/21/2021 6:45:00 PM 3.28 37.904 0.326 7.82 4 11.91
1/21/2021 7:00:00 PM 3.26 37.868 0.324 7.81 3.99 11.88
1/21/2021 7:15:00 PM 3.25 37.85 0.322 7.81 3.54 11.86
1/21/2021 7:30:00 PM 3.24 37.832 0.321 7.81 3.58 11.82
1/21/2021 7:45:00 PM 3.23 37.814 0.319 7.8 3.66 11.79
1/21/2021 8:00:00 PM 3.23 37.814 0.318 7.79 3.14 11.75
1/21/2021 8:15:00 PM 3.21 37.778 0.317 7.79 3.17 11.72
1/21/2021 8:30:00 PM 3.2 37.76 0.315 7.79 3.11 11.7
1/21/2021 8:45:00 PM 3.2 37.76 0.315 7.78 3.15 11.65
1/21/2021 9:00:00 PM 3.18 37.724 0.313 7.78 3.14 11.64
1/21/2021 9:15:00 PM 3.17 37.706 0.312 7.77 2.79 11.63
1/21/2021 9:30:00 PM 3.17 37.706 0.311 7.77 2.95 11.6
1/21/2021 9:45:00 PM 3.14 37.652 0.309 7.76 3.42 11.59
1/21/2021 10:00:00 PM 3.13 37.634 0.309 7.76 3.2 11.57
1/21/2021 10:15:00 PM 3.1 37.58 0.307 7.76 3.17 11.55
1/21/2021 10:30:00 PM 3.09 37.562 0.306 7.75 3.18 11.55
1/21/2021 10:45:00 PM 3.09 37.562 0.306 7.75 3.44 11.53
1/21/2021 11:00:00 PM 3.08 37.544 0.305 7.75 3.08 11.53
1/21/2021 11:15:00 PM 3.06 37.508 0.303 7.74 3.13 11.54
1/21/2021 11:30:00 PM 3.06 37.508 0.303 7.74 3.17 11.52
1/21/2021 11:45:00 PM 3.03 37.454 0.301 7.74 3.09 11.53
1/22/2021 12:00:00 AM 3.02 37.436 0.302 7.74 3.2 11.51
1/22/2021 12:15:00 AM 2.98 37.364 0.3 7.74 2.63 11.53
1/22/2021 12:30:00 AM 2.95 37.31 0.298 7.73 2.98 11.52
1/22/2021 12:45:00 AM 2.92 37.256 0.299 7.73 2.74 11.54
1/22/2021 1:00:00 AM 2.88 37.184 0.299 7.73 2.89 11.54
1/22/2021 1:15:00 AM 2.86 37.148 0.299 7.73 2.71 11.54
1/22/2021 1:30:00 AM 2.83 37.094 0.297 7.73 2.77 11.54
1/22/2021 1:45:00 AM 2.81 37.058 0.297 7.72 2.73 11.54
1/22/2021 2:00:00 AM 2.79 37.022 0.297 7.72 2.87 11.56
1/22/2021 2:15:00 AM 2.77 36.986 0.296 7.72 2.86 11.57
1/22/2021 2:30:00 AM 2.77 36.986 0.295 7.72 2.93 11.57
1/22/2021 2:45:00 AM 2.75 36.95 0.295 7.72 2.89 11.58
1/22/2021 3:00:00 AM 2.75 36.95 0.294 7.72 2.85 11.57
1/22/2021 3:15:00 AM 2.75 36.95 0.294 7.72 2.79 11.58
1/22/2021 3:30:00 AM 2.73 36.914 0.293 7.71 2.72 11.57
1/22/2021 3:45:00 AM 2.72 36.896 0.293 7.71 3 11.59
1/22/2021 4:00:00 AM 2.71 36.878 0.293 7.71 2.58 11.6
1/22/2021 4:15:00 AM 2.68 36.824 0.292 7.71 2.76 11.6
1/22/2021 4:30:00 AM 2.68 36.824 0.293 7.71 2.65 11.6
1/22/2021 4:45:00 AM 2.67 36.806 0.293 7.71 3.07 11.6
1/22/2021 5:00:00 AM 2.61 36.698 0.292 7.71 2.74 11.63
1/22/2021 5:15:00 AM 2.59 36.662 0.294 7.71 2.76 11.63
1/22/2021 5:30:00 AM 2.55 36.59 0.292 7.71 2.92 11.65
1/22/2021 5:45:00 AM 2.52 36.536 0.291 7.71 3.19 11.66
1/22/2021 6:00:00 AM 2.5 36.5 0.291 7.71 2.74 11.67
1/22/2021 6:15:00 AM 2.47 36.446 0.292 7.71 2.79 11.67
1/22/2021 6:30:00 AM 2.44 36.392 0.293 7.71 2.77 11.66
1/22/2021 6:45:00 AM 2.4 36.32 0.293 7.71 2.72 11.68
1/22/2021 7:00:00 AM 2.38 36.284 0.293 7.71 2.95 11.68
1/22/2021 7:15:00 AM 2.38 36.284 0.294 7.71 2.87 11.66
1/22/2021 7:30:00 AM 2.34 36.212 0.293 7.71 2.82 11.68
1/22/2021 7:45:00 AM 2.35 36.23 0.294 7.71 2.96 11.69
1/22/2021 8:00:00 AM 2.36 36.248 0.295 7.71 3.51 11.69
1/22/2021 8:15:00 AM 2.38 36.284 0.295 7.71 3.79 11.71
1/22/2021 8:30:00 AM 2.37 36.266 0.294 7.72 4.21 11.77
1/22/2021 8:45:00 AM 2.39 36.302 0.295 7.72 4.43 11.8
1/22/2021 9:00:00 AM 2.41 36.338 0.296 7.72 4.07 11.84
1/22/2021 9:15:00 AM 2.41 36.338 0.296 7.73 3.47 11.91
1/22/2021 9:30:00 AM 2.42 36.356 0.296 7.74 3.45 11.96
1/22/2021 9:45:00 AM 2.47 36.446 0.297 7.74 4.57 12.07
1/22/2021 10:00:00 AM 2.52 36.536 0.297 7.75 3.39 12.14
1/22/2021 10:15:00 AM 2.57 36.626 0.297 7.76 3.14 12.19
1/22/2021 10:30:00 AM 2.63 36.734 0.299 7.76 2.81 12.22
1/22/2021 10:45:00 AM 2.68 36.824 0.3 7.77 3.09 12.31
1/22/2021 11:00:00 AM 2.72 36.896 0.298 7.78 4.18 12.39
1/22/2021 11:15:00 AM 2.8 37.04 0.3 7.79 5.36 12.45
1/22/2021 11:30:00 AM 2.85 37.13 0.3 7.79 3.32 12.47
1/22/2021 11:45:00 AM 2.92 37.256 0.3 7.8 3.39 12.49
1/22/2021 12:00:00 PM 2.98 37.364 0.3 7.81 3.26 12.53
1/22/2021 12:15:00 PM 3.04 37.472 0.3 7.81 3.37 12.57
1/22/2021 12:30:00 PM 3.15 37.67 0.301 7.82 3.39 12.6
1/22/2021 12:45:00 PM 3.18 37.724 0.301 7.83 3.23 12.64
1/22/2021 1:00:00 PM 3.16 37.688 0.301 7.83 3.35 12.6
1/22/2021 1:15:00 PM 3.22 37.796 0.302 7.83 3.86 12.6
1/22/2021 1:30:00 PM 3.36 38.048 0.303 7.84 4.12 12.62
1/22/2021 1:45:00 PM 3.47 38.246 0.304 7.84 3.68 12.64
1/22/2021 2:00:00 PM 3.44 38.192 0.303 7.84 3.71 12.63
1/22/2021 2:15:00 PM 3.41 38.138 0.303 7.84 3.4 12.58
1/22/2021 2:30:00 PM 3.47 38.246 0.305 7.84 3.46 12.54
1/22/2021 2:45:00 PM 3.47 38.246 0.305 7.85 3.13 12.55
1/22/2021 3:00:00 PM 3.52 38.336 0.304 7.85 3.13 12.55
1/22/2021 3:15:00 PM 3.47 38.246 0.305 7.85 3.22 12.49
1/22/2021 3:30:00 PM 3.51 38.318 0.305 7.85 3.39 12.46
1/22/2021 3:45:00 PM 3.52 38.336 0.305 7.85 3.3 12.48
1/22/2021 4:00:00 PM 3.5 38.3 0.306 7.85 4.27 12.43
1/22/2021 4:15:00 PM 3.48 38.264 0.306 7.84 3.58 12.34
1/22/2021 4:30:00 PM 3.47 38.246 0.306 7.84 3.51 12.29
1/22/2021 4:45:00 PM 3.46 38.228 0.306 7.83 3.64 12.23
1/22/2021 5:00:00 PM 3.45 38.21 0.306 7.83 3.35 12.19
1/22/2021 5:15:00 PM 3.41 38.138 0.307 7.83 3.5 12.12
1/22/2021 5:30:00 PM 3.4 38.12 0.308 7.82 3.9 12.04
1/22/2021 5:45:00 PM 3.37 38.066 0.309 7.81 3.72 12
1/22/2021 6:00:00 PM 3.32 37.976 0.31 7.81 3.87 11.95
1/22/2021 6:15:00 PM 3.3 37.94 0.314 7.8 4.12 11.9
1/22/2021 6:30:00 PM 3.27 37.886 0.317 7.8 4.01 11.87
1/22/2021 6:45:00 PM 3.23 37.814 0.323 7.79 3.71 11.85
1/22/2021 7:00:00 PM 3.19 37.742 0.327 7.79 3.65 11.83
1/22/2021 7:15:00 PM 3.15 37.67 0.332 7.79 4.06 11.81
1/22/2021 7:30:00 PM 3.1 37.58 0.332 7.79 3.51 11.77
1/22/2021 7:45:00 PM 3.05 37.49 0.33 7.78 3.26 11.76
1/22/2021 8:00:00 PM 3.02 37.436 0.328 7.78 3.18 11.76
1/22/2021 8:15:00 PM 2.98 37.364 0.325 7.78 3.24 11.75
1/22/2021 8:30:00 PM 2.93 37.274 0.321 7.78 3.25 11.74
1/22/2021 8:45:00 PM 2.88 37.184 0.319 7.78 3.34 11.72
1/22/2021 9:00:00 PM 2.84 37.112 0.316 7.77 3.38 11.71
1/22/2021 9:15:00 PM 2.8 37.04 0.315 7.77 2.95 11.7
1/22/2021 9:30:00 PM 2.77 36.986 0.316 7.77 3.14 11.68
1/22/2021 9:45:00 PM 2.71 36.878 0.315 7.77 3.46 11.69
1/22/2021 10:00:00 PM 2.65 36.77 0.313 7.77 3.11 11.7
1/22/2021 10:15:00 PM 2.6 36.68 0.313 7.77 3.1 11.7
1/22/2021 10:30:00 PM 2.55 36.59 0.314 7.77 3.16 11.71
1/22/2021 10:45:00 PM 2.5 36.5 0.314 7.76 3.21 11.72
1/22/2021 11:00:00 PM 2.44 36.392 0.312 7.76 3.21 11.72
1/22/2021 11:15:00 PM 2.37 36.266 0.313 7.76 3.51 11.74
1/22/2021 11:30:00 PM 2.31 36.158 0.312 7.76 2.92 11.76
1/22/2021 11:45:00 PM 2.26 36.068 0.313 7.76 2.84 11.75
1/23/2021 12:00:00 AM 2.2 35.96 0.312 7.76 2.87 11.78
1/23/2021 12:15:00 AM 2.16 35.888 0.313 7.76 2.92 11.77
1/23/2021 12:30:00 AM 2.11 35.798 0.313 7.76 3.19 11.78
1/23/2021 12:45:00 AM 2.07 35.726 0.315 7.76 3.21 11.79
1/23/2021 1:00:00 AM 1.99 35.582 0.315 7.76 3.74 11.84
1/23/2021 1:15:00 AM 1.94 35.492 0.313 7.76 3.13 11.84
1/23/2021 1:30:00 AM 1.92 35.456 0.315 7.76 3.28 11.84
1/23/2021 1:45:00 AM 1.88 35.384 0.314 7.76 3.03 11.85
1/23/2021 2:00:00 AM 1.83 35.294 0.316 7.76 2.91 11.88
1/23/2021 2:15:00 AM 1.81 35.258 0.315 7.76 2.65 11.9
1/23/2021 2:30:00 AM 1.76 35.168 0.316 7.76 2.78 11.92
1/23/2021 2:45:00 AM 1.79 35.222 0.318 7.76 2.73 11.89
1/23/2021 3:00:00 AM 1.71 35.078 0.315 7.76 2.75 11.93
1/23/2021 3:15:00 AM 1.67 35.006 0.316 7.76 2.75 11.94
1/23/2021 3:30:00 AM 1.63 34.934 0.317 7.76 2.73 11.96
1/23/2021 3:45:00 AM 1.57 34.826 0.318 7.76 3.03 11.97
1/23/2021 4:00:00 AM 1.54 34.772 0.318 7.76 2.8 11.97
1/23/2021 4:15:00 AM 1.5 34.7 0.318 7.76 2.96 11.99
1/23/2021 4:30:00 AM 1.47 34.646 0.319 7.76 2.94 12
1/23/2021 4:45:00 AM 1.46 34.628 0.32 7.75 3.35 11.99
1/23/2021 5:00:00 AM 1.42 34.556 0.32 7.75 3.12 12.02
1/23/2021 5:15:00 AM 1.37 34.466 0.32 7.75 3.4 12.03
1/23/2021 5:30:00 AM 1.32 34.376 0.32 7.76 3.05 12.04
1/23/2021 5:45:00 AM 1.34 34.412 0.323 7.75 2.94 12
1/23/2021 6:00:00 AM 1.35 34.43 0.326 7.75 2.81 12.01
1/23/2021 6:15:00 AM 1.32 34.376 0.324 7.75 3.17 12
1/23/2021 6:30:00 AM 1.3 34.34 0.324 7.75 2.92 12.02
1/23/2021 6:45:00 AM 1.3 34.34 0.324 7.75 3.3 12
1/23/2021 7:00:00 AM 1.29 34.322 0.325 7.75 2.84 12
1/23/2021 7:15:00 AM 1.3 34.34 0.326 7.75 3.44 11.98
1/23/2021 7:30:00 AM 1.28 34.304 0.327 7.74 3.04 12.02
1/23/2021 7:45:00 AM 1.26 34.268 0.326 7.75 2.93 12.03
1/23/2021 8:00:00 AM 1.23 34.214 0.326 7.75 2.76 12.06
1/23/2021 8:15:00 AM 1.21 34.178 0.326 7.76 3.31 12.13
1/23/2021 8:30:00 AM 1.24 34.232 0.326 7.76 3.37 12.17
1/23/2021 8:45:00 AM 1.25 34.25 0.327 7.77 3.28 12.22
1/23/2021 9:00:00 AM 1.33 34.394 0.329 7.77 3.26 12.26
1/23/2021 9:15:00 AM 1.38 34.484 0.329 7.78 3.56 12.31
1/23/2021 9:30:00 AM 1.45 34.61 0.328 7.78 3.48 12.35
1/23/2021 9:45:00 AM 1.47 34.646 0.33 7.78 3.64 12.42
1/23/2021 10:00:00 AM 1.5 34.7 0.329 7.79 3.59 12.49
1/23/2021 10:15:00 AM 1.57 34.826 0.33 7.8 3.78 12.55
1/23/2021 10:30:00 AM 1.63 34.934 0.33 7.8 4.02 12.6
1/23/2021 10:45:00 AM 1.67 35.006 0.332 7.81 4.01 12.64
1/23/2021 11:00:00 AM 1.7 35.06 0.331 7.82 3.71 12.71
1/23/2021 11:15:00 AM 1.76 35.168 0.335 7.82 3.88 12.77
1/23/2021 11:30:00 AM 1.78 35.204 0.331 7.83 3.99 12.8
1/23/2021 11:45:00 AM 1.81 35.258 0.332 7.84 3.43 12.86
1/23/2021 12:00:00 PM 1.85 35.33 0.333 7.84 4.93 12.87
1/23/2021 12:15:00 PM 1.86 35.348 0.333 7.85 4.54 12.91
1/23/2021 12:30:00 PM 1.87 35.366 0.334 7.85 4.26 12.94
1/23/2021 12:45:00 PM 1.92 35.456 0.334 7.86 4.63 12.95
1/23/2021 1:00:00 PM 1.95 35.51 0.335 7.86 3.94 12.98
1/23/2021 1:15:00 PM 2.01 35.618 0.336 7.87 3.98 13
1/23/2021 1:30:00 PM 2.06 35.708 0.335 7.87 3.79 13
1/23/2021 1:45:00 PM 2.11 35.798 0.336 7.88 4.91 13
1/23/2021 2:00:00 PM 2.16 35.888 0.337 7.88 4.59 13
1/23/2021 2:15:00 PM 2.16 35.888 0.335 7.89 3.69 13.04
1/23/2021 2:30:00 PM 2.2 35.96 0.335 7.89 3.59 13.04
1/23/2021 2:45:00 PM 2.25 36.05 0.338 7.89 3.54 13.01
1/23/2021 3:00:00 PM 2.24 36.032 0.335 7.89 4.04 13.02
1/23/2021 3:15:00 PM 2.27 36.086 0.335 7.89 4.24 13.03
1/23/2021 3:30:00 PM 2.26 36.068 0.334 7.89 8.7 13.02
1/23/2021 3:45:00 PM 2.23 36.014 0.334 7.89 4.49 12.99
1/23/2021 4:00:00 PM 2.22 35.996 0.336 7.89 4.52 12.95
1/23/2021 4:15:00 PM 2.16 35.888 0.334 7.89 4.2 12.95
1/23/2021 4:30:00 PM 2.14 35.852 0.334 7.89 4.08 12.9
1/23/2021 4:45:00 PM 2.12 35.816 0.334 7.88 4.47 12.84
1/23/2021 5:00:00 PM 2.12 35.816 0.335 7.87 4.38 12.77
1/23/2021 5:15:00 PM 2.1 35.78 0.335 7.87 4.6 12.7
1/23/2021 5:30:00 PM 2.09 35.762 0.336 7.87 4.98 12.62
1/23/2021 5:45:00 PM 2.11 35.798 0.335 7.86 4.54 12.57
1/23/2021 6:00:00 PM 2.08 35.744 0.335 7.86 4.47 12.52
1/23/2021 6:15:00 PM 2.08 35.744 0.336 7.85 4.6 12.46
1/23/2021 6:30:00 PM 2.09 35.762 0.337 7.85 4.42 12.4
1/23/2021 6:45:00 PM 2.08 35.744 0.337 7.84 5.33 12.35
1/23/2021 7:00:00 PM 2.08 35.744 0.339 7.84 4.66 12.31
1/23/2021 7:15:00 PM 2.06 35.708 0.338 7.84 3.96 12.28
1/23/2021 7:30:00 PM 2.05 35.69 0.338 7.84 4.44 12.26
1/23/2021 7:45:00 PM 2.05 35.69 0.339 7.83 3.67 12.21
1/23/2021 8:00:00 PM 2.03 35.654 0.339 7.83 3.89 12.19
1/23/2021 8:15:00 PM 2 35.6 0.339 7.83 3.72 12.16
1/23/2021 8:30:00 PM 1.98 35.564 0.34 7.82 3.29 12.13
1/23/2021 8:45:00 PM 1.97 35.546 0.34 7.82 3.11 12.1
1/23/2021 9:00:00 PM 1.94 35.492 0.34 7.82 3.14 12.07
1/23/2021 9:15:00 PM 1.94 35.492 0.34 7.81 3.11 12.03
1/23/2021 9:30:00 PM 1.91 35.438 0.341 7.81 3.13 12.06
1/23/2021 9:45:00 PM 1.84 35.312 0.339 7.81 3.43 12.07
1/23/2021 10:00:00 PM 1.82 35.276 0.338 7.81 3.33 12.06
1/23/2021 10:15:00 PM 1.81 35.258 0.338 7.81 3.07 12.04
1/23/2021 10:30:00 PM 1.83 35.294 0.34 7.8 3.03 11.98
1/23/2021 10:45:00 PM 1.77 35.186 0.339 7.8 3.17 12
1/23/2021 11:00:00 PM 1.72 35.096 0.339 7.8 3.26 12.01
1/23/2021 11:15:00 PM 1.68 35.024 0.338 7.8 3.25 12.02
1/23/2021 11:30:00 PM 1.67 35.006 0.338 7.79 3.35 12.01
1/23/2021 11:45:00 PM 1.66 34.988 0.337 7.79 3.05 12
1/24/2021 12:00:00 AM 1.62 34.916 0.336 7.79 3.25 12
1/24/2021 12:15:00 AM 1.6 34.88 0.336 7.79 2.87 12.02
1/24/2021 12:30:00 AM 1.57 34.826 0.335 7.79 2.94 12.03
1/24/2021 12:45:00 AM 1.59 34.862 0.335 7.78 3.06 11.97
1/24/2021 1:00:00 AM 1.5 34.7 0.333 7.78 3.29 12.04
1/24/2021 1:15:00 AM 1.51 34.718 0.335 7.78 3.2 12.02
1/24/2021 1:30:00 AM 1.48 34.664 0.332 7.78 3.25 12.01
1/24/2021 1:45:00 AM 1.47 34.646 0.333 7.78 3.36 12.03
1/24/2021 2:00:00 AM 1.45 34.61 0.333 7.77 3.11 12.04
1/24/2021 2:15:00 AM 1.39 34.502 0.331 7.78 3.05 12.06
1/24/2021 2:30:00 AM 1.39 34.502 0.331 7.77 2.94 12.06
1/24/2021 2:45:00 AM 1.36 34.448 0.332 7.77 3 12.05
1/24/2021 3:00:00 AM 1.35 34.43 0.332 7.77 2.88 12.05
1/24/2021 3:15:00 AM 1.35 34.43 0.331 7.77 2.79 12.04
1/24/2021 3:30:00 AM 1.36 34.448 0.332 7.77 2.99 12.03
1/24/2021 3:45:00 AM 1.33 34.394 0.332 7.76 2.77 12.04
1/24/2021 4:00:00 AM 1.33 34.394 0.332 7.76 2.53 12.05
1/24/2021 4:15:00 AM 1.31 34.358 0.333 7.76 2.61 12.05
1/24/2021 4:30:00 AM 1.3 34.34 0.334 7.76 2.64 12.05
1/24/2021 4:45:00 AM 1.28 34.304 0.333 7.76 2.74 12.06
1/24/2021 5:00:00 AM 1.3 34.34 0.335 7.76 2.98 12.04
1/24/2021 5:15:00 AM 1.24 34.232 0.334 7.76 2.66 12.07
1/24/2021 5:30:00 AM 1.28 34.304 0.335 7.76 2.42 12.02
1/24/2021 5:45:00 AM 1.26 34.268 0.337 7.76 2.43 12.04
1/24/2021 6:00:00 AM 1.26 34.268 0.336 7.76 2.48 12.04
1/24/2021 6:15:00 AM 1.28 34.304 0.34 7.76 2.62 12.02
1/24/2021 6:30:00 AM 1.27 34.286 0.338 7.76 2.44 12.01
1/24/2021 6:45:00 AM 1.24 34.232 0.338 7.76 2.45 12.04
1/24/2021 7:00:00 AM 1.23 34.214 0.338 7.76 5.72 12.04
1/24/2021 7:15:00 AM 1.27 34.286 0.341 7.76 3.07 12.01
1/24/2021 7:30:00 AM 1.24 34.232 0.339 7.76 2.78 12.04
1/24/2021 7:45:00 AM 1.26 34.268 0.34 7.76 3.2 12.01
1/24/2021 8:00:00 AM 1.29 34.322 0.342 7.76 3.45 11.97
1/24/2021 8:15:00 AM 1.34 34.412 0.344 7.76 3.93 12.02
1/24/2021 8:30:00 AM 1.36 34.448 0.343 7.76 3.79 12.02
1/24/2021 8:45:00 AM 1.34 34.412 0.343 7.77 4.75 12.14
1/24/2021 9:00:00 AM 1.4 34.52 0.344 7.77 3.93 12.17
1/24/2021 9:15:00 AM 1.41 34.538 0.345 7.78 4.91 12.26
1/24/2021 9:30:00 AM 1.44 34.592 0.346 7.79 4.5 12.29
1/24/2021 9:45:00 AM 1.45 34.61 0.346 7.79 4.37 12.39
1/24/2021 10:00:00 AM 1.49 34.682 0.346 7.8 4.03 12.47
1/24/2021 10:15:00 AM 1.59 34.862 0.349 7.8 3.99 12.47
1/24/2021 10:30:00 AM 1.59 34.862 0.347 7.81 4.46 12.58
1/24/2021 10:45:00 AM 1.65 34.97 0.347 7.82 3.73 12.66
1/24/2021 11:00:00 AM 1.69 35.042 0.346 7.83 4.62 12.73
1/24/2021 11:15:00 AM 1.77 35.186 0.346 7.84 4.32 12.81
1/24/2021 11:30:00 AM 1.84 35.312 0.345 7.85 4.34 12.88
1/24/2021 11:45:00 AM 1.93 35.474 0.344 7.85 4.44 12.89
1/24/2021 12:00:00 PM 2.03 35.654 0.344 7.86 3.74 12.96
1/24/2021 12:15:00 PM 2.13 35.834 0.345 7.86 3.73 12.97
1/24/2021 12:30:00 PM 2.21 35.978 0.346 7.87 3.69 12.98
1/24/2021 12:45:00 PM 2.28 36.104 0.345 7.87 4.1 12.99
1/24/2021 1:00:00 PM 2.33 36.194 0.345 7.88 3.84 13.01
1/24/2021 1:15:00 PM 2.4 36.32 0.344 7.88 3.81 13
1/24/2021 1:30:00 PM 2.48 36.464 0.346 7.88 3.94 12.98
1/24/2021 1:45:00 PM 2.52 36.536 0.346 7.89 4.67 13
1/24/2021 2:00:00 PM 2.56 36.608 0.344 7.89 5.26 12.98
1/24/2021 2:15:00 PM 2.57 36.626 0.345 7.89 4.52 13
1/24/2021 2:30:00 PM 2.62 36.716 0.348 7.89 4.45 12.99
1/24/2021 2:45:00 PM 2.66 36.788 0.347 7.89 4.02 12.95
1/24/2021 3:00:00 PM 2.66 36.788 0.347 7.9 3.88 12.98
1/24/2021 3:15:00 PM 2.67 36.806 0.348 7.9 3.86 12.97
1/24/2021 3:30:00 PM 2.69 36.842 0.348 7.9 3.72 12.93
1/24/2021 3:45:00 PM 2.71 36.878 0.352 7.9 4.48 12.88
1/24/2021 4:00:00 PM 2.67 36.806 0.349 7.9 4.41 12.84
1/24/2021 4:15:00 PM 2.62 36.716 0.349 7.89 4.29 12.8
1/24/2021 4:30:00 PM 2.57 36.626 0.349 7.89 4.44 12.76
1/24/2021 4:45:00 PM 2.57 36.626 0.35 7.89 4.27 12.69
1/24/2021 5:00:00 PM 2.52 36.536 0.35 7.89 3.86 12.66
1/24/2021 5:15:00 PM 2.48 36.464 0.35 7.88 4.3 12.61
1/24/2021 5:30:00 PM 2.44 36.392 0.351 7.88 3.91 12.54
1/24/2021 5:45:00 PM 2.41 36.338 0.352 7.87 4.3 12.47
1/24/2021 6:00:00 PM 2.34 36.212 0.351 7.87 4.15 12.42
1/24/2021 6:15:00 PM 2.29 36.122 0.351 7.86 3.89 12.37
1/24/2021 6:30:00 PM 2.22 35.996 0.35 7.86 4.39 12.33
1/24/2021 6:45:00 PM 2.19 35.942 0.351 7.85 4.43 12.3
1/24/2021 7:00:00 PM 2.15 35.87 0.35 7.85 3.93 12.24
1/24/2021 7:15:00 PM 2.12 35.816 0.35 7.84 3.85 12.2
1/24/2021 7:30:00 PM 2.08 35.744 0.351 7.84 3.89 12.19
1/24/2021 7:45:00 PM 2.04 35.672 0.351 7.84 3.69 12.17
1/24/2021 8:00:00 PM 2.02 35.636 0.351 7.84 3.86 12.13
1/24/2021 8:15:00 PM 1.97 35.546 0.35 7.83 3.47 12.14
1/24/2021 8:30:00 PM 1.93 35.474 0.349 7.83 3.06 12.11
1/24/2021 8:45:00 PM 1.88 35.384 0.349 7.83 2.75 12.1
1/24/2021 9:00:00 PM 1.83 35.294 0.349 7.83 2.73 12.1
1/24/2021 9:15:00 PM 1.83 35.294 0.348 7.82 2.69 12.08
1/24/2021 9:30:00 PM 1.84 35.312 0.349 7.82 2.7 12.01
1/24/2021 9:45:00 PM 1.8 35.24 0.35 7.82 2.69 12.04
1/24/2021 10:00:00 PM 1.8 35.24 0.351 7.82 2.8 12
1/24/2021 10:15:00 PM 1.76 35.168 0.347 7.81 3.07 12
1/24/2021 10:30:00 PM 1.74 35.132 0.348 7.81 2.74 12.01
1/24/2021 10:45:00 PM 1.73 35.114 0.348 7.81 3 12
1/24/2021 11:00:00 PM 1.71 35.078 0.347 7.81 3.4 11.97
1/24/2021 11:15:00 PM 1.71 35.078 0.347 7.8 3.23 11.98
1/24/2021 11:30:00 PM 1.69 35.042 0.346 7.8 2.93 11.96
1/24/2021 11:45:00 PM 1.66 34.988 0.345 7.8 3.03 11.98
1/25/2021 12:00:00 AM 1.63 34.934 0.346 7.8 2.98 11.97
1/25/2021 12:15:00 AM 1.62 34.916 0.347 7.8 2.88 11.97
1/25/2021 12:30:00 AM 1.6 34.88 0.346 7.79 2.87 11.94
1/25/2021 12:45:00 AM 1.58 34.844 0.345 7.79 3.21 11.93
1/25/2021 1:00:00 AM 1.55 34.79 0.346 7.79 3.38 11.93
1/25/2021 1:15:00 AM 1.56 34.808 0.349 7.78 2.94 11.92
1/25/2021 1:30:00 AM 1.48 34.664 0.346 7.79 4.53 11.93
1/25/2021 1:45:00 AM 1.49 34.682 0.349 7.78 2.79 11.88
1/25/2021 2:00:00 AM 1.42 34.556 0.346 7.78 2.65 11.9
1/25/2021 2:15:00 AM 1.43 34.574 0.349 7.78 2.69 11.86
1/25/2021 2:30:00 AM 1.37 34.466 0.348 7.78 2.69 11.87
1/25/2021 2:45:00 AM 1.31 34.358 0.348 7.78 2.94 11.9
1/25/2021 3:00:00 AM 1.32 34.376 0.348 7.77 2.58 11.88
1/25/2021 3:15:00 AM 1.29 34.322 0.349 7.77 2.68 11.88
1/25/2021 3:30:00 AM 1.28 34.304 0.351 7.77 2.48 11.82
1/25/2021 3:45:00 AM 1.25 34.25 0.351 7.77 2.66 11.85
1/25/2021 4:00:00 AM 1.25 34.25 0.35 7.77 2.75 11.84
1/25/2021 4:15:00 AM 1.27 34.286 0.351 7.76 2.74 11.83
1/25/2021 4:30:00 AM 1.27 34.286 0.356 7.76 3.15 11.81
1/25/2021 4:45:00 AM 1.23 34.214 0.354 7.76 2.66 11.82
1/25/2021 5:00:00 AM 1.25 34.25 0.356 7.76 2.49 11.77
1/25/2021 5:15:00 AM 1.22 34.196 0.356 7.76 2.89 11.77
1/25/2021 5:30:00 AM 1.2 34.16 0.357 7.76 2.75 11.79
1/25/2021 5:45:00 AM 1.2 34.16 0.36 7.76 2.92 11.77
1/25/2021 6:00:00 AM 1.24 34.232 0.363 7.76 2.89 11.73
1/25/2021 6:15:00 AM 1.2 34.16 0.361 7.76 2.72 11.78
1/25/2021 6:30:00 AM 1.17 34.106 0.361 7.76 2.92 11.76
1/25/2021 6:45:00 AM 1.17 34.106 0.363 7.76 2.65 11.74
1/25/2021 7:00:00 AM 1.2 34.16 0.366 7.75 2.64 11.71
1/25/2021 7:15:00 AM 1.15 34.07 0.361 7.75 2.69 11.74
1/25/2021 7:30:00 AM 1.26 34.268 0.368 7.75 2.87 11.62
1/25/2021 7:45:00 AM 1.24 34.232 0.368 7.76 2.95 11.7
1/25/2021 8:00:00 AM 1.17 34.106 0.368 7.76 2.87 11.74
1/25/2021 8:15:00 AM 1.21 34.178 0.366 7.75 2.93 11.74
1/25/2021 8:30:00 AM 1.18 34.124 0.369 7.77 2.84 11.75
1/25/2021 8:45:00 AM 1.3 34.34 0.373 7.77 3.05 11.77
1/25/2021 9:00:00 AM 1.3 34.34 0.37 7.76 3.51 11.83
1/25/2021 9:15:00 AM 1.28 34.304 0.368 7.77 3.65 11.93
1/25/2021 9:30:00 AM 1.33 34.394 0.37 7.78 3.42 11.95
1/25/2021 9:45:00 AM 1.41 34.538 0.37 7.78 3.25 12
1/25/2021 10:00:00 AM 1.48 34.664 0.37 7.78 3.64 11.99
1/25/2021 10:15:00 AM 1.47 34.646 0.371 7.79 3.76 12.17
1/25/2021 10:30:00 AM 1.63 34.934 0.373 7.79 3.72 12.14
1/25/2021 10:45:00 AM 1.67 35.006 0.374 7.8 3.98 12.24
1/25/2021 11:00:00 AM 1.76 35.168 0.371 7.81 3.25 12.28
1/25/2021 11:15:00 AM 1.87 35.366 0.374 7.8 7.09 12.32
1/25/2021 11:30:00 AM 1.98 35.564 0.373 7.82 4.22 12.39
1/25/2021 11:45:00 AM 2.04 35.672 0.37 7.82 3.53 12.43
1/25/2021 12:00:00 PM 2.11 35.798 0.37 7.83 3.35 12.46
1/25/2021 12:15:00 PM 2.17 35.906 0.368 7.84 3.4 12.59
1/25/2021 12:30:00 PM 2.26 36.068 0.367 7.85 3.17 12.67
1/25/2021 12:45:00 PM 2.36 36.248 0.366 7.85 3.53 12.75
1/25/2021 1:00:00 PM 2.39 36.302 0.364 7.87 3.64 12.88
1/25/2021 1:15:00 PM 2.44 36.392 0.363 7.88 3.58 12.94
1/25/2021 1:30:00 PM 2.48 36.464 0.357 7.89 3.31 13
1/25/2021 1:45:00 PM 2.55 36.59 0.357 7.9 3.42 13.06
1/25/2021 2:00:00 PM 2.61 36.698 0.353 7.9 3.68 13.1
1/25/2021 2:15:00 PM 2.67 36.806 0.349 7.91 3.75 13.11
1/25/2021 2:30:00 PM 2.74 36.932 0.348 7.91 3.51 13.12
1/25/2021 2:45:00 PM 2.78 37.004 0.348 7.92 3.56 13.1
1/25/2021 3:00:00 PM 2.84 37.112 0.347 7.92 3.27 13.07
1/25/2021 3:15:00 PM 2.89 37.202 0.347 7.92 3.46 12.99
1/25/2021 3:30:00 PM 2.9 37.22 0.349 7.92 3.51 12.96
1/25/2021 3:45:00 PM 2.91 37.238 0.347 7.91 3.35 12.92
1/25/2021 4:00:00 PM 2.93 37.274 0.349 7.91 3.2 12.84
1/25/2021 4:15:00 PM 2.93 37.274 0.349 7.91 3.23 12.8
1/25/2021 4:30:00 PM 2.89 37.202 0.35 7.9 3.19 12.74
1/25/2021 4:45:00 PM 2.87 37.166 0.35 7.89 3.09 12.65
1/25/2021 5:00:00 PM 2.86 37.148 0.354 7.89 3.05 12.52
1/25/2021 5:15:00 PM 2.8 37.04 0.353 7.88 3 12.44
1/25/2021 5:30:00 PM 2.76 36.968 0.355 7.88 3.15 12.39
1/25/2021 5:45:00 PM 2.71 36.878 0.355 7.87 3.18 12.32
1/25/2021 6:00:00 PM 2.7 36.86 0.357 7.86 3.18 12.25
1/25/2021 6:15:00 PM 2.65 36.77 0.359 7.86 3.45 12.2
1/25/2021 6:30:00 PM 2.6 36.68 0.36 7.85 3.38 12.16
1/25/2021 6:45:00 PM 2.55 36.59 0.362 7.85 3.06 12.13
1/25/2021 7:00:00 PM 2.55 36.59 0.364 7.84 3.18 12.06
1/25/2021 7:15:00 PM 2.5 36.5 0.362 7.84 2.87 12.04
1/25/2021 7:30:00 PM 2.47 36.446 0.363 7.83 3.41 12.02
1/25/2021 7:45:00 PM 2.46 36.428 0.369 7.83 2.79 11.98
1/25/2021 8:00:00 PM 2.41 36.338 0.364 7.83 2.6 11.96
1/25/2021 8:15:00 PM 2.38 36.284 0.365 7.82 2.71 11.92
1/25/2021 8:30:00 PM 2.34 36.212 0.363 7.82 2.44 11.91
1/25/2021 8:45:00 PM 2.29 36.122 0.362 7.82 2.5 11.92
1/25/2021 9:00:00 PM 2.29 36.122 0.364 7.82 2.56 11.89
1/25/2021 9:15:00 PM 2.26 36.068 0.364 7.82 2.48 11.88
1/25/2021 9:30:00 PM 2.21 35.978 0.363 7.82 2.44 11.86
1/25/2021 9:45:00 PM 2.22 35.996 0.365 7.81 2.7 11.83
1/25/2021 10:00:00 PM 2.19 35.942 0.365 7.81 2.53 11.82
1/25/2021 10:15:00 PM 2.15 35.87 0.363 7.81 2.5 11.84
1/25/2021 10:30:00 PM 2.17 35.906 0.366 7.81 2.75 11.79
1/25/2021 10:45:00 PM 2.11 35.798 0.364 7.81 2.73 11.81
1/25/2021 11:00:00 PM 2.11 35.798 0.363 7.81 2.65 11.8
1/25/2021 11:15:00 PM 2.08 35.744 0.363 7.81 2.59 11.82
1/25/2021 11:30:00 PM 2.08 35.744 0.362 7.81 2.74 11.81
1/25/2021 11:45:00 PM 2.09 35.762 0.363 7.8 2.72 11.78
1/26/2021 12:00:00 AM 2.11 35.798 0.362 7.8 2.68 11.75
1/26/2021 12:15:00 AM 2.08 35.744 0.36 7.8 2.75 11.77
1/26/2021 12:30:00 AM 2.08 35.744 0.36 7.8 2.55 11.77
1/26/2021 12:45:00 AM 2.1 35.78 0.359 7.8 2.72 11.74
1/26/2021 1:00:00 AM 2.1 35.78 0.361 7.8 2.52 11.75
1/26/2021 1:15:00 AM 2.12 35.816 0.362 7.8 2.44 11.73
1/26/2021 1:30:00 AM 2.12 35.816 0.357 7.79 2.43 11.72
1/26/2021 1:45:00 AM 2.12 35.816 0.359 7.79 2.43 11.73
1/26/2021 2:00:00 AM 2.15 35.87 0.355 7.79 2.41 11.7
1/26/2021 2:15:00 AM 2.15 35.87 0.356 7.79 2.5 11.69
1/26/2021 2:30:00 AM 2.14 35.852 0.354 7.79 2.6 11.71
1/26/2021 2:45:00 AM 2.15 35.87 0.353 7.79 3.29 11.7
1/26/2021 3:00:00 AM 2.16 35.888 0.351 7.78 2.85 11.7
1/26/2021 3:15:00 AM 2.17 35.906 0.353 7.78 2.88 11.7
1/26/2021 3:30:00 AM 2.17 35.906 0.352 7.78 2.84 11.69
1/26/2021 3:45:00 AM 2.18 35.924 0.351 7.78 2.64 11.66
1/26/2021 4:00:00 AM 2.19 35.942 0.35 7.78 2.53 11.66
1/26/2021 4:15:00 AM 2.18 35.924 0.349 7.78 3.58 11.67
1/26/2021 4:30:00 AM 2.2 35.96 0.35 7.77 2.51 11.66
1/26/2021 4:45:00 AM 2.2 35.96 0.352 7.78 2.74 11.66
1/26/2021 5:00:00 AM 2.21 35.978 0.349 7.77 2.76 11.66
1/26/2021 5:15:00 AM 2.19 35.942 0.347 7.77 2.45 11.65
1/26/2021 5:30:00 AM 2.17 35.906 0.349 7.77 2.37 11.64
1/26/2021 5:45:00 AM 2.15 35.87 0.347 7.77 2.49 11.66
1/26/2021 6:00:00 AM 2.13 35.834 0.346 7.77 2.31 11.65
1/26/2021 6:15:00 AM 2.09 35.762 0.345 7.77 2.37 11.66
1/26/2021 6:30:00 AM 2.08 35.744 0.345 7.77 2.72 11.68
1/26/2021 6:45:00 AM 2.09 35.762 0.346 7.76 2.41 11.66
1/26/2021 7:00:00 AM 2.08 35.744 0.344 7.76 2.83 11.66
1/26/2021 7:15:00 AM 2.08 35.744 0.344 7.76 2.59 11.65
1/26/2021 7:30:00 AM 2.09 35.762 0.345 7.76 2.6 11.66
1/26/2021 7:45:00 AM 2.08 35.744 0.344 7.76 2.58 11.66
1/26/2021 8:00:00 AM 2.08 35.744 0.344 7.76 2.84 11.68
1/26/2021 8:15:00 AM 2.09 35.762 0.344 7.76 2.93 11.68
1/26/2021 8:30:00 AM 2.11 35.798 0.345 7.77 2.72 11.73
1/26/2021 8:45:00 AM 2.11 35.798 0.344 7.77 2.69 11.77
1/26/2021 9:00:00 AM 2.13 35.834 0.343 7.77 2.94 11.79
1/26/2021 9:15:00 AM 2.15 35.87 0.344 7.77 2.89 11.82
1/26/2021 9:30:00 AM 2.16 35.888 0.344 7.77 2.8 11.86
1/26/2021 9:45:00 AM 2.21 35.978 0.345 7.78 3.53 11.86
1/26/2021 10:00:00 AM 2.12 35.816 0.345 7.78 4.72 11.96
1/26/2021 10:15:00 AM 2.04 35.672 0.345 7.79 3.71 12.01
1/26/2021 10:30:00 AM 2.05 35.69 0.345 7.8 3.84 12.08
1/26/2021 10:45:00 AM 2 35.6 0.343 7.8 3.24 12.1
1/26/2021 11:00:00 AM 1.74 35.132 0.342 7.81 3.22 12.17
1/26/2021 11:15:00 AM 1.81 35.258 0.344 7.82 3.19 12.19
1/26/2021 11:30:00 AM 1.77 35.186 0.342 7.83 3.07 12.3
1/26/2021 11:45:00 AM 1.79 35.222 0.344 7.83 3.11 12.34
1/26/2021 12:00:00 PM 1.74 35.132 0.341 7.83 3.36 12.36
1/26/2021 12:15:00 PM 1.77 35.186 0.343 7.84 3.09 12.41
1/26/2021 12:30:00 PM 1.79 35.222 0.343 7.85 3.39 12.47
1/26/2021 12:45:00 PM 1.81 35.258 0.342 7.85 3.22 12.52
1/26/2021 1:00:00 PM 1.82 35.276 0.344 7.85 3.5 12.54
1/26/2021 1:15:00 PM 1.7 35.06 0.343 7.86 3.72 12.55
1/26/2021 1:30:00 PM 1.74 35.132 0.342 7.86 3.92 12.58
1/26/2021 1:45:00 PM 1.81 35.258 0.343 7.86 3.3 12.56
1/26/2021 2:00:00 PM 1.81 35.258 0.344 7.87 3.14 12.6
1/26/2021 2:15:00 PM 1.83 35.294 0.342 7.87 3.49 12.62
1/26/2021 2:30:00 PM 1.82 35.276 0.343 7.87 3.17 12.62
1/26/2021 2:45:00 PM 1.79 35.222 0.342 7.87 2.87 12.6
1/26/2021 3:00:00 PM 1.79 35.222 0.343 7.88 2.77 12.64
1/26/2021 3:15:00 PM 1.81 35.258 0.344 7.88 2.97 12.65
1/26/2021 3:30:00 PM 1.84 35.312 0.345 7.88 3.62 12.63
1/26/2021 3:45:00 PM 1.87 35.366 0.345 7.88 2.88 12.62
1/26/2021 4:00:00 PM 1.89 35.402 0.345 7.88 3.3 12.6
1/26/2021 4:15:00 PM 1.96 35.528 0.347 7.87 3.3 12.54
1/26/2021 4:30:00 PM 1.98 35.564 0.347 7.87 3.14 12.51
1/26/2021 4:45:00 PM 1.99 35.582 0.349 7.87 3.17 12.47
1/26/2021 5:00:00 PM 2.01 35.618 0.349 7.86 3.42 12.41
1/26/2021 5:15:00 PM 2.02 35.636 0.348 7.86 3.66 12.37
1/26/2021 5:30:00 PM 2.05 35.69 0.35 7.85 3.5 12.3
1/26/2021 5:45:00 PM 2.05 35.69 0.349 7.85 3.49 12.26
1/26/2021 6:00:00 PM 2.05 35.69 0.348 7.84 3.76 12.22
1/26/2021 6:15:00 PM 2.07 35.726 0.348 7.84 3.74 12.17
1/26/2021 6:30:00 PM 2.07 35.726 0.347 7.83 3.7 12.12
1/26/2021 6:45:00 PM 2.06 35.708 0.347 7.83 3.6 12.09
1/26/2021 7:00:00 PM 2.12 35.816 0.348 7.82 3.59 12.01
1/26/2021 7:15:00 PM 2.1 35.78 0.348 7.82 3.4 12.03
1/26/2021 7:30:00 PM 2.11 35.798 0.347 7.82 3.55 12.01
1/26/2021 7:45:00 PM 2.13 35.834 0.347 7.82 3.37 11.97
1/26/2021 8:00:00 PM 2.16 35.888 0.347 7.81 3.61 11.93
1/26/2021 8:15:00 PM 2.18 35.924 0.349 7.81 3.59 11.9
1/26/2021 8:30:00 PM 2.19 35.942 0.349 7.81 2.99 11.89
1/26/2021 8:45:00 PM 2.23 36.014 0.35 7.81 3.02 11.85
1/26/2021 9:00:00 PM 2.23 36.014 0.35 7.81 3.06 11.85
1/26/2021 9:15:00 PM 2.23 36.014 0.349 7.8 2.94 11.84
1/26/2021 9:30:00 PM 2.26 36.068 0.349 7.8 2.99 11.78
1/26/2021 9:45:00 PM 2.3 36.14 0.351 7.8 3.08 11.75
1/26/2021 10:00:00 PM 2.28 36.104 0.349 7.8 3.24 11.76
1/26/2021 10:15:00 PM 2.29 36.122 0.349 7.8 3.03 11.74
1/26/2021 10:30:00 PM 2.31 36.158 0.351 7.79 3.07 11.72
1/26/2021 10:45:00 PM 2.32 36.176 0.351 7.79 3.09 11.71
1/26/2021 11:00:00 PM 2.32 36.176 0.35 7.79 3.06 11.69
1/26/2021 11:15:00 PM 2.33 36.194 0.35 7.79 3.13 11.68
1/26/2021 11:30:00 PM 2.35 36.23 0.351 7.79 3.1 11.67
1/26/2021 11:45:00 PM 2.38 36.284 0.352 7.78 2.98 11.64
1/27/2021 12:00:00 AM 2.39 36.302 0.352 7.78 2.8 11.64
1/27/2021 12:15:00 AM 2.4 36.32 0.351 7.78 3.07 11.63
1/27/2021 12:30:00 AM 2.42 36.356 0.352 7.78 2.88 11.61
1/27/2021 12:45:00 AM 2.42 36.356 0.352 7.78 3 11.62
1/27/2021 1:00:00 AM 2.44 36.392 0.353 7.78 2.72 11.6
1/27/2021 1:15:00 AM 2.47 36.446 0.353 7.78 2.69 11.57
1/27/2021 1:30:00 AM 2.46 36.428 0.352 7.78 2.63 11.58
1/27/2021 1:45:00 AM 2.48 36.464 0.353 7.78 2.63 11.58
1/27/2021 2:00:00 AM 2.47 36.446 0.352 7.78 2.58 11.59
1/27/2021 2:15:00 AM 2.48 36.464 0.352 7.78 2.53 11.58
1/27/2021 2:30:00 AM 2.49 36.482 0.352 7.78 2.44 11.59
1/27/2021 2:45:00 AM 2.51 36.518 0.353 7.78 2.61 11.56
1/27/2021 3:00:00 AM 2.52 36.536 0.353 7.78 2.76 11.54
1/27/2021 3:15:00 AM 2.52 36.536 0.354 7.78 2.77 11.54
1/27/2021 3:30:00 AM 2.49 36.482 0.353 7.78 2.58 11.56
1/27/2021 3:45:00 AM 2.49 36.482 0.354 7.78 2.73 11.55
1/27/2021 4:00:00 AM 2.48 36.464 0.352 7.78 2.74 11.55
1/27/2021 4:15:00 AM 2.47 36.446 0.353 7.78 2.6 11.56
1/27/2021 4:30:00 AM 2.45 36.41 0.354 7.78 2.52 11.55
1/27/2021 4:45:00 AM 2.44 36.392 0.354 7.78 2.45 11.57
1/27/2021 5:00:00 AM 2.44 36.392 0.355 7.78 2.63 11.57
1/27/2021 5:15:00 AM 2.41 36.338 0.354 7.78 2.78 11.58
1/27/2021 5:30:00 AM 2.39 36.302 0.353 7.78 2.5 11.59
1/27/2021 5:45:00 AM 2.39 36.302 0.354 7.78 2.6 11.58
1/27/2021 6:00:00 AM 2.37 36.266 0.355 7.78 2.73 11.57
1/27/2021 6:15:00 AM 2.37 36.266 0.353 7.78 2.72 11.59
1/27/2021 6:30:00 AM 2.37 36.266 0.354 7.78 2.73 11.59
1/27/2021 6:45:00 AM 2.35 36.23 0.354 7.78 2.6 11.59
1/27/2021 7:00:00 AM 2.34 36.212 0.353 7.78 2.75 11.59
1/27/2021 7:15:00 AM 2.33 36.194 0.352 7.78 3.18 11.61
1/27/2021 7:30:00 AM 2.3 36.14 0.353 7.78 2.67 11.62
1/27/2021 7:45:00 AM 2.33 36.194 0.352 7.78 2.68 11.59
1/27/2021 8:00:00 AM 2.3 36.14 0.351 7.78 2.81 11.63
1/27/2021 8:15:00 AM 2.31 36.158 0.351 7.78 2.96 11.65
1/27/2021 8:30:00 AM 2.33 36.194 0.352 7.78 3.2 11.65
1/27/2021 8:45:00 AM 2.31 36.158 0.351 7.79 3.2 11.72
1/27/2021 9:00:00 AM 2.3 36.14 0.351 7.79 3.21 11.77
1/27/2021 9:15:00 AM 2.28 36.104 0.354 7.8 3.54 11.81
1/27/2021 9:30:00 AM 2.28 36.104 0.351 7.8 3.87 11.87
1/27/2021 9:45:00 AM 2.29 36.122 0.352 7.8 2.89 11.91
1/27/2021 10:00:00 AM 2.28 36.104 0.354 7.81 2.88 12
1/27/2021 10:15:00 AM 2.31 36.158 0.36 7.82 2.79 12.03
1/27/2021 10:30:00 AM 2.3 36.14 0.36 7.82 2.66 12.1
1/27/2021 10:45:00 AM 2.31 36.158 0.364 7.83 3.28 12.18
1/27/2021 11:00:00 AM 2.33 36.194 0.363 7.83 3.31 12.27
1/27/2021 11:15:00 AM 2.34 36.212 0.362 7.84 2.93 12.33
1/27/2021 11:30:00 AM 2.36 36.248 0.362 7.85 2.88 12.38
1/27/2021 11:45:00 AM 2.39 36.302 0.36 7.85 2.92 12.46
1/27/2021 12:00:00 PM 2.41 36.338 0.36 7.86 2.75 12.45
1/27/2021 12:15:00 PM 2.44 36.392 0.358 7.86 3.02 12.52
1/27/2021 12:30:00 PM 2.48 36.464 0.359 7.87 2.78 12.59
1/27/2021 12:45:00 PM 2.51 36.518 0.355 7.87 2.7 12.61
1/27/2021 1:00:00 PM 2.52 36.536 0.354 7.88 3.01 12.68
1/27/2021 1:15:00 PM 2.58 36.644 0.354 7.88 3 12.7
1/27/2021 1:30:00 PM 2.58 36.644 0.353 7.89 3.66 12.73
1/27/2021 1:45:00 PM 2.58 36.644 0.352 7.89 3.36 12.76
1/27/2021 2:00:00 PM 2.6 36.68 0.351 7.89 3.53 12.77
1/27/2021 2:15:00 PM 2.65 36.77 0.352 7.9 3.57 12.78
1/27/2021 2:30:00 PM 2.64 36.752 0.35 7.9 3.62 12.78
1/27/2021 2:45:00 PM 2.67 36.806 0.352 7.9 3.43 12.78
1/27/2021 3:00:00 PM 2.66 36.788 0.351 7.9 3.5 12.76
1/27/2021 3:15:00 PM 2.68 36.824 0.351 7.9 3.68 12.73
1/27/2021 3:30:00 PM 2.7 36.86 0.351 7.9 3.72 12.69
1/27/2021 3:45:00 PM 2.7 36.86 0.351 7.9 3.65 12.69
1/27/2021 4:00:00 PM 2.71 36.878 0.353 7.9 4.02 12.66
1/27/2021 4:15:00 PM 2.74 36.932 0.353 7.9 4.37 12.61
1/27/2021 4:30:00 PM 2.74 36.932 0.352 7.89 3.99 12.58
1/27/2021 4:45:00 PM 2.74 36.932 0.351 7.89 4.53 12.52
1/27/2021 5:00:00 PM 2.73 36.914 0.353 7.88 4.76 12.45
1/27/2021 5:15:00 PM 2.74 36.932 0.355 7.88 4.57 12.38
1/27/2021 5:30:00 PM 2.71 36.878 0.352 7.87 4.9 12.33
1/27/2021 5:45:00 PM 2.71 36.878 0.353 7.87 4.65 12.25
1/27/2021 6:00:00 PM 2.69 36.842 0.352 7.86 4.88 12.22
1/27/2021 6:15:00 PM 2.71 36.878 0.352 7.85 5.25 12.14
1/27/2021 6:30:00 PM 2.71 36.878 0.353 7.85 4.5 12.08
1/27/2021 6:45:00 PM 2.69 36.842 0.352 7.85 4.49 12.07
1/27/2021 7:00:00 PM 2.67 36.806 0.351 7.84 4.35 12.02
1/27/2021 7:15:00 PM 2.67 36.806 0.352 7.84 4.81 11.97
1/27/2021 7:30:00 PM 2.66 36.788 0.353 7.84 3.91 11.96
1/27/2021 7:45:00 PM 2.65 36.77 0.355 7.83 3.87 11.92
1/27/2021 8:00:00 PM 2.63 36.734 0.352 7.83 3.6 11.89
1/27/2021 8:15:00 PM 2.6 36.68 0.352 7.82 3.6 11.86
1/27/2021 8:30:00 PM 2.59 36.662 0.354 7.82 3.49 11.82
1/27/2021 8:45:00 PM 2.55 36.59 0.354 7.82 3.35 11.83
1/27/2021 9:00:00 PM 2.52 36.536 0.354 7.81 3.17 11.81
1/27/2021 9:15:00 PM 2.48 36.464 0.354 7.82 3.52 11.79
1/27/2021 9:30:00 PM 2.46 36.428 0.353 7.81 2.95 11.77
1/27/2021 9:45:00 PM 2.41 36.338 0.355 7.81 2.93 11.77
1/27/2021 10:00:00 PM 2.35 36.23 0.354 7.81 2.71 11.77
1/27/2021 10:15:00 PM 2.33 36.194 0.356 7.81 2.99 11.74
1/27/2021 10:30:00 PM 2.24 36.032 0.353 7.81 2.79 11.77
1/27/2021 10:45:00 PM 2.21 35.978 0.354 7.81 2.77 11.74
1/27/2021 11:00:00 PM 2.18 35.924 0.356 7.8 3.21 11.72
1/27/2021 11:15:00 PM 2.11 35.798 0.355 7.8 3.23 11.74
1/27/2021 11:30:00 PM 2.05 35.69 0.353 7.8 3.54 11.73
1/27/2021 11:45:00 PM 2.05 35.69 0.356 7.8 3.41 11.67
1/28/2021 12:00:00 AM 1.98 35.564 0.355 7.8 3.55 11.72
1/28/2021 12:15:00 AM 1.93 35.474 0.355 7.8 2.91 11.77
1/28/2021 12:30:00 AM 1.86 35.348 0.354 7.8 2.78 11.8
1/28/2021 12:45:00 AM 1.84 35.312 0.356 7.8 3.3 11.79
1/28/2021 1:00:00 AM 1.87 35.366 0.362 7.8 3.13 11.78
1/28/2021 1:15:00 AM 1.82 35.276 0.355 7.8 2.95 11.76
1/28/2021 1:30:00 AM 1.83 35.294 0.357 7.8 3.02 11.78
1/28/2021 1:45:00 AM 1.83 35.294 0.358 7.79 2.79 11.7
1/28/2021 2:00:00 AM 1.82 35.276 0.358 7.79 3.06 11.71
1/28/2021 2:15:00 AM 1.81 35.258 0.358 7.79 2.79 11.72
1/28/2021 2:30:00 AM 1.8 35.24 0.359 7.79 2.7 11.72
1/28/2021 2:45:00 AM 1.82 35.276 0.36 7.79 2.74 11.69
1/28/2021 3:00:00 AM 1.82 35.276 0.36 7.79 2.69 11.68
1/28/2021 3:15:00 AM 1.81 35.258 0.358 7.79 2.57 11.7
1/28/2021 3:30:00 AM 1.82 35.276 0.36 7.78 2.69 11.7
1/28/2021 3:45:00 AM 1.78 35.204 0.358 7.78 2.76 11.74
1/28/2021 4:00:00 AM 1.77 35.186 0.358 7.78 2.57 11.73
1/28/2021 4:15:00 AM 1.75 35.15 0.357 7.78 2.58 11.76
1/28/2021 4:30:00 AM 1.71 35.078 0.358 7.79 2.45 11.78
1/28/2021 4:45:00 AM 1.68 35.024 0.362 7.79 2.56 11.8
1/28/2021 5:00:00 AM 1.65 34.97 0.361 7.78 2.65 11.79
1/28/2021 5:15:00 AM 1.59 34.862 0.36 7.79 2.54 11.83
1/28/2021 5:30:00 AM 1.62 34.916 0.365 7.78 2.56 11.78
1/28/2021 5:45:00 AM 1.59 34.862 0.36 7.78 2.56 11.81
1/28/2021 6:00:00 AM 1.6 34.88 0.362 7.78 2.55 11.8
1/28/2021 6:15:00 AM 1.6 34.88 0.362 7.79 2.56 11.81
1/28/2021 6:30:00 AM 1.63 34.934 0.363 7.78 2.48 11.79
1/28/2021 6:45:00 AM 1.58 34.844 0.361 7.79 2.58 11.81
1/28/2021 7:00:00 AM 1.57 34.826 0.361 7.79 2.5 11.82
1/28/2021 7:15:00 AM 1.57 34.826 0.364 7.79 2.48 11.82
1/28/2021 7:30:00 AM 1.56 34.808 0.361 7.79 2.49 11.82
1/28/2021 7:45:00 AM 1.54 34.772 0.363 7.79 2.65 11.84
1/28/2021 8:00:00 AM 1.54 34.772 0.362 7.79 2.67 11.87
1/28/2021 8:15:00 AM 1.56 34.808 0.364 7.79 3.2 11.88
1/28/2021 8:30:00 AM 1.56 34.808 0.363 7.8 3.44 11.99
1/28/2021 8:45:00 AM 1.55 34.79 0.362 7.81 3.05 12.07
1/28/2021 9:00:00 AM 1.54 34.772 0.361 7.81 3.27 12.14
1/28/2021 9:15:00 AM 1.57 34.826 0.364 7.82 3.95 12.22
1/28/2021 9:30:00 AM 1.57 34.826 0.365 7.83 3.88 12.31
1/28/2021 9:45:00 AM 1.61 34.898 0.361 7.83 3.42 12.44
1/28/2021 10:00:00 AM 1.69 35.042 0.366 7.84 3.59 12.48
1/28/2021 10:15:00 AM 1.67 35.006 0.361 7.85 3 12.55
1/28/2021 10:30:00 AM 1.7 35.06 0.365 7.85 2.98 12.63
1/28/2021 10:45:00 AM 1.76 35.168 0.363 7.86 2.88 12.69
1/28/2021 11:00:00 AM 1.79 35.222 0.363 7.87 2.92 12.74
1/28/2021 11:15:00 AM 1.83 35.294 0.363 7.88 2.87 12.81
1/28/2021 11:30:00 AM 1.93 35.474 0.363 7.88 3.07 12.84
1/28/2021 11:45:00 AM 2 35.6 0.361 7.89 3.16 12.89
1/28/2021 12:00:00 PM 2.06 35.708 0.362 7.89 2.99 12.92
1/28/2021 12:15:00 PM 2.14 35.852 0.361 7.9 3.28 12.97
1/28/2021 12:30:00 PM 2.16 35.888 0.358 7.91 3.11 13.03
1/28/2021 12:45:00 PM 2.21 35.978 0.359 7.91 5.37 13.01
1/28/2021 1:00:00 PM 2.3 36.14 0.359 7.91 4.25 13.05
1/28/2021 1:15:00 PM 2.35 36.23 0.354 7.92 3.7 13.13
1/28/2021 1:30:00 PM 2.44 36.392 0.354 7.93 3.57 13.16
1/28/2021 1:45:00 PM 2.44 36.392 0.354 7.93 3.96 13.16
1/28/2021 2:00:00 PM 2.46 36.428 0.353 7.93 4.03 13.13
1/28/2021 2:15:00 PM 2.47 36.446 0.353 7.94 3.62 13.15
1/28/2021 2:30:00 PM 2.52 36.536 0.354 7.94 4.02 13.12
1/28/2021 2:45:00 PM 2.58 36.644 0.354 7.94 3.66 13.09
1/28/2021 3:00:00 PM 2.6 36.68 0.356 7.94 3.71 13.04
1/28/2021 3:15:00 PM 2.58 36.644 0.354 7.94 3.38 13.05
1/28/2021 3:30:00 PM 2.57 36.626 0.352 7.94 3.99 13
1/28/2021 3:45:00 PM 2.53 36.554 0.352 7.93 4.26 12.95
1/28/2021 4:00:00 PM 2.46 36.428 0.352 7.93 3.83 12.95
1/28/2021 4:15:00 PM 2.41 36.338 0.353 7.93 4.6 12.9
1/28/2021 4:30:00 PM 2.35 36.23 0.351 7.93 3.96 12.83
1/28/2021 4:45:00 PM 2.3 36.14 0.352 7.92 3.77 12.79
1/28/2021 5:00:00 PM 2.23 36.014 0.358 7.92 3.48 12.74
1/28/2021 5:15:00 PM 2.22 35.996 0.356 7.91 3.6 12.65
1/28/2021 5:30:00 PM 2.1 35.78 0.354 7.91 3.71 12.61
1/28/2021 5:45:00 PM 2.06 35.708 0.358 7.9 3.52 12.56
1/28/2021 6:00:00 PM 2 35.6 0.358 7.89 3.98 12.48
1/28/2021 6:15:00 PM 1.91 35.438 0.359 7.89 4.21 12.46
1/28/2021 6:30:00 PM 1.86 35.348 0.359 7.89 3.78 12.41
1/28/2021 6:45:00 PM 1.83 35.294 0.36 7.88 4.04 12.37
1/28/2021 7:00:00 PM 1.76 35.168 0.359 7.88 3.99 12.36
1/28/2021 7:15:00 PM 1.7 35.06 0.362 7.87 3.57 12.32
1/28/2021 7:30:00 PM 1.68 35.024 0.363 7.87 3.83 12.26
1/28/2021 7:45:00 PM 1.63 34.934 0.361 7.86 3.84 12.23
1/28/2021 8:00:00 PM 1.55 34.79 0.361 7.86 4.11 12.22
1/28/2021 8:15:00 PM 1.51 34.718 0.365 7.86 3.97 12.22
1/28/2021 8:30:00 PM 1.42 34.556 0.361 7.86 3.73 12.23
1/28/2021 8:45:00 PM 1.41 34.538 0.361 7.86 4.05 12.22
1/28/2021 9:00:00 PM 1.33 34.394 0.361 7.85 3.73 12.2
1/28/2021 9:15:00 PM 1.34 34.412 0.361 7.85 3.5 12.14
1/28/2021 9:30:00 PM 1.28 34.304 0.361 7.84 3.54 12.12
1/28/2021 9:45:00 PM 1.26 34.268 0.362 7.84 3.84 12.1
1/28/2021 10:00:00 PM 1.26 34.268 0.362 7.84 4.19 12.07
1/28/2021 10:15:00 PM 1.29 34.322 0.365 7.83 4.04 11.98
1/28/2021 10:30:00 PM 1.2 34.16 0.362 7.83 3.92 12.03
1/28/2021 10:45:00 PM 1.24 34.232 0.364 7.83 4.27 12
1/28/2021 11:00:00 PM 1.21 34.178 0.364 7.83 4.13 11.99
1/28/2021 11:15:00 PM 1.23 34.214 0.365 7.83 4.41 11.97
1/28/2021 11:30:00 PM 1.23 34.214 0.363 7.82 5.26 11.95
1/28/2021 11:45:00 PM 1.18 34.124 0.365 7.82 4.38 11.98
1/29/2021 12:00:00 AM 1.21 34.178 0.366 7.81 4.55 11.93
1/29/2021 12:15:00 AM 1.16 34.088 0.366 7.81 4.76 11.93
1/29/2021 12:30:00 AM 1.26 34.268 0.366 7.81 4.54 11.89
1/29/2021 12:45:00 AM 1.18 34.124 0.368 7.82 3.82 11.94
1/29/2021 1:00:00 AM 1.1 33.98 0.367 7.82 3.98 11.97
1/29/2021 1:15:00 AM 0.99 33.782 0.365 7.82 3.68 12.01
1/29/2021 1:30:00 AM 1.08 33.944 0.368 7.81 3.17 11.91
1/29/2021 1:45:00 AM 1.13 34.034 0.371 7.81 3.37 11.85
1/29/2021 2:00:00 AM 1.18 34.124 0.37 7.8 3.64 11.81
1/29/2021 2:15:00 AM 1.19 34.142 0.373 7.8 3.94 11.79
1/29/2021 2:30:00 AM 1.11 33.998 0.373 7.8 3.15 11.75
1/29/2021 2:45:00 AM 1.13 34.034 0.374 7.8 3.11 11.78
1/29/2021 3:00:00 AM 1.08 33.944 0.377 7.8 3 11.75
1/29/2021 3:15:00 AM 1.16 34.088 0.375 7.79 3.06 11.63
1/29/2021 3:30:00 AM 1.27 34.286 0.384 7.79 2.87 11.6
1/29/2021 3:45:00 AM 1.07 33.926 0.38 7.79 2.86 11.68
1/29/2021 4:00:00 AM 1.18 34.124 0.384 7.79 2.78 11.57
1/29/2021 4:15:00 AM 1.2 34.16 0.387 7.79 2.69 11.57
1/29/2021 4:30:00 AM 1.06 33.908 0.384 7.79 2.68 11.6
1/29/2021 4:45:00 AM 1.05 33.89 0.386 7.79 2.74 11.64
1/29/2021 5:00:00 AM 1.13 34.034 0.386 7.79 3.97 11.58
1/29/2021 5:15:00 AM 1.23 34.214 0.392 7.79 3.04 11.6
1/29/2021 5:30:00 AM 1.11 33.998 0.384 7.79 3.08 11.62
1/29/2021 5:45:00 AM 1.01 33.818 0.383 7.8 3.08 11.68
1/29/2021 6:00:00 AM 1.13 34.034 0.39 7.79 2.88 11.57
1/29/2021 6:15:00 AM 1.09 33.962 0.39 7.79 2.91 11.64
1/29/2021 6:30:00 AM 1.11 33.998 0.391 7.78 2.81 11.55
1/29/2021 6:45:00 AM 1.07 33.926 0.391 7.79 2.95 11.63
1/29/2021 7:00:00 AM 1.04 33.872 0.39 7.79 2.92 11.63
1/29/2021 7:15:00 AM 1.12 34.016 0.395 7.79 3.17 11.59
1/29/2021 7:30:00 AM 1.11 33.998 0.39 7.79 2.81 11.58
1/29/2021 7:45:00 AM 1.16 34.088 0.394 7.78 3.25 11.47
1/29/2021 8:00:00 AM 1.09 33.962 0.395 7.79 3.01 11.62
1/29/2021 8:15:00 AM 1.11 33.998 0.392 7.79 2.61 11.68
1/29/2021 8:30:00 AM 1.18 34.124 0.396 7.79 2.62 11.72
1/29/2021 8:45:00 AM 1.18 34.124 0.394 7.8 2.83 11.86
1/29/2021 9:00:00 AM 1.26 34.268 0.396 7.81 2.73 11.89
1/29/2021 9:15:00 AM 1.31 34.358 0.396 7.81 2.52 11.97
1/29/2021 9:30:00 AM 1.27 34.286 0.391 7.82 2.73 12.1
1/29/2021 9:45:00 AM 1.33 34.394 0.392 7.82 2.81 12.14
1/29/2021 10:00:00 AM 1.38 34.484 0.393 7.83 3.02 12.24
1/29/2021 10:15:00 AM 1.36 34.448 0.39 7.84 2.72 12.34
1/29/2021 10:30:00 AM 1.32 34.376 0.388 7.84 2.53 12.43
1/29/2021 10:45:00 AM 1.37 34.466 0.387 7.85 2.55 12.5
1/29/2021 11:00:00 AM 1.45 34.61 0.388 7.86 2.72 12.6
1/29/2021 11:15:00 AM 1.47 34.646 0.386 7.86 2.62 12.67
1/29/2021 11:30:00 AM 1.53 34.754 0.385 7.87 2.73 12.73
1/29/2021 11:45:00 AM 1.53 34.754 0.383 7.88 3.02 12.76
1/29/2021 12:00:00 PM 1.53 34.754 0.383 7.88 2.71 12.84
1/29/2021 12:15:00 PM 1.54 34.772 0.38 7.89 2.99 12.88
1/29/2021 12:30:00 PM 1.56 34.808 0.378 7.9 3.3 12.95
1/29/2021 12:45:00 PM 1.57 34.826 0.376 7.91 3.08 13.03
1/29/2021 1:00:00 PM 1.63 34.934 0.374 7.91 2.97 13.05
1/29/2021 1:15:00 PM 1.66 34.988 0.372 7.92 3.2 13.09
1/29/2021 1:30:00 PM 1.71 35.078 0.371 7.92 3.22 13.06
1/29/2021 1:45:00 PM 1.73 35.114 0.369 7.92 3.39 13.12
1/29/2021 2:00:00 PM 1.72 35.096 0.367 7.93 3.65 13.14
1/29/2021 2:15:00 PM 1.75 35.15 0.365 7.93 3.28 13.17
1/29/2021 2:30:00 PM 1.8 35.24 0.364 7.94 3.05 13.15
1/29/2021 2:45:00 PM 1.86 35.348 0.364 7.93 3.31 13.11
1/29/2021 3:00:00 PM 1.83 35.294 0.362 7.94 3.52 13.12
1/29/2021 3:15:00 PM 1.83 35.294 0.362 7.93 3.42 13.11
1/29/2021 3:30:00 PM 1.89 35.402 0.361 7.94 3.23 13.04
1/29/2021 3:45:00 PM 1.88 35.384 0.362 7.94 3.58 13.05
1/29/2021 4:00:00 PM 1.88 35.384 0.361 7.93 3.11 13.01
1/29/2021 4:15:00 PM 1.86 35.348 0.361 7.93 3.47 13
1/29/2021 4:30:00 PM 1.88 35.384 0.362 7.93 3.1 12.93
1/29/2021 4:45:00 PM 1.89 35.402 0.364 7.93 3.09 12.84
1/29/2021 5:00:00 PM 1.81 35.258 0.363 7.92 3.09 12.84
1/29/2021 5:15:00 PM 1.9 35.42 0.368 7.9 3.41 12.58
1/29/2021 5:30:00 PM 1.84 35.312 0.368 7.9 3.87 12.58
1/29/2021 5:45:00 PM 1.79 35.222 0.369 7.9 3.87 12.55
1/29/2021 6:00:00 PM 1.76 35.168 0.372 7.89 3.68 12.47
1/29/2021 6:15:00 PM 1.75 35.15 0.373 7.88 3.39 12.41
1/29/2021 6:30:00 PM 1.74 35.132 0.374 7.88 3.86 12.37
1/29/2021 6:45:00 PM 1.73 35.114 0.374 7.87 3.36 12.26
1/29/2021 7:00:00 PM 1.77 35.186 0.374 7.86 3.55 12.18
1/29/2021 7:15:00 PM 1.73 35.114 0.375 7.86 3.04 12.14
1/29/2021 7:30:00 PM 1.71 35.078 0.375 7.85 3.22 12.08
1/29/2021 7:45:00 PM 1.7 35.06 0.374 7.84 2.87 12.08
1/29/2021 8:00:00 PM 1.71 35.078 0.374 7.84 2.97 11.98
1/29/2021 8:15:00 PM 1.73 35.114 0.381 7.83 3.38 11.93
1/29/2021 8:30:00 PM 1.66 34.988 0.375 7.83 3.06 11.95
1/29/2021 8:45:00 PM 1.63 34.934 0.375 7.83 3.41 11.98
1/29/2021 9:00:00 PM 1.6 34.88 0.375 7.83 3.07 11.92
1/29/2021 9:15:00 PM 1.63 34.934 0.376 7.82 3.18 11.89
1/29/2021 9:30:00 PM 1.58 34.844 0.373 7.81 3.82 11.86
1/29/2021 9:45:00 PM 1.54 34.772 0.374 7.82 3.74 11.85
1/29/2021 10:00:00 PM 1.52 34.736 0.377 7.82 3.85 11.84
1/29/2021 10:15:00 PM 1.53 34.754 0.374 7.81 3.49 11.78
1/29/2021 10:30:00 PM 1.51 34.718 0.375 7.82 3.88 11.83
1/29/2021 10:45:00 PM 1.44 34.592 0.373 7.81 3.29 11.8
1/29/2021 11:00:00 PM 1.45 34.61 0.376 7.81 3.13 11.83
1/29/2021 11:15:00 PM 1.48 34.664 0.375 7.81 2.67 11.75
1/29/2021 11:30:00 PM 1.44 34.592 0.377 7.81 2.76 11.78
1/29/2021 11:45:00 PM 1.41 34.538 0.376 7.81 2.72 11.83
1/30/2021 12:00:00 AM 1.42 34.556 0.374 7.81 2.65 11.75
1/30/2021 12:15:00 AM 1.45 34.61 0.376 7.8 2.73 11.77
1/30/2021 12:30:00 AM 1.47 34.646 0.376 7.8 2.84 11.71
1/30/2021 12:45:00 AM 1.4 34.52 0.375 7.8 2.58 11.81
1/30/2021 1:00:00 AM 1.41 34.538 0.375 7.8 2.52 11.79
1/30/2021 1:15:00 AM 1.38 34.484 0.374 7.81 2.69 11.79
1/30/2021 1:30:00 AM 1.41 34.538 0.376 7.8 2.96 11.75
1/30/2021 1:45:00 AM 1.33 34.394 0.373 7.81 2.77 11.84
1/30/2021 2:00:00 AM 1.29 34.322 0.372 7.81 2.74 11.83
1/30/2021 2:15:00 AM 1.35 34.43 0.374 7.8 2.8 11.78
1/30/2021 2:30:00 AM 1.3 34.34 0.372 7.8 2.71 11.84
1/30/2021 2:45:00 AM 1.35 34.43 0.376 7.8 3.02 11.79
1/30/2021 3:00:00 AM 1.3 34.34 0.376 7.81 2.8 11.85
1/30/2021 3:15:00 AM 1.32 34.376 0.374 7.8 2.92 11.8
1/30/2021 3:30:00 AM 1.37 34.466 0.374 7.8 2.81 11.79
1/30/2021 3:45:00 AM 1.31 34.358 0.374 7.8 2.77 11.8
1/30/2021 4:00:00 AM 1.26 34.268 0.373 7.8 3.03 11.83
1/30/2021 4:15:00 AM 1.28 34.304 0.373 7.8 2.73 11.83
1/30/2021 4:30:00 AM 1.31 34.358 0.373 7.8 2.71 11.82
1/30/2021 4:45:00 AM 1.27 34.286 0.373 7.8 2.56 11.81
1/30/2021 5:00:00 AM 1.31 34.358 0.375 7.8 2.82 11.78
1/30/2021 5:15:00 AM 1.28 34.304 0.374 7.8 2.82 11.79
1/30/2021 5:30:00 AM 1.29 34.322 0.374 7.8 2.82 11.77
1/30/2021 5:45:00 AM 1.33 34.394 0.375 7.8 3.27 11.75
1/30/2021 6:00:00 AM 1.27 34.286 0.374 7.8 2.71 11.8
1/30/2021 6:15:00 AM 1.27 34.286 0.374 7.79 3.09 11.77
1/30/2021 6:30:00 AM 1.24 34.232 0.372 7.8 2.73 11.79
1/30/2021 6:45:00 AM 1.25 34.25 0.375 7.79 2.91 11.83
1/30/2021 7:00:00 AM 1.27 34.286 0.374 7.8 2.86 11.78
1/30/2021 7:15:00 AM 1.23 34.214 0.373 7.79 2.76 11.79
1/30/2021 7:30:00 AM 1.27 34.286 0.375 7.79 3.19 11.75
1/30/2021 7:45:00 AM 1.26 34.268 0.376 7.79 3.4 11.84
1/30/2021 8:00:00 AM 1.28 34.304 0.375 7.8 3.68 11.81
1/30/2021 8:15:00 AM 1.24 34.232 0.371 7.8 3.52 11.92
1/30/2021 8:30:00 AM 1.24 34.232 0.372 7.81 3.54 12.01
1/30/2021 8:45:00 AM 1.28 34.304 0.373 7.81 3.07 12.08
1/30/2021 9:00:00 AM 1.3 34.34 0.372 7.82 2.85 12.12
1/30/2021 9:15:00 AM 1.35 34.43 0.374 7.82 3.09 12.21
1/30/2021 9:30:00 AM 1.41 34.538 0.373 7.83 3.04 12.28
1/30/2021 9:45:00 AM 1.45 34.61 0.372 7.83 3 12.36
1/30/2021 10:00:00 AM 1.54 34.772 0.373 7.84 3.28 12.41
1/30/2021 10:15:00 AM 1.57 34.826 0.371 7.85 3.49 12.51
1/30/2021 10:30:00 AM 1.6 34.88 0.372 7.85 3.34 12.61
1/30/2021 10:45:00 AM 1.66 34.988 0.373 7.86 3.18 12.65
1/30/2021 11:00:00 AM 1.68 35.024 0.37 7.86 3.02 12.72
1/30/2021 11:15:00 AM 1.75 35.15 0.369 7.87 3.02 12.69
1/30/2021 11:30:00 AM 1.81 35.258 0.37 7.88 2.96 12.74
1/30/2021 11:45:00 AM 1.86 35.348 0.369 7.88 3.05 12.81
1/30/2021 12:00:00 PM 1.94 35.492 0.368 7.88 3.4 12.84
1/30/2021 12:15:00 PM 1.99 35.582 0.365 7.89 3.42 12.9
1/30/2021 12:30:00 PM 2.07 35.726 0.366 7.89 3.18 12.94
1/30/2021 12:45:00 PM 2.17 35.906 0.364 7.9 3.06 12.95
1/30/2021 1:00:00 PM 2.27 36.086 0.363 7.9 3.13 12.94
1/30/2021 1:15:00 PM 2.4 36.32 0.363 7.9 3.21 12.95
1/30/2021 1:30:00 PM 2.47 36.446 0.36 7.91 3.37 12.96
1/30/2021 1:45:00 PM 2.58 36.644 0.361 7.91 3.44 12.92
1/30/2021 2:00:00 PM 2.66 36.788 0.359 7.91 3.49 12.93
1/30/2021 2:15:00 PM 2.73 36.914 0.361 7.91 3.64 12.92
1/30/2021 2:30:00 PM 2.82 37.076 0.358 7.91 4.18 12.88
1/30/2021 2:45:00 PM 2.9 37.22 0.36 7.91 4.83 12.87
1/30/2021 3:00:00 PM 2.96 37.328 0.358 7.91 4.08 12.82
1/30/2021 3:15:00 PM 2.96 37.328 0.358 7.91 3.78 12.83
1/30/2021 3:30:00 PM 2.97 37.346 0.357 7.91 3.91 12.8
1/30/2021 3:45:00 PM 2.97 37.346 0.355 7.91 4.14 12.75
1/30/2021 4:00:00 PM 2.98 37.364 0.36 7.91 3.75 12.71
1/30/2021 4:15:00 PM 2.92 37.256 0.357 7.9 3.81 12.67
1/30/2021 4:30:00 PM 2.89 37.202 0.358 7.9 4.3 12.61
1/30/2021 4:45:00 PM 2.85 37.13 0.358 7.9 4.07 12.54
1/30/2021 5:00:00 PM 2.78 37.004 0.36 7.89 4.77 12.51
1/30/2021 5:15:00 PM 2.71 36.878 0.36 7.88 4.45 12.44
1/30/2021 5:30:00 PM 2.67 36.806 0.361 7.87 4.83 12.3
1/30/2021 5:45:00 PM 2.54 36.572 0.36 7.87 5.16 12.31
1/30/2021 6:00:00 PM 2.51 36.518 0.361 7.86 4.6 12.16
1/30/2021 6:15:00 PM 2.39 36.302 0.361 7.86 4.24 12.21
1/30/2021 6:30:00 PM 2.29 36.122 0.362 7.86 5.06 12.16
1/30/2021 6:45:00 PM 2.24 36.032 0.364 7.86 4.54 12.13
1/30/2021 7:00:00 PM 2.2 35.96 0.364 7.85 4.4 11.97
1/30/2021 7:15:00 PM 2.16 35.888 0.366 7.84 4.49 11.92
1/30/2021 7:30:00 PM 2.02 35.636 0.365 7.84 4.65 12
1/30/2021 7:45:00 PM 1.95 35.51 0.368 7.84 4.85 11.95
1/30/2021 8:00:00 PM 1.86 35.348 0.368 7.84 4.91 11.99
1/30/2021 8:15:00 PM 1.76 35.168 0.367 7.84 4.71 11.99
1/30/2021 8:30:00 PM 1.62 34.916 0.366 7.84 4.61 12.01
1/30/2021 8:45:00 PM 1.58 34.844 0.368 7.83 3.91 11.97
1/30/2021 9:00:00 PM 1.56 34.808 0.367 7.83 3.65 11.93
1/30/2021 9:15:00 PM 1.48 34.664 0.375 7.83 3.55 11.96
1/30/2021 9:30:00 PM 1.33 34.394 0.371 7.83 3.18 11.99
1/30/2021 9:45:00 PM 1.3 34.34 0.37 7.82 3.5 11.95
1/30/2021 10:00:00 PM 1.24 34.232 0.37 7.82 3.54 11.92
1/30/2021 10:15:00 PM 1.18 34.124 0.371 7.82 3.16 11.99
1/30/2021 10:30:00 PM 1.08 33.944 0.372 7.83 2.94 12.02
1/30/2021 10:45:00 PM 1.07 33.926 0.372 7.82 3.06 11.99
1/30/2021 11:00:00 PM 1.08 33.944 0.373 7.82 3.2 11.95
1/30/2021 11:15:00 PM 1 33.8 0.374 7.82 3.07 11.96
1/30/2021 11:30:00 PM 0.94 33.692 0.374 7.82 3.46 12
1/30/2021 11:45:00 PM 1.04 33.872 0.38 7.81 3.24 11.92
1/31/2021 12:00:00 AM 0.93 33.674 0.377 7.82 3.47 11.99
1/31/2021 12:15:00 AM 0.97 33.746 0.381 7.81 3.63 11.91
1/31/2021 12:30:00 AM 0.9 33.62 0.38 7.81 3.77 12.05
1/31/2021 12:45:00 AM 1.05 33.89 0.383 7.81 3.61 11.82
1/31/2021 1:00:00 AM 1.01 33.818 0.384 7.81 3.05 11.87
1/31/2021 1:15:00 AM 0.94 33.692 0.383 7.8 3.14 11.87
1/31/2021 1:30:00 AM 1.03 33.854 0.387 7.8 3.14 11.81
1/31/2021 1:45:00 AM 1.08 33.944 0.392 7.8 2.89 11.78
1/31/2021 2:00:00 AM 0.95 33.71 0.384 7.8 4.11 11.85
1/31/2021 2:15:00 AM 1.03 33.854 0.387 7.79 3.24 11.74
1/31/2021 2:30:00 AM 0.98 33.764 0.385 7.8 3.23 11.78
1/31/2021 2:45:00 AM 1.05 33.89 0.39 7.79 3.57 11.72
1/31/2021 3:00:00 AM 1.07 33.926 0.391 7.79 3.43 11.7
1/31/2021 3:15:00 AM 1.14 34.052 0.393 7.78 3.14 11.63
1/31/2021 3:30:00 AM 1.1 33.98 0.389 7.78 3.19 11.65
1/31/2021 3:45:00 AM 1.18 34.124 0.396 7.78 3.32 11.64
1/31/2021 4:00:00 AM 1.13 34.034 0.392 7.78 3.3 11.63
1/31/2021 4:15:00 AM 1.05 33.89 0.393 7.78 3.13 11.71
1/31/2021 4:30:00 AM 1.12 34.016 0.395 7.79 3.16 11.64
1/31/2021 4:45:00 AM 1.11 33.998 0.393 7.78 2.88 11.65
1/31/2021 5:00:00 AM 1.18 34.124 0.398 7.78 3.14 11.61
1/31/2021 5:15:00 AM 1.24 34.232 0.397 7.78 2.88 11.6
1/31/2021 5:30:00 AM 1.22 34.196 0.398 7.78 2.84 11.57
1/31/2021 5:45:00 AM 1.17 34.106 0.396 7.78 2.98 11.64
1/31/2021 6:00:00 AM 1.09 33.962 0.395 7.79 2.82 11.7
1/31/2021 6:15:00 AM 1.16 34.088 0.397 7.78 2.66 11.67
1/31/2021 6:30:00 AM 1.11 33.998 0.397 7.78 2.94 11.67
1/31/2021 6:45:00 AM 1.11 33.998 0.394 7.78 3.03 11.64
1/31/2021 7:00:00 AM 1.14 34.052 0.399 7.78 3.17 11.63
1/31/2021 7:15:00 AM 1.13 34.034 0.398 7.78 3.5 11.54
1/31/2021 7:30:00 AM 1.13 34.034 0.398 7.78 2.91 11.66
1/31/2021 7:45:00 AM 1.18 34.124 0.399 7.78 3.26 11.63
1/31/2021 8:00:00 AM 1.17 34.106 0.397 7.79 3.8 11.65
1/31/2021 8:15:00 AM 1.14 34.052 0.394 7.79 3.42 11.67
1/31/2021 8:30:00 AM 1.22 34.196 0.395 7.79 3.14 11.67
1/31/2021 8:45:00 AM 1.28 34.304 0.4 7.8 2.72 11.77
1/31/2021 9:00:00 AM 1.24 34.232 0.396 7.8 3.09 11.86
1/31/2021 9:15:00 AM 1.25 34.25 0.393 7.81 2.84 12.02
1/31/2021 9:30:00 AM 1.38 34.484 0.397 7.81 2.52 12.03
1/31/2021 9:45:00 AM 1.4 34.52 0.396 7.82 2.64 12.12
1/31/2021 10:00:00 AM 1.43 34.574 0.396 7.82 2.74 12.17
1/31/2021 10:15:00 AM 1.47 34.646 0.395 7.83 2.87 12.22
1/31/2021 10:30:00 AM 1.47 34.646 0.393 7.83 2.92 12.27
1/31/2021 10:45:00 AM 1.6 34.88 0.395 7.84 3.59 12.28
1/31/2021 11:00:00 AM 1.67 35.006 0.395 7.84 3.48 12.3
1/31/2021 11:15:00 AM 1.65 34.97 0.392 7.85 4.09 12.46
1/31/2021 11:30:00 AM 1.74 35.132 0.393 7.85 3.56 12.46
1/31/2021 11:45:00 AM 1.69 35.042 0.39 7.86 3.66 12.56
1/31/2021 12:00:00 PM 1.79 35.222 0.391 7.86 3.81 12.53
1/31/2021 12:15:00 PM 1.79 35.222 0.388 7.87 3.23 12.67
1/31/2021 12:30:00 PM 1.8 35.24 0.386 7.87 3.59 12.68
1/31/2021 12:45:00 PM 1.83 35.294 0.382 7.88 3.42 12.73
1/31/2021 1:00:00 PM 1.94 35.492 0.384 7.88 2.99 12.73
1/31/2021 1:15:00 PM 1.9 35.42 0.38 7.9 3.35 12.85
1/31/2021 1:30:00 PM 1.92 35.456 0.377 7.9 3.32 12.9
1/31/2021 1:45:00 PM 1.95 35.51 0.378 7.91 3.2 12.94
1/31/2021 2:00:00 PM 1.98 35.564 0.374 7.91 3.33 12.94
1/31/2021 2:15:00 PM 2.02 35.636 0.373 7.91 3.16 12.97
1/31/2021 2:30:00 PM 2.04 35.672 0.372 7.92 3.77 13.01
1/31/2021 2:45:00 PM 2.07 35.726 0.371 7.92 3.61 12.98
1/31/2021 3:00:00 PM 2.09 35.762 0.369 7.92 3.61 12.99
1/31/2021 3:15:00 PM 2.14 35.852 0.369 7.92 3.87 12.94
1/31/2021 3:30:00 PM 2.19 35.942 0.367 7.92 4.59 12.87
1/31/2021 3:45:00 PM 2.17 35.906 0.366 7.92 4.31 12.89
1/31/2021 4:00:00 PM 2.22 35.996 0.365 7.91 3.68 12.8
1/31/2021 4:15:00 PM 2.2 35.96 0.364 7.92 4.85 12.82
1/31/2021 4:30:00 PM 2.21 35.978 0.362 7.91 4.42 12.79
1/31/2021 4:45:00 PM 2.26 36.068 0.368 7.91 4.47 12.66
1/31/2021 5:00:00 PM 2.29 36.122 0.368 7.89 7.67 12.57
1/31/2021 5:15:00 PM 2.29 36.122 0.368 7.89 4.24 12.45
1/31/2021 5:30:00 PM 2.32 36.176 0.369 7.88 4.1 12.33
1/31/2021 5:45:00 PM 2.33 36.194 0.367 7.87 4.66 12.25
1/31/2021 6:00:00 PM 2.27 36.086 0.37 7.87 5.52 12.23
1/31/2021 6:15:00 PM 2.27 36.086 0.369 7.86 5.68 12.14
1/31/2021 6:30:00 PM 2.26 36.068 0.37 7.86 5.7 12.07
1/31/2021 6:45:00 PM 2.23 36.014 0.37 7.85 5.67 12.03
1/31/2021 7:00:00 PM 2.19 35.942 0.37 7.85 6.69 11.94
1/31/2021 7:15:00 PM 2.16 35.888 0.369 7.85 4.95 11.95
1/31/2021 7:30:00 PM 2.15 35.87 0.37 7.84 4.7 11.85
1/31/2021 7:45:00 PM 2.16 35.888 0.372 7.84 4.12 11.82
1/31/2021 8:00:00 PM 2.13 35.834 0.372 7.84 3.77 11.83
1/31/2021 8:15:00 PM 2.15 35.87 0.376 7.83 3.36 11.75
1/31/2021 8:30:00 PM 2.08 35.744 0.374 7.83 3.18 11.78
1/31/2021 8:45:00 PM 2.04 35.672 0.376 7.83 3.51 11.81
1/31/2021 9:00:00 PM 2 35.6 0.374 7.83 3.15 11.74
1/31/2021 9:15:00 PM 2.02 35.636 0.374 7.83 2.93 11.76
1/31/2021 9:30:00 PM 1.96 35.528 0.376 7.83 2.72 11.79
1/31/2021 9:45:00 PM 1.92 35.456 0.376 7.83 2.68 11.79
1/31/2021 10:00:00 PM 1.94 35.492 0.377 7.83 2.66 11.74
1/31/2021 10:15:00 PM 1.99 35.582 0.378 7.82 2.8 11.66
1/31/2021 10:30:00 PM 1.89 35.402 0.376 7.83 2.79 11.76
1/31/2021 10:45:00 PM 1.9 35.42 0.379 7.83 2.9 11.72
1/31/2021 11:00:00 PM 1.84 35.312 0.377 7.82 2.75 11.71
1/31/2021 11:15:00 PM 1.88 35.384 0.379 7.82 2.62 11.7
1/31/2021 11:30:00 PM 1.86 35.348 0.378 7.82 2.61 11.68
1/31/2021 11:45:00 PM 1.86 35.348 0.378 7.82 2.7 11.69
2/1/2021 12:00:00 AM 1.86 35.348 0.379 7.82 2.75 11.64
2/1/2021 12:15:00 AM 1.89 35.402 0.382 7.82 2.78 11.63
2/1/2021 12:30:00 AM 1.85 35.33 0.381 7.82 2.47 11.63
2/1/2021 12:45:00 AM 1.84 35.312 0.379 7.82 2.76 11.63
2/1/2021 1:00:00 AM 1.82 35.276 0.38 7.82 2.62 11.67
2/1/2021 1:15:00 AM 1.83 35.294 0.38 7.81 2.77 11.64
2/1/2021 1:30:00 AM 1.76 35.168 0.376 7.82 2.71 11.66
2/1/2021 1:45:00 AM 1.78 35.204 0.377 7.82 2.53 11.65
2/1/2021 2:00:00 AM 1.78 35.204 0.379 7.82 8.25 11.64
2/1/2021 2:15:00 AM 1.78 35.204 0.378 7.81 2.46 11.54
2/1/2021 2:30:00 AM 1.69 35.042 0.377 7.82 2.51 11.62
2/1/2021 2:45:00 AM 1.73 35.114 0.379 7.81 2.73 11.62
2/1/2021 3:00:00 AM 1.76 35.168 0.379 7.81 2.77 11.58
2/1/2021 3:15:00 AM 1.66 34.988 0.376 7.82 2.46 11.61
2/1/2021 3:30:00 AM 1.68 35.024 0.379 7.81 2.54 11.57
2/1/2021 3:45:00 AM 1.66 34.988 0.377 7.81 2.52 11.6
2/1/2021 4:00:00 AM 1.69 35.042 0.376 7.81 2.42 11.6
2/1/2021 4:15:00 AM 1.78 35.204 0.38 7.81 2.47 11.53
2/1/2021 4:30:00 AM 1.71 35.078 0.375 7.81 2.4 11.57
2/1/2021 4:45:00 AM 1.72 35.096 0.376 7.81 2.6 11.59
2/1/2021 5:00:00 AM 1.77 35.186 0.376 7.81 2.41 11.55
2/1/2021 5:15:00 AM 1.65 34.97 0.373 7.81 2.45 11.63
2/1/2021 5:30:00 AM 1.73 35.114 0.38 7.8 2.58 11.56
2/1/2021 5:45:00 AM 1.63 34.934 0.375 7.81 2.42 11.59
2/1/2021 6:00:00 AM 1.64 34.952 0.376 7.81 2.31 11.64
2/1/2021 6:15:00 AM 1.64 34.952 0.374 7.81 2.43 11.62
2/1/2021 6:30:00 AM 1.66 34.988 0.375 7.81 2.4 11.57
2/1/2021 6:45:00 AM 1.59 34.862 0.374 7.81 2.5 11.65
2/1/2021 7:00:00 AM 1.63 34.934 0.372 7.81 2.61 11.59
2/1/2021 7:15:00 AM 1.64 34.952 0.374 7.8 2.47 11.57
2/1/2021 7:30:00 AM 1.58 34.844 0.372 7.81 2.48 11.62
2/1/2021 7:45:00 AM 1.58 34.844 0.374 7.81 3.82 11.63
2/1/2021 8:00:00 AM 1.54 34.772 0.371 7.81 2.59 11.67
2/1/2021 8:15:00 AM 1.52 34.736 0.369 7.81 2.7 11.71
2/1/2021 8:30:00 AM 1.53 34.754 0.371 7.82 2.75 11.76
2/1/2021 8:45:00 AM 1.55 34.79 0.371 7.82 2.73 11.82
2/1/2021 9:00:00 AM 1.6 34.88 0.374 7.83 3.13 11.91
2/1/2021 9:15:00 AM 1.58 34.844 0.371 7.84 3.2 12.02
2/1/2021 9:30:00 AM 1.7 35.06 0.372 7.84 3.96 12.02
2/1/2021 9:45:00 AM 1.7 35.06 0.374 7.84 3.59 12.07
2/1/2021 10:00:00 AM 1.71 35.078 0.372 7.85 3.69 12.13
2/1/2021 10:15:00 AM 1.79 35.222 0.371 7.85 3.6 12.14
2/1/2021 10:30:00 AM 1.87 35.366 0.37 7.86 3.43 12.25
2/1/2021 10:45:00 AM 1.96 35.528 0.371 7.86 3.45 12.34
2/1/2021 11:00:00 AM 2 35.6 0.368 7.87 3.61 12.39
2/1/2021 11:15:00 AM 2.12 35.816 0.371 7.87 3.91 12.44
2/1/2021 11:30:00 AM 2.2 35.96 0.368 7.87 4 12.45
2/1/2021 11:45:00 AM 2.33 36.194 0.37 7.88 4.29 12.43
2/1/2021 12:00:00 PM 2.37 36.266 0.371 7.88 4.42 12.57
2/1/2021 12:15:00 PM 2.47 36.446 0.372 7.88 4.26 12.57
2/1/2021 12:30:00 PM 2.53 36.554 0.37 7.89 4.33 12.62
2/1/2021 12:45:00 PM 2.57 36.626 0.369 7.89 4.56 12.63
2/1/2021 1:00:00 PM 2.67 36.806 0.371 7.9 3.93 12.65
2/1/2021 1:15:00 PM 2.73 36.914 0.369 7.9 3.73 12.63
2/1/2021 1:30:00 PM 2.74 36.932 0.369 7.91 6.23 12.73
2/1/2021 1:45:00 PM 2.75 36.95 0.366 7.91 5.21 12.7
2/1/2021 2:00:00 PM 2.73 36.914 0.366 7.91 3.73 12.71
2/1/2021 2:15:00 PM 2.7 36.86 0.367 7.92 3.79 12.74
2/1/2021 2:30:00 PM 2.69 36.842 0.366 7.92 4.19 12.78
2/1/2021 2:45:00 PM 2.75 36.95 0.368 7.92 4.48 12.68
2/1/2021 3:00:00 PM 2.69 36.842 0.37 7.92 8.91 12.74
2/1/2021 3:15:00 PM 2.61 36.698 0.371 7.93 3.91 12.79
2/1/2021 3:30:00 PM 2.63 36.734 0.373 7.93 4.26 12.72
2/1/2021 3:45:00 PM 2.67 36.806 0.374 7.93 4.78 12.69
2/1/2021 4:00:00 PM 2.63 36.734 0.375 7.93 4.26 12.68
2/1/2021 4:15:00 PM 2.61 36.698 0.372 7.93 4.12 12.61
2/1/2021 4:30:00 PM 2.63 36.734 0.376 7.92 4.06 12.5
2/1/2021 4:45:00 PM 2.55 36.59 0.374 7.92 4.25 12.46
2/1/2021 5:00:00 PM 2.5 36.5 0.373 7.91 4 12.39
2/1/2021 5:15:00 PM 2.42 36.356 0.374 7.91 4.47 12.4
2/1/2021 5:30:00 PM 2.32 36.176 0.375 7.91 4.71 12.35
2/1/2021 5:45:00 PM 2.31 36.158 0.379 7.9 4.66 12.2
2/1/2021 6:00:00 PM 2.25 36.05 0.38 7.89 4.19 12.17
2/1/2021 6:15:00 PM 2.17 35.906 0.378 7.89 4.46 12.13
2/1/2021 6:30:00 PM 2.12 35.816 0.377 7.88 3.69 12.09
2/1/2021 6:45:00 PM 2.01 35.618 0.375 7.88 4.14 12.11
2/1/2021 7:00:00 PM 1.94 35.492 0.374 7.88 4.58 12.09
2/1/2021 7:15:00 PM 1.95 35.51 0.375 7.87 6.92 12
2/1/2021 7:30:00 PM 1.87 35.366 0.372 7.87 4.89 12
2/1/2021 7:45:00 PM 1.77 35.186 0.37 7.87 4.82 12.05
2/1/2021 8:00:00 PM 1.7 35.06 0.368 7.87 4.52 12.03
2/1/2021 8:15:00 PM 1.67 35.006 0.367 7.87 3.84 11.99
2/1/2021 8:30:00 PM 1.62 34.916 0.368 7.87 4.05 12.03
2/1/2021 8:45:00 PM 1.59 34.862 0.367 7.86 3.29 12.01
2/1/2021 9:00:00 PM 1.61 34.898 0.366 7.86 3.15 11.98
2/1/2021 9:15:00 PM 1.55 34.79 0.366 7.86 2.97 11.99
2/1/2021 9:30:00 PM 1.51 34.718 0.365 7.85 3.05 11.94
2/1/2021 9:45:00 PM 1.5 34.7 0.366 7.85 2.86 11.95
2/1/2021 10:00:00 PM 1.46 34.628 0.364 7.85 2.62 11.96
2/1/2021 10:15:00 PM 1.49 34.682 0.365 7.85 2.7 11.93
2/1/2021 10:30:00 PM 1.43 34.574 0.364 7.85 2.9 11.91
2/1/2021 10:45:00 PM 1.44 34.592 0.365 7.85 2.7 11.9
2/1/2021 11:00:00 PM 1.42 34.556 0.366 7.84 2.83 11.9
2/1/2021 11:15:00 PM 1.39 34.502 0.366 7.84 2.77 11.9
2/1/2021 11:30:00 PM 1.36 34.448 0.365 7.84 3 11.9
2/1/2021 11:45:00 PM 1.31 34.358 0.365 7.84 3.08 11.91
2/2/2021 12:00:00 AM 1.3 34.34 0.367 7.84 2.97 11.9
2/2/2021 12:15:00 AM 1.29 34.322 0.368 7.84 2.95 11.86
2/2/2021 12:30:00 AM 1.24 34.232 0.366 7.84 3.05 11.87
2/2/2021 12:45:00 AM 1.24 34.232 0.366 7.84 3.14 11.87
2/2/2021 1:00:00 AM 1.14 34.052 0.366 7.84 3.15 11.9
2/2/2021 1:15:00 AM 1.12 34.016 0.365 7.84 3.71 11.87
2/2/2021 1:30:00 AM 1.11 33.998 0.366 7.84 3.03 11.88
2/2/2021 1:45:00 AM 1.1 33.98 0.366 7.84 2.91 11.86
2/2/2021 2:00:00 AM 1.06 33.908 0.367 7.84 3.16 11.86
2/2/2021 2:15:00 AM 0.99 33.782 0.367 7.84 2.69 11.86
2/2/2021 2:30:00 AM 0.88 33.584 0.366 7.84 2.58 11.89
2/2/2021 2:45:00 AM 0.95 33.71 0.37 7.83 3.21 11.81
2/2/2021 3:00:00 AM 0.81 33.458 0.368 7.84 2.96 11.85
2/2/2021 3:15:00 AM 0.71 33.278 0.366 7.84 3.22 11.85
2/2/2021 3:30:00 AM 0.75 33.35 0.367 7.84 3.08 11.83
2/2/2021 3:45:00 AM 0.72 33.296 0.367 7.84 2.7 11.84
2/2/2021 4:00:00 AM 0.66 33.188 0.367 7.84 2.76 11.82
2/2/2021 4:15:00 AM 0.63 33.134 0.368 7.83 2.62 11.79
2/2/2021 4:30:00 AM 0.65 33.17 0.369 7.83 2.89 11.72
2/2/2021 4:45:00 AM 0.71 33.278 0.372 7.82 3.38 11.69
2/2/2021 5:00:00 AM 0.75 33.35 0.37 7.82 3.08 11.59
2/2/2021 5:15:00 AM 0.76 33.368 0.373 7.82 3.15 11.59
2/2/2021 5:30:00 AM 0.88 33.584 0.375 7.81 4.31 11.51
2/2/2021 5:45:00 AM 0.9 33.62 0.375 7.81 4.15 11.5
2/2/2021 6:00:00 AM 0.91 33.638 0.372 7.8 4.23 11.5
2/2/2021 6:15:00 AM 0.98 33.764 0.374 7.8 3.74 11.5
2/2/2021 6:30:00 AM 0.94 33.692 0.372 7.8 3.57 11.54
2/2/2021 6:45:00 AM 0.97 33.746 0.372 7.8 4.01 11.53
2/2/2021 7:00:00 AM 0.96 33.728 0.373 7.8 3.69 11.55
2/2/2021 7:15:00 AM 0.97 33.746 0.373 7.8 3.13 11.53
2/2/2021 7:30:00 AM 0.93 33.674 0.374 7.8 11.29 11.54
2/2/2021 7:45:00 AM 0.98 33.764 0.376 7.8 2.9 11.47
2/2/2021 8:00:00 AM 0.99 33.782 0.379 7.8 3.27 11.56
2/2/2021 8:15:00 AM 0.99 33.782 0.376 7.8 2.92 11.58
2/2/2021 8:30:00 AM 1.05 33.89 0.381 7.8 2.93 11.6
2/2/2021 8:45:00 AM 0.95 33.71 0.377 7.81 3.22 11.64
2/2/2021 9:00:00 AM 1.03 33.854 0.381 7.81 3.67 11.63
2/2/2021 9:15:00 AM 1.04 33.872 0.384 7.81 4.24 11.67
2/2/2021 9:30:00 AM 1.09 33.962 0.387 7.82 3.86 11.76
2/2/2021 9:45:00 AM 1.15 34.07 0.389 7.83 3.53 11.83
2/2/2021 10:00:00 AM 1.15 34.07 0.385 7.83 3.49 11.91
2/2/2021 10:15:00 AM 1.18 34.124 0.384 7.84 3.1 11.97
2/2/2021 10:30:00 AM 1.21 34.178 0.382 7.84 3.76 12.11
2/2/2021 10:45:00 AM 1.26 34.268 0.383 7.85 3.61 12.21
2/2/2021 11:00:00 AM 1.3 34.34 0.384 7.86 3.83 12.23
2/2/2021 11:15:00 AM 1.31 34.358 0.381 7.87 4.45 12.31
2/2/2021 11:30:00 AM 1.32 34.376 0.382 7.87 3.81 12.36
2/2/2021 11:45:00 AM 1.4 34.52 0.382 7.88 4.12 12.35
2/2/2021 12:00:00 PM 1.5 34.7 0.383 7.88 4.45 12.38
2/2/2021 12:15:00 PM 1.55 34.79 0.382 7.89 4.89 12.45
2/2/2021 12:30:00 PM 1.56 34.808 0.381 7.89 5.35 12.51
2/2/2021 12:45:00 PM 1.63 34.934 0.38 7.9 5.86 12.56
2/2/2021 1:00:00 PM 1.65 34.97 0.377 7.91 4.96 12.59
2/2/2021 1:15:00 PM 1.69 35.042 0.378 7.91 5.65 12.63
2/2/2021 1:30:00 PM 1.73 35.114 0.374 7.92 5.22 12.68
2/2/2021 1:45:00 PM 1.7 35.06 0.371 7.92 4.78 12.68
2/2/2021 2:00:00 PM 1.73 35.114 0.369 7.93 5.1 12.75
2/2/2021 2:15:00 PM 1.77 35.186 0.366 7.94 5.11 12.81
2/2/2021 2:30:00 PM 1.84 35.312 0.365 7.93 4.96 12.76
2/2/2021 2:45:00 PM 1.85 35.33 0.364 7.94 4.87 12.75
2/2/2021 3:00:00 PM 1.88 35.384 0.363 7.94 4.42 12.74
2/2/2021 3:15:00 PM 1.92 35.456 0.363 7.94 4.85 12.74
2/2/2021 3:30:00 PM 1.95 35.51 0.363 7.93 4.28 12.71
2/2/2021 3:45:00 PM 1.97 35.546 0.363 7.93 4.13 12.69
2/2/2021 4:00:00 PM 2.02 35.636 0.363 7.93 4.41 12.64
2/2/2021 4:15:00 PM 2.04 35.672 0.366 7.93 3.53 12.6
2/2/2021 4:30:00 PM 2.01 35.618 0.364 7.92 4.17 12.55
2/2/2021 4:45:00 PM 1.96 35.528 0.365 7.92 5.37 12.56
2/2/2021 5:00:00 PM 1.95 35.51 0.365 7.92 5.22 12.48
2/2/2021 5:15:00 PM 1.87 35.366 0.364 7.91 4.86 12.43
2/2/2021 5:30:00 PM 1.86 35.348 0.366 7.91 6.66 12.35
2/2/2021 5:45:00 PM 1.89 35.402 0.368 7.9 7.84 12.27
2/2/2021 6:00:00 PM 1.86 35.348 0.368 7.9 3.97 12.22
2/2/2021 6:15:00 PM 1.85 35.33 0.368 7.89 4.12 12.16
2/2/2021 6:30:00 PM 1.82 35.276 0.368 7.89 3.59 12.14
2/2/2021 6:45:00 PM 1.77 35.186 0.368 7.89 3.62 12.11
2/2/2021 7:00:00 PM 1.78 35.204 0.37 7.88 3.14 12.03
2/2/2021 7:15:00 PM 1.72 35.096 0.37 7.88 3.12 12.01
2/2/2021 7:30:00 PM 1.72 35.096 0.372 7.87 3.24 11.97
2/2/2021 7:45:00 PM 1.7 35.06 0.375 7.87 3.1 11.93
2/2/2021 8:00:00 PM 1.64 34.952 0.373 7.87 3.29 11.93
2/2/2021 8:15:00 PM 1.68 35.024 0.376 7.86 3.09 11.86
2/2/2021 8:30:00 PM 1.62 34.916 0.375 7.86 3.38 11.85
2/2/2021 8:45:00 PM 1.64 34.952 0.376 7.86 3.17 11.77
2/2/2021 9:00:00 PM 1.64 34.952 0.376 7.85 2.69 11.76
2/2/2021 9:15:00 PM 1.6 34.88 0.375 7.85 2.64 11.75
2/2/2021 9:30:00 PM 1.58 34.844 0.377 7.85 2.74 11.76
2/2/2021 9:45:00 PM 1.56 34.808 0.375 7.85 2.86 11.74
2/2/2021 10:00:00 PM 1.59 34.862 0.376 7.84 2.53 11.69
2/2/2021 10:15:00 PM 1.56 34.808 0.375 7.84 2.68 11.69
2/2/2021 10:30:00 PM 1.56 34.808 0.376 7.84 2.66 11.66
2/2/2021 10:45:00 PM 1.57 34.826 0.375 7.84 2.57 11.65
2/2/2021 11:00:00 PM 1.58 34.844 0.375 7.83 2.8 11.6
2/2/2021 11:15:00 PM 1.57 34.826 0.375 7.84 2.55 11.57
2/2/2021 11:30:00 PM 1.51 34.718 0.375 7.83 2.7 11.61
2/2/2021 11:45:00 PM 1.51 34.718 0.376 7.84 2.55 11.6
2/3/2021 12:00:00 AM 1.5 34.7 0.373 7.83 2.58 11.6
2/3/2021 12:15:00 AM 1.52 34.736 0.374 7.83 2.56 11.59
2/3/2021 12:30:00 AM 1.53 34.754 0.373 7.83 2.7 11.57
2/3/2021 12:45:00 AM 1.53 34.754 0.376 7.83 2.48 11.58
2/3/2021 1:00:00 AM 1.47 34.646 0.372 7.83 2.56 11.62
2/3/2021 1:15:00 AM 1.5 34.7 0.373 7.83 2.64 11.59
2/3/2021 1:30:00 AM 1.53 34.754 0.373 7.83 2.46 11.55
2/3/2021 1:45:00 AM 1.55 34.79 0.373 7.83 2.5 11.54
2/3/2021 2:00:00 AM 1.54 34.772 0.375 7.83 2.4 11.56
2/3/2021 2:15:00 AM 1.56 34.808 0.372 7.82 2.38 11.53
2/3/2021 2:30:00 AM 1.56 34.808 0.372 7.83 2.38 11.54
2/3/2021 2:45:00 AM 1.61 34.898 0.374 7.82 2.4 11.45
2/3/2021 3:00:00 AM 1.59 34.862 0.372 7.82 2.57 11.48
2/3/2021 3:15:00 AM 1.56 34.808 0.373 7.82 2.66 11.51
2/3/2021 3:30:00 AM 1.63 34.934 0.374 7.82 2.79 11.51
2/3/2021 3:45:00 AM 1.63 34.934 0.372 7.81 2.75 11.46
2/3/2021 4:00:00 AM 1.61 34.898 0.373 7.82 2.82 11.47
2/3/2021 4:15:00 AM 1.6 34.88 0.374 7.82 2.57 11.47
2/3/2021 4:30:00 AM 1.59 34.862 0.373 7.82 3.05 11.46
2/3/2021 4:45:00 AM 1.61 34.898 0.374 7.82 2.65 11.46
2/3/2021 5:00:00 AM 1.59 34.862 0.372 7.82 2.44 11.48
2/3/2021 5:15:00 AM 1.61 34.898 0.375 7.82 2.6 11.48
2/3/2021 5:30:00 AM 1.55 34.79 0.371 7.82 2.39 11.54
2/3/2021 5:45:00 AM 1.59 34.862 0.372 7.82 2.32 11.49
2/3/2021 6:00:00 AM 1.66 34.988 0.373 7.81 2.68 11.44
2/3/2021 6:15:00 AM 1.67 35.006 0.374 7.81 2.57 11.37
2/3/2021 6:30:00 AM 1.65 34.97 0.374 7.81 2.49 11.39
2/3/2021 6:45:00 AM 1.58 34.844 0.372 7.82 2.91 11.48
2/3/2021 7:00:00 AM 1.58 34.844 0.373 7.82 2.82 11.5
2/3/2021 7:15:00 AM 1.58 34.844 0.372 7.82 3.63 11.52
2/3/2021 7:30:00 AM 1.6 34.88 0.371 7.81 2.73 11.47
2/3/2021 7:45:00 AM 1.67 35.006 0.372 7.81 2.58 11.46
2/3/2021 8:00:00 AM 1.64 34.952 0.373 7.82 3.21 11.53
2/3/2021 8:15:00 AM 1.69 35.042 0.371 7.82 2.88 11.56
2/3/2021 8:30:00 AM 1.67 35.006 0.371 7.83 3.15 11.67
2/3/2021 8:45:00 AM 1.66 34.988 0.371 7.83 3.45 11.75
2/3/2021 9:00:00 AM 1.7 35.06 0.37 7.83 3.09 11.79
2/3/2021 9:15:00 AM 1.76 35.168 0.371 7.84 2.97 11.87
2/3/2021 9:30:00 AM 1.81 35.258 0.371 7.85 3.01 11.92
2/3/2021 9:45:00 AM 1.82 35.276 0.37 7.85 3.18 12.01
2/3/2021 10:00:00 AM 1.84 35.312 0.37 7.86 3.1 12.09
2/3/2021 10:15:00 AM 1.94 35.492 0.369 7.86 2.95 12.12
2/3/2021 10:30:00 AM 1.93 35.474 0.368 7.87 3.15 12.24
2/3/2021 10:45:00 AM 1.98 35.564 0.368 7.88 3.08 12.3
2/3/2021 11:00:00 AM 2.02 35.636 0.369 7.88 3.39 12.36
2/3/2021 11:15:00 AM 2.07 35.726 0.37 7.89 3.58 12.41
2/3/2021 11:30:00 AM 2.13 35.834 0.369 7.89 3.36 12.45
2/3/2021 11:45:00 AM 2.15 35.87 0.373 7.9 4.52 12.46
2/3/2021 12:00:00 PM 2.17 35.906 0.37 7.9 4.23 12.53
2/3/2021 12:15:00 PM 2.24 36.032 0.373 7.91 4.92 12.55
2/3/2021 12:30:00 PM 2.27 36.086 0.375 7.91 4.17 12.56
2/3/2021 12:45:00 PM 2.33 36.194 0.378 7.91 4.99 12.59
2/3/2021 1:00:00 PM 2.29 36.122 0.377 7.91 6.64 12.6
2/3/2021 1:15:00 PM 2.27 36.086 0.378 7.91 6.73 12.58
2/3/2021 1:30:00 PM 2.28 36.104 0.383 7.92 5.95 12.59
2/3/2021 1:45:00 PM 2.29 36.122 0.38 7.92 5.48 12.59
2/3/2021 2:00:00 PM 2.27 36.086 0.376 7.93 4.52 12.62
2/3/2021 2:15:00 PM 2.33 36.194 0.377 7.92 5.22 12.59
2/3/2021 2:30:00 PM 2.37 36.266 0.377 7.92 5.35 12.54
2/3/2021 2:45:00 PM 2.35 36.23 0.377 7.93 5.17 12.61
2/3/2021 3:00:00 PM 2.39 36.302 0.377 7.93 5.17 12.59
2/3/2021 3:15:00 PM 2.4 36.32 0.379 7.93 6.12 12.57
2/3/2021 3:30:00 PM 2.39 36.302 0.375 7.93 6.45 12.58
2/3/2021 3:45:00 PM 2.4 36.32 0.374 7.93 5.09 12.58
2/3/2021 4:00:00 PM 2.41 36.338 0.374 7.92 5.76 12.6
2/3/2021 4:15:00 PM 2.42 36.356 0.373 7.92 5.32 12.53
2/3/2021 4:30:00 PM 2.43 36.374 0.374 7.92 4.84 12.51
2/3/2021 4:45:00 PM 2.42 36.356 0.374 7.92 5.26 12.52
2/3/2021 5:00:00 PM 2.43 36.374 0.373 7.91 4.37 12.42
2/3/2021 5:15:00 PM 2.39 36.302 0.371 7.91 4.8 12.39
2/3/2021 5:30:00 PM 2.41 36.338 0.372 7.9 4.5 12.28
2/3/2021 5:45:00 PM 2.37 36.266 0.37 7.89 4.25 12.22
2/3/2021 6:00:00 PM 2.35 36.23 0.367 7.89 4.49 12.14
2/3/2021 6:15:00 PM 2.42 36.356 0.369 7.88 4.49 12.1
2/3/2021 6:30:00 PM 2.31 36.158 0.366 7.88 4.21 12.07
2/3/2021 6:45:00 PM 2.28 36.104 0.366 7.88 5.02 12.05
2/3/2021 7:00:00 PM 2.28 36.104 0.365 7.87 5.34 12
2/3/2021 7:15:00 PM 2.27 36.086 0.365 7.86 5.68 11.94
2/3/2021 7:30:00 PM 2.26 36.068 0.364 7.86 5.1 11.91
2/3/2021 7:45:00 PM 2.21 35.978 0.361 7.86 4.5 11.9
2/3/2021 8:00:00 PM 2.28 36.104 0.367 7.85 4.6 11.81
2/3/2021 8:15:00 PM 2.21 35.978 0.362 7.85 4.09 11.83
2/3/2021 8:30:00 PM 2.18 35.924 0.362 7.85 3.48 11.79
2/3/2021 8:45:00 PM 2.1 35.78 0.362 7.85 3.79 11.8
2/3/2021 9:00:00 PM 2.1 35.78 0.361 7.84 2.87 11.77
2/3/2021 9:15:00 PM 2.12 35.816 0.362 7.84 2.93 11.71
2/3/2021 9:30:00 PM 2.03 35.654 0.36 7.84 3 11.75
2/3/2021 9:45:00 PM 2.01 35.618 0.36 7.84 2.93 11.73
2/3/2021 10:00:00 PM 1.98 35.564 0.362 7.83 2.81 11.69
2/3/2021 10:15:00 PM 1.96 35.528 0.363 7.83 2.81 11.69
2/3/2021 10:30:00 PM 1.93 35.474 0.361 7.83 3 11.68
2/3/2021 10:45:00 PM 1.93 35.474 0.362 7.82 2.69 11.66
2/3/2021 11:00:00 PM 1.89 35.402 0.36 7.82 2.64 11.63
2/3/2021 11:15:00 PM 1.85 35.33 0.362 7.82 2.74 11.65
2/3/2021 11:30:00 PM 1.81 35.258 0.361 7.82 2.79 11.68
2/3/2021 11:45:00 PM 1.79 35.222 0.359 7.82 2.81 11.63
2/4/2021 12:00:00 AM 1.81 35.258 0.36 7.82 2.48 11.62
2/4/2021 12:15:00 AM 1.82 35.276 0.361 7.81 2.71 11.6
2/4/2021 12:30:00 AM 1.87 35.366 0.363 7.81 2.63 11.56
2/4/2021 12:45:00 AM 1.8 35.24 0.36 7.81 2.51 11.6
2/4/2021 1:00:00 AM 1.76 35.168 0.36 7.81 2.7 11.61
2/4/2021 1:15:00 AM 1.82 35.276 0.363 7.81 2.71 11.55
2/4/2021 1:30:00 AM 1.75 35.15 0.363 7.81 2.35 11.58
2/4/2021 1:45:00 AM 1.71 35.078 0.361 7.81 2.65 11.59
2/4/2021 2:00:00 AM 1.72 35.096 0.362 7.81 2.38 11.61
2/4/2021 2:15:00 AM 1.68 35.024 0.361 7.81 2.62 11.62
2/4/2021 2:30:00 AM 1.72 35.096 0.365 7.81 2.44 11.6
2/4/2021 2:45:00 AM 1.68 35.024 0.364 7.81 2.66 11.63
2/4/2021 3:00:00 AM 1.63 34.934 0.361 7.81 2.43 11.62
2/4/2021 3:15:00 AM 1.6 34.88 0.363 7.81 2.56 11.63
2/4/2021 3:30:00 AM 1.59 34.862 0.362 7.81 2.43 11.65
2/4/2021 3:45:00 AM 1.59 34.862 0.363 7.81 2.6 11.64
2/4/2021 4:00:00 AM 1.52 34.736 0.361 7.81 2.65 11.68
2/4/2021 4:15:00 AM 1.54 34.772 0.363 7.81 2.53 11.66
2/4/2021 4:30:00 AM 1.55 34.79 0.364 7.81 2.63 11.64
2/4/2021 4:45:00 AM 1.49 34.682 0.363 7.81 2.79 11.66
2/4/2021 5:00:00 AM 1.5 34.7 0.364 7.81 2.71 11.66
2/4/2021 5:15:00 AM 1.5 34.7 0.365 7.81 2.74 11.67
2/4/2021 5:30:00 AM 1.51 34.718 0.365 7.8 2.6 11.63
2/4/2021 5:45:00 AM 1.49 34.682 0.364 7.81 2.5 11.66
2/4/2021 6:00:00 AM 1.52 34.736 0.366 7.81 2.47 11.66
2/4/2021 6:15:00 AM 1.55 34.79 0.365 7.8 2.5 11.61
2/4/2021 6:30:00 AM 1.55 34.79 0.365 7.81 2.39 11.63
2/4/2021 6:45:00 AM 1.55 34.79 0.366 7.8 2.61 11.62
2/4/2021 7:00:00 AM 1.56 34.808 0.364 7.8 2.5 11.62
2/4/2021 7:15:00 AM 1.57 34.826 0.365 7.8 2.51 11.63
2/4/2021 7:30:00 AM 1.57 34.826 0.365 7.8 2.66 11.64
2/4/2021 7:45:00 AM 1.62 34.916 0.367 7.8 3.18 11.6
2/4/2021 8:00:00 AM 1.55 34.79 0.365 7.81 3.5 11.67
2/4/2021 8:15:00 AM 1.53 34.754 0.366 7.81 3.06 11.75
2/4/2021 8:30:00 AM 1.53 34.754 0.366 7.82 3.44 11.83
2/4/2021 8:45:00 AM 1.57 34.826 0.365 7.82 3.56 11.81
2/4/2021 9:00:00 AM 1.59 34.862 0.365 7.82 3.63 11.88
2/4/2021 9:15:00 AM 1.62 34.916 0.366 7.83 3.53 11.97
2/4/2021 9:30:00 AM 1.66 34.988 0.365 7.83 3.34 12.02
2/4/2021 9:45:00 AM 1.72 35.096 0.366 7.84 3.11 12.11
2/4/2021 10:00:00 AM 1.84 35.312 0.368 7.84 3.64 12.13
2/4/2021 10:15:00 AM 1.91 35.438 0.365 7.84 3.68 12.18
2/4/2021 10:30:00 AM 1.98 35.564 0.365 7.85 3.63 12.29
2/4/2021 10:45:00 AM 2.11 35.798 0.365 7.86 3.75 12.32
2/4/2021 11:00:00 AM 2.28 36.104 0.367 7.86 3.83 12.31
2/4/2021 11:15:00 AM 2.37 36.266 0.363 7.86 4.93 12.39
2/4/2021 11:30:00 AM 2.54 36.572 0.365 7.87 4.91 12.39
2/4/2021 11:45:00 AM 2.67 36.806 0.363 7.87 5.24 12.44
2/4/2021 12:00:00 PM 2.85 37.13 0.365 7.87 6.29 12.41
2/4/2021 12:15:00 PM 2.96 37.328 0.363 7.88 5.54 12.49
2/4/2021 12:30:00 PM 3.12 37.616 0.362 7.88 6.14 12.52
2/4/2021 12:45:00 PM 3.29 37.922 0.363 7.88 4.65 12.47
2/4/2021 1:00:00 PM 3.41 38.138 0.361 7.88 4.4 12.49
2/4/2021 1:15:00 PM 3.53 38.354 0.361 7.89 4.4 12.54
2/4/2021 1:30:00 PM 3.66 38.588 0.361 7.89 4.32 12.51
2/4/2021 1:45:00 PM 3.77 38.786 0.362 7.89 4.52 12.52
2/4/2021 2:00:00 PM 3.88 38.984 0.362 7.89 4.49 12.5
2/4/2021 2:15:00 PM 3.95 39.11 0.361 7.9 3.96 12.5
2/4/2021 2:30:00 PM 4.05 39.29 0.36 7.9 4.05 12.46
2/4/2021 2:45:00 PM 4.11 39.398 0.36 7.9 4.44 12.45
2/4/2021 3:00:00 PM 4.16 39.488 0.358 7.9 4.28 12.47
2/4/2021 3:15:00 PM 4.21 39.578 0.361 7.9 5.14 12.46
2/4/2021 3:30:00 PM 4.23 39.614 0.36 7.9 4.33 12.42
2/4/2021 3:45:00 PM 4.24 39.632 0.363 7.9 4.26 12.41
2/4/2021 4:00:00 PM 4.26 39.668 0.369 7.9 4.71 12.3
2/4/2021 4:15:00 PM 4.22 39.596 0.375 7.9 4.2 12.3
2/4/2021 4:30:00 PM 4.17 39.506 0.382 7.9 4.57 12.27
2/4/2021 4:45:00 PM 4.11 39.398 0.385 7.89 4.52 12.19
2/4/2021 5:00:00 PM 4.04 39.272 0.387 7.89 3.82 12.16
2/4/2021 5:15:00 PM 3.98 39.164 0.388 7.88 4.91 12.04
2/4/2021 5:30:00 PM 3.87 38.966 0.387 7.88 5.57 12.01
2/4/2021 5:45:00 PM 3.74 38.732 0.385 7.87 5.78 11.99
2/4/2021 6:00:00 PM 3.61 38.498 0.383 7.87 5.89 11.93
2/4/2021 6:15:00 PM 3.49 38.282 0.383 7.86 6.34 11.86
2/4/2021 6:30:00 PM 3.38 38.084 0.382 7.86 5.41 11.83
2/4/2021 6:45:00 PM 3.27 37.886 0.38 7.85 5.14 11.81
2/4/2021 7:00:00 PM 3.11 37.598 0.38 7.86 5.08 11.78
2/4/2021 7:15:00 PM 3 37.4 0.379 7.85 4.63 11.74
2/4/2021 7:30:00 PM 2.79 37.022 0.374 7.85 4.47 11.77
2/4/2021 7:45:00 PM 2.75 36.95 0.377 7.85 4.65 11.74
2/4/2021 8:00:00 PM 2.62 36.716 0.375 7.84 4.66 11.75
2/4/2021 8:15:00 PM 2.51 36.518 0.375 7.84 5.03 11.73
2/4/2021 8:30:00 PM 2.36 36.248 0.372 7.84 5.08 11.78
2/4/2021 8:45:00 PM 2.27 36.086 0.372 7.84 4.2 11.79
2/4/2021 9:00:00 PM 2.14 35.852 0.37 7.84 3.51 11.81
2/4/2021 9:15:00 PM 2.08 35.744 0.37 7.84 3.18 11.79
2/4/2021 9:30:00 PM 1.96 35.528 0.369 7.84 3.44 11.84
2/4/2021 9:45:00 PM 1.96 35.528 0.368 7.84 3.18 11.79
2/4/2021 10:00:00 PM 1.87 35.366 0.367 7.83 3.05 11.79
2/4/2021 10:15:00 PM 1.82 35.276 0.365 7.83 3.04 11.74
2/4/2021 10:30:00 PM 1.79 35.222 0.364 7.82 2.87 11.71
2/4/2021 10:45:00 PM 1.75 35.15 0.366 7.83 2.77 11.71
2/4/2021 11:00:00 PM 1.75 35.15 0.365 7.82 2.74 11.7
2/4/2021 11:15:00 PM 1.68 35.024 0.365 7.83 2.94 11.73
2/4/2021 11:30:00 PM 1.64 34.952 0.364 7.82 2.82 11.74
2/4/2021 11:45:00 PM 1.63 34.934 0.365 7.82 2.62 11.69
2/5/2021 12:00:00 AM 1.62 34.916 0.364 7.82 2.63 11.66
2/5/2021 12:15:00 AM 1.62 34.916 0.365 7.82 2.68 11.67
2/5/2021 12:30:00 AM 1.57 34.826 0.363 7.82 2.82 11.71
2/5/2021 12:45:00 AM 1.62 34.916 0.363 7.82 3.15 11.66
2/5/2021 1:00:00 AM 1.59 34.862 0.361 7.82 2.88 11.66
2/5/2021 1:15:00 AM 1.65 34.97 0.363 7.81 3.04 11.63
2/5/2021 1:30:00 AM 1.68 35.024 0.365 7.81 2.82 11.6
2/5/2021 1:45:00 AM 1.68 35.024 0.361 7.81 2.72 11.6
2/5/2021 2:00:00 AM 1.69 35.042 0.362 7.81 2.86 11.6
2/5/2021 2:15:00 AM 1.77 35.186 0.365 7.81 2.65 11.58
2/5/2021 2:30:00 AM 1.75 35.15 0.362 7.8 2.53 11.56
2/5/2021 2:45:00 AM 1.78 35.204 0.365 7.81 2.55 11.53
2/5/2021 3:00:00 AM 1.74 35.132 0.362 7.81 2.45 11.56
2/5/2021 3:15:00 AM 1.81 35.258 0.364 7.81 2.79 11.53
2/5/2021 3:30:00 AM 1.82 35.276 0.363 7.81 2.73 11.54
2/5/2021 3:45:00 AM 1.85 35.33 0.363 7.81 2.69 11.54
2/5/2021 4:00:00 AM 1.91 35.438 0.363 7.81 2.6 11.53
2/5/2021 4:15:00 AM 1.91 35.438 0.363 7.8 2.43 11.54
2/5/2021 4:30:00 AM 1.97 35.546 0.365 7.81 2.69 11.51
2/5/2021 4:45:00 AM 1.99 35.582 0.364 7.8 2.59 11.49
2/5/2021 5:00:00 AM 2.02 35.636 0.366 7.8 2.5 11.47
2/5/2021 5:15:00 AM 2 35.6 0.364 7.8 2.55 11.43
2/5/2021 5:30:00 AM 2 35.6 0.364 7.8 2.84 11.46
2/5/2021 5:45:00 AM 2 35.6 0.365 7.8 2.44 11.46
2/5/2021 6:00:00 AM 2.07 35.726 0.365 7.8 2.57 11.44
2/5/2021 6:15:00 AM 2.07 35.726 0.364 7.8 2.86 11.45
2/5/2021 6:30:00 AM 2.09 35.762 0.363 7.8 2.6 11.44
2/5/2021 6:45:00 AM 2.13 35.834 0.367 7.8 2.82 11.45
2/5/2021 7:00:00 AM 2.1 35.78 0.365 7.8 2.64 11.42
2/5/2021 7:15:00 AM 2.11 35.798 0.366 7.8 2.71 11.44
2/5/2021 7:30:00 AM 2.16 35.888 0.367 7.8 2.79 11.43
2/5/2021 7:45:00 AM 2.19 35.942 0.366 7.8 3.57 11.43
2/5/2021 8:00:00 AM 2.2 35.96 0.365 7.8 4.05 11.45
2/5/2021 8:15:00 AM 2.21 35.978 0.366 7.81 5.52 11.52
2/5/2021 8:30:00 AM 2.19 35.942 0.363 7.81 3.94 11.61
2/5/2021 8:45:00 AM 2.27 36.086 0.365 7.81 3.66 11.62
2/5/2021 9:00:00 AM 2.3 36.14 0.366 7.82 4.07 11.66
2/5/2021 9:15:00 AM 2.35 36.23 0.366 7.83 4.12 11.75
2/5/2021 9:30:00 AM 2.43 36.374 0.366 7.83 4.15 11.8
2/5/2021 9:45:00 AM 2.48 36.464 0.364 7.83 4.9 11.84
2/5/2021 10:00:00 AM 2.57 36.626 0.366 7.84 4.05 11.91
2/5/2021 10:15:00 AM 2.65 36.77 0.365 7.85 3.17 12
2/5/2021 10:30:00 AM 2.7 36.86 0.363 7.86 3.31 12.09
2/5/2021 10:45:00 AM 2.83 37.094